<?xml version="1.0" encoding="utf-8"?>
<gpx xmlns:xsi="http://www.w3.org/2001/XMLSchema-instance" xmlns:xsd="http://www.w3.org/2001/XMLSchema" version="1.1" creator="Shapelink.com" xmlns="http://www.topografix.com/GPX/1/1" xmlns:gpxtpx="http://www.garmin.com/xmlschemas/TrackPointExtension/v1">
  <metadata>
    <name>Kører 20.02 km, 2012-05-03</name>
    <desc></desc>
    <author><name>Christian Sverrhag</name></author> 
    <time>2012-05-03T18:24:14Z</time>
  </metadata>
  <trk>
    <name>Kører 20.02 km, 2012-05-03</name>
    <trkseg>
      <trkpt lat="55.6963009" lon="13.1958212">
        <ele>25.1317</ele>
        <time>2012-05-03T18:24:14Z</time>
      </trkpt>
      <trkpt lat="55.6962428" lon="13.1960203">
        <ele>26.5736</ele>
        <time>2012-05-03T18:24:18Z</time>
      </trkpt>
      <trkpt lat="55.6961927" lon="13.1961014">
        <ele>27.0543</ele>
        <time>2012-05-03T18:24:20Z</time>
      </trkpt>
      <trkpt lat="55.6960107" lon="13.1961226">
        <ele>27.0543</ele>
        <time>2012-05-03T18:24:25Z</time>
      </trkpt>
      <trkpt lat="55.6958968" lon="13.1961268">
        <ele>33.3029</ele>
        <time>2012-05-03T18:24:29Z</time>
      </trkpt>
      <trkpt lat="55.6958115" lon="13.1962784">
        <ele>40.0321</ele>
        <time>2012-05-03T18:24:34Z</time>
      </trkpt>
      <trkpt lat="55.6958139" lon="13.1966225">
        <ele>39.5513</ele>
        <time>2012-05-03T18:24:39Z</time>
      </trkpt>
      <trkpt lat="55.6958123" lon="13.1967004">
        <ele>38.5901</ele>
        <time>2012-05-03T18:24:40Z</time>
      </trkpt>
      <trkpt lat="55.6958197" lon="13.1970009">
        <ele>40.5128</ele>
        <time>2012-05-03T18:24:44Z</time>
      </trkpt>
      <trkpt lat="55.6958148" lon="13.1973624">
        <ele>40.0321</ele>
        <time>2012-05-03T18:24:50Z</time>
      </trkpt>
      <trkpt lat="55.6958495" lon="13.1976955">
        <ele>43.3966</ele>
        <time>2012-05-03T18:24:55Z</time>
      </trkpt>
      <trkpt lat="55.6958994" lon="13.197983">
        <ele>40.0321</ele>
        <time>2012-05-03T18:25:00Z</time>
      </trkpt>
      <trkpt lat="55.6959713" lon="13.1983447">
        <ele>43.3966</ele>
        <time>2012-05-03T18:25:06Z</time>
      </trkpt>
      <trkpt lat="55.6960049" lon="13.1986331">
        <ele>36.1868</ele>
        <time>2012-05-03T18:25:11Z</time>
      </trkpt>
      <trkpt lat="55.696035" lon="13.1989199">
        <ele>35.2255</ele>
        <time>2012-05-03T18:25:16Z</time>
      </trkpt>
      <trkpt lat="55.6960824" lon="13.1991238">
        <ele>31.8607</ele>
        <time>2012-05-03T18:25:20Z</time>
      </trkpt>
      <trkpt lat="55.6961797" lon="13.1993901">
        <ele>26.5736</ele>
        <time>2012-05-03T18:25:26Z</time>
      </trkpt>
      <trkpt lat="55.6962719" lon="13.1996197">
        <ele>20.8057</ele>
        <time>2012-05-03T18:25:31Z</time>
      </trkpt>
      <trkpt lat="55.6963271" lon="13.1997811">
        <ele>18.8831</ele>
        <time>2012-05-03T18:25:34Z</time>
      </trkpt>
      <trkpt lat="55.696434" lon="13.2000121">
        <ele>17.9218</ele>
        <time>2012-05-03T18:25:39Z</time>
      </trkpt>
      <trkpt lat="55.6965846" lon="13.200259">
        <ele>16.9604</ele>
        <time>2012-05-03T18:25:45Z</time>
      </trkpt>
      <trkpt lat="55.6967123" lon="13.2004668">
        <ele>17.4412</ele>
        <time>2012-05-03T18:25:50Z</time>
      </trkpt>
      <trkpt lat="55.6968141" lon="13.20072">
        <ele>18.4023</ele>
        <time>2012-05-03T18:25:55Z</time>
      </trkpt>
      <trkpt lat="55.6969446" lon="13.2009132">
        <ele>19.3638</ele>
        <time>2012-05-03T18:26:00Z</time>
      </trkpt>
      <trkpt lat="55.6970677" lon="13.2011271">
        <ele>21.2864</ele>
        <time>2012-05-03T18:26:05Z</time>
      </trkpt>
      <trkpt lat="55.6971981" lon="13.2013136">
        <ele>23.6896</ele>
        <time>2012-05-03T18:26:10Z</time>
      </trkpt>
      <trkpt lat="55.6973628" lon="13.2015434">
        <ele>26.5736</ele>
        <time>2012-05-03T18:26:16Z</time>
      </trkpt>
      <trkpt lat="55.6975243" lon="13.201818">
        <ele>27.5349</ele>
        <time>2012-05-03T18:26:23Z</time>
      </trkpt>
      <trkpt lat="55.6976156" lon="13.2019951">
        <ele>29.4575</ele>
        <time>2012-05-03T18:26:27Z</time>
      </trkpt>
      <trkpt lat="55.6977612" lon="13.2021716">
        <ele>31.3801</ele>
        <time>2012-05-03T18:26:32Z</time>
      </trkpt>
      <trkpt lat="55.6979151" lon="13.2023781">
        <ele>31.8607</ele>
        <time>2012-05-03T18:26:38Z</time>
      </trkpt>
      <trkpt lat="55.6980612" lon="13.2026519">
        <ele>29.9381</ele>
        <time>2012-05-03T18:26:45Z</time>
      </trkpt>
      <trkpt lat="55.6981523" lon="13.202802">
        <ele>30.4188</ele>
        <time>2012-05-03T18:26:49Z</time>
      </trkpt>
      <trkpt lat="55.6982973" lon="13.2030296">
        <ele>30.4188</ele>
        <time>2012-05-03T18:26:55Z</time>
      </trkpt>
      <trkpt lat="55.6984045" lon="13.2032318">
        <ele>30.4188</ele>
        <time>2012-05-03T18:27:00Z</time>
      </trkpt>
      <trkpt lat="55.6984919" lon="13.2033911">
        <ele>30.8995</ele>
        <time>2012-05-03T18:27:04Z</time>
      </trkpt>
      <trkpt lat="55.6985988" lon="13.2035719">
        <ele>30.4188</ele>
        <time>2012-05-03T18:27:09Z</time>
      </trkpt>
      <trkpt lat="55.6987574" lon="13.2037744">
        <ele>31.3801</ele>
        <time>2012-05-03T18:27:15Z</time>
      </trkpt>
      <trkpt lat="55.6989288" lon="13.2040226">
        <ele>31.3801</ele>
        <time>2012-05-03T18:27:22Z</time>
      </trkpt>
      <trkpt lat="55.6990213" lon="13.2042269">
        <ele>30.4188</ele>
        <time>2012-05-03T18:27:27Z</time>
      </trkpt>
      <trkpt lat="55.6991272" lon="13.2044145">
        <ele>29.4575</ele>
        <time>2012-05-03T18:27:32Z</time>
      </trkpt>
      <trkpt lat="55.6992623" lon="13.2045866">
        <ele>30.8995</ele>
        <time>2012-05-03T18:27:37Z</time>
      </trkpt>
      <trkpt lat="55.6993682" lon="13.2048057">
        <ele>32.3416</ele>
        <time>2012-05-03T18:27:42Z</time>
      </trkpt>
      <trkpt lat="55.6994991" lon="13.2049925">
        <ele>33.7834</ele>
        <time>2012-05-03T18:27:47Z</time>
      </trkpt>
      <trkpt lat="55.699658" lon="13.2052693">
        <ele>35.2255</ele>
        <time>2012-05-03T18:27:54Z</time>
      </trkpt>
      <trkpt lat="55.6997421" lon="13.2054779">
        <ele>35.2255</ele>
        <time>2012-05-03T18:27:59Z</time>
      </trkpt>
      <trkpt lat="55.6998406" lon="13.2056599">
        <ele>35.2255</ele>
        <time>2012-05-03T18:28:04Z</time>
      </trkpt>
      <trkpt lat="55.6999395" lon="13.2058654">
        <ele>36.1868</ele>
        <time>2012-05-03T18:28:09Z</time>
      </trkpt>
      <trkpt lat="55.7000224" lon="13.2061074">
        <ele>36.6675</ele>
        <time>2012-05-03T18:28:14Z</time>
      </trkpt>
      <trkpt lat="55.7000973" lon="13.2062723">
        <ele>36.1868</ele>
        <time>2012-05-03T18:28:18Z</time>
      </trkpt>
      <trkpt lat="55.7002653" lon="13.2064417">
        <ele>34.7449</ele>
        <time>2012-05-03T18:28:24Z</time>
      </trkpt>
      <trkpt lat="55.7003575" lon="13.2065798">
        <ele>33.7834</ele>
        <time>2012-05-03T18:28:28Z</time>
      </trkpt>
      <trkpt lat="55.7003461" lon="13.2067923">
        <ele>33.3029</ele>
        <time>2012-05-03T18:28:32Z</time>
      </trkpt>
      <trkpt lat="55.7003417" lon="13.2070473">
        <ele>33.7834</ele>
        <time>2012-05-03T18:28:36Z</time>
      </trkpt>
      <trkpt lat="55.7004233" lon="13.2074236">
        <ele>34.7449</ele>
        <time>2012-05-03T18:28:43Z</time>
      </trkpt>
      <trkpt lat="55.7004804" lon="13.2076946">
        <ele>35.2255</ele>
        <time>2012-05-03T18:28:48Z</time>
      </trkpt>
      <trkpt lat="55.7005011" lon="13.2079479">
        <ele>37.6287</ele>
        <time>2012-05-03T18:28:53Z</time>
      </trkpt>
      <trkpt lat="55.7005406" lon="13.2082114">
        <ele>39.0707</ele>
        <time>2012-05-03T18:28:58Z</time>
      </trkpt>
      <trkpt lat="55.7006036" lon="13.2083996">
        <ele>39.0707</ele>
        <time>2012-05-03T18:29:02Z</time>
      </trkpt>
      <trkpt lat="55.7006832" lon="13.2086349">
        <ele>39.0707</ele>
        <time>2012-05-03T18:29:07Z</time>
      </trkpt>
      <trkpt lat="55.7007549" lon="13.208825">
        <ele>38.1094</ele>
        <time>2012-05-03T18:29:11Z</time>
      </trkpt>
      <trkpt lat="55.7008328" lon="13.2090933">
        <ele>39.0707</ele>
        <time>2012-05-03T18:29:17Z</time>
      </trkpt>
      <trkpt lat="55.7009147" lon="13.2093773">
        <ele>39.5513</ele>
        <time>2012-05-03T18:29:23Z</time>
      </trkpt>
      <trkpt lat="55.7009935" lon="13.2096418">
        <ele>36.6675</ele>
        <time>2012-05-03T18:29:29Z</time>
      </trkpt>
      <trkpt lat="55.7010221" lon="13.2097911">
        <ele>35.7061</ele>
        <time>2012-05-03T18:29:32Z</time>
      </trkpt>
      <trkpt lat="55.7010247" lon="13.2099378">
        <ele>35.7061</ele>
        <time>2012-05-03T18:29:35Z</time>
      </trkpt>
      <trkpt lat="55.7010986" lon="13.2102317">
        <ele>36.1868</ele>
        <time>2012-05-03T18:29:41Z</time>
      </trkpt>
      <trkpt lat="55.7011277" lon="13.210441">
        <ele>39.0707</ele>
        <time>2012-05-03T18:29:46Z</time>
      </trkpt>
      <trkpt lat="55.7012006" lon="13.2106533">
        <ele>41.474</ele>
        <time>2012-05-03T18:29:51Z</time>
      </trkpt>
      <trkpt lat="55.7012987" lon="13.2108281">
        <ele>42.4354</ele>
        <time>2012-05-03T18:29:55Z</time>
      </trkpt>
      <trkpt lat="55.7013892" lon="13.211056">
        <ele>43.8773</ele>
        <time>2012-05-03T18:30:00Z</time>
      </trkpt>
      <trkpt lat="55.7014386" lon="13.2112576">
        <ele>44.358</ele>
        <time>2012-05-03T18:30:04Z</time>
      </trkpt>
      <trkpt lat="55.7014756" lon="13.2115289">
        <ele>43.8773</ele>
        <time>2012-05-03T18:30:09Z</time>
      </trkpt>
      <trkpt lat="55.7014401" lon="13.211829">
        <ele>42.916</ele>
        <time>2012-05-03T18:30:14Z</time>
      </trkpt>
      <trkpt lat="55.7014446" lon="13.2121413">
        <ele>41.9547</ele>
        <time>2012-05-03T18:30:19Z</time>
      </trkpt>
      <trkpt lat="55.7015401" lon="13.2122988">
        <ele>40.9934</ele>
        <time>2012-05-03T18:30:23Z</time>
      </trkpt>
      <trkpt lat="55.7016329" lon="13.2124068">
        <ele>40.5128</ele>
        <time>2012-05-03T18:30:27Z</time>
      </trkpt>
      <trkpt lat="55.701682" lon="13.2124639">
        <ele>40.0321</ele>
        <time>2012-05-03T18:30:29Z</time>
      </trkpt>
      <trkpt lat="55.7017595" lon="13.2127153">
        <ele>43.8773</ele>
        <time>2012-05-03T18:30:35Z</time>
      </trkpt>
      <trkpt lat="55.7018261" lon="13.2129088">
        <ele>44.358</ele>
        <time>2012-05-03T18:30:39Z</time>
      </trkpt>
      <trkpt lat="55.7019006" lon="13.2131359">
        <ele>45.7999</ele>
        <time>2012-05-03T18:30:44Z</time>
      </trkpt>
      <trkpt lat="55.7019145" lon="13.213238">
        <ele>46.2806</ele>
        <time>2012-05-03T18:30:46Z</time>
      </trkpt>
      <trkpt lat="55.7019903" lon="13.2134724">
        <ele>46.2806</ele>
        <time>2012-05-03T18:30:51Z</time>
      </trkpt>
      <trkpt lat="55.702003" lon="13.2135148">
        <ele>46.2806</ele>
        <time>2012-05-03T18:30:52Z</time>
      </trkpt>
      <trkpt lat="55.7021256" lon="13.2138699">
        <ele>49.1646</ele>
        <time>2012-05-03T18:30:59Z</time>
      </trkpt>
      <trkpt lat="55.702174" lon="13.2140839">
        <ele>49.1646</ele>
        <time>2012-05-03T18:31:03Z</time>
      </trkpt>
      <trkpt lat="55.7022119" lon="13.2142926">
        <ele>49.1646</ele>
        <time>2012-05-03T18:31:07Z</time>
      </trkpt>
      <trkpt lat="55.7022454" lon="13.214433">
        <ele>48.2034</ele>
        <time>2012-05-03T18:31:10Z</time>
      </trkpt>
      <trkpt lat="55.7023544" lon="13.214691">
        <ele>48.2034</ele>
        <time>2012-05-03T18:31:16Z</time>
      </trkpt>
      <trkpt lat="55.7024378" lon="13.2149839">
        <ele>48.2034</ele>
        <time>2012-05-03T18:31:22Z</time>
      </trkpt>
      <trkpt lat="55.7024583" lon="13.2150901">
        <ele>47.2418</ele>
        <time>2012-05-03T18:31:24Z</time>
      </trkpt>
      <trkpt lat="55.7024901" lon="13.2152201">
        <ele>46.2806</ele>
        <time>2012-05-03T18:31:27Z</time>
      </trkpt>
      <trkpt lat="55.7025329" lon="13.2154582">
        <ele>45.7999</ele>
        <time>2012-05-03T18:31:32Z</time>
      </trkpt>
      <trkpt lat="55.7026034" lon="13.2158011">
        <ele>45.3192</ele>
        <time>2012-05-03T18:31:39Z</time>
      </trkpt>
      <trkpt lat="55.7026715" lon="13.2160429">
        <ele>46.2806</ele>
        <time>2012-05-03T18:31:44Z</time>
      </trkpt>
      <trkpt lat="55.7027292" lon="13.2162789">
        <ele>46.2806</ele>
        <time>2012-05-03T18:31:49Z</time>
      </trkpt>
      <trkpt lat="55.7028059" lon="13.216564">
        <ele>46.7612</ele>
        <time>2012-05-03T18:31:55Z</time>
      </trkpt>
      <trkpt lat="55.7028656" lon="13.2167987">
        <ele>45.7999</ele>
        <time>2012-05-03T18:32:00Z</time>
      </trkpt>
      <trkpt lat="55.7029114" lon="13.217068">
        <ele>45.7999</ele>
        <time>2012-05-03T18:32:05Z</time>
      </trkpt>
      <trkpt lat="55.7029624" lon="13.2172981">
        <ele>45.7999</ele>
        <time>2012-05-03T18:32:10Z</time>
      </trkpt>
      <trkpt lat="55.7030245" lon="13.2175056">
        <ele>45.7999</ele>
        <time>2012-05-03T18:32:15Z</time>
      </trkpt>
      <trkpt lat="55.7030875" lon="13.2177004">
        <ele>44.8386</ele>
        <time>2012-05-03T18:32:19Z</time>
      </trkpt>
      <trkpt lat="55.7031739" lon="13.2179791">
        <ele>45.7999</ele>
        <time>2012-05-03T18:32:25Z</time>
      </trkpt>
      <trkpt lat="55.7032188" lon="13.2181878">
        <ele>45.7999</ele>
        <time>2012-05-03T18:32:30Z</time>
      </trkpt>
      <trkpt lat="55.7032816" lon="13.21839">
        <ele>46.7612</ele>
        <time>2012-05-03T18:32:34Z</time>
      </trkpt>
      <trkpt lat="55.7033589" lon="13.2186366">
        <ele>46.7612</ele>
        <time>2012-05-03T18:32:39Z</time>
      </trkpt>
      <trkpt lat="55.7034314" lon="13.2188262">
        <ele>47.2418</ele>
        <time>2012-05-03T18:32:43Z</time>
      </trkpt>
      <trkpt lat="55.703509" lon="13.2190692">
        <ele>48.684</ele>
        <time>2012-05-03T18:32:48Z</time>
      </trkpt>
      <trkpt lat="55.7035711" lon="13.2193222">
        <ele>49.1646</ele>
        <time>2012-05-03T18:32:53Z</time>
      </trkpt>
      <trkpt lat="55.7036207" lon="13.2195466">
        <ele>50.126</ele>
        <time>2012-05-03T18:32:58Z</time>
      </trkpt>
      <trkpt lat="55.7036727" lon="13.219732">
        <ele>52.5292</ele>
        <time>2012-05-03T18:33:02Z</time>
      </trkpt>
      <trkpt lat="55.7037334" lon="13.2199617">
        <ele>54.4518</ele>
        <time>2012-05-03T18:33:07Z</time>
      </trkpt>
      <trkpt lat="55.703806" lon="13.2201922">
        <ele>53.4905</ele>
        <time>2012-05-03T18:33:12Z</time>
      </trkpt>
      <trkpt lat="55.7038666" lon="13.2204231">
        <ele>52.0486</ele>
        <time>2012-05-03T18:33:17Z</time>
      </trkpt>
      <trkpt lat="55.7039281" lon="13.2206004">
        <ele>52.0486</ele>
        <time>2012-05-03T18:33:21Z</time>
      </trkpt>
      <trkpt lat="55.7039914" lon="13.22082">
        <ele>54.4518</ele>
        <time>2012-05-03T18:33:26Z</time>
      </trkpt>
      <trkpt lat="55.7040736" lon="13.221033">
        <ele>57.3358</ele>
        <time>2012-05-03T18:33:31Z</time>
      </trkpt>
      <trkpt lat="55.7041394" lon="13.221213">
        <ele>57.8165</ele>
        <time>2012-05-03T18:33:35Z</time>
      </trkpt>
      <trkpt lat="55.7042094" lon="13.2213889">
        <ele>60.2197</ele>
        <time>2012-05-03T18:33:39Z</time>
      </trkpt>
      <trkpt lat="55.704266" lon="13.2215875">
        <ele>60.2197</ele>
        <time>2012-05-03T18:33:43Z</time>
      </trkpt>
      <trkpt lat="55.7043296" lon="13.2218333">
        <ele>60.7003</ele>
        <time>2012-05-03T18:33:48Z</time>
      </trkpt>
      <trkpt lat="55.7043731" lon="13.2220292">
        <ele>63.1036</ele>
        <time>2012-05-03T18:33:52Z</time>
      </trkpt>
      <trkpt lat="55.7044454" lon="13.222322">
        <ele>66.4683</ele>
        <time>2012-05-03T18:33:58Z</time>
      </trkpt>
      <trkpt lat="55.7045228" lon="13.2226232">
        <ele>67.9103</ele>
        <time>2012-05-03T18:34:04Z</time>
      </trkpt>
      <trkpt lat="55.704573" lon="13.2228548">
        <ele>67.9103</ele>
        <time>2012-05-03T18:34:09Z</time>
      </trkpt>
      <trkpt lat="55.7046241" lon="13.2231053">
        <ele>66.949</ele>
        <time>2012-05-03T18:34:14Z</time>
      </trkpt>
      <trkpt lat="55.7046813" lon="13.2233541">
        <ele>65.9877</ele>
        <time>2012-05-03T18:34:19Z</time>
      </trkpt>
      <trkpt lat="55.7047368" lon="13.2235993">
        <ele>65.5071</ele>
        <time>2012-05-03T18:34:24Z</time>
      </trkpt>
      <trkpt lat="55.7047901" lon="13.2237973">
        <ele>65.5071</ele>
        <time>2012-05-03T18:34:28Z</time>
      </trkpt>
      <trkpt lat="55.7048527" lon="13.2239758">
        <ele>65.5071</ele>
        <time>2012-05-03T18:34:32Z</time>
      </trkpt>
      <trkpt lat="55.7048662" lon="13.2240202">
        <ele>65.0264</ele>
        <time>2012-05-03T18:34:33Z</time>
      </trkpt>
      <trkpt lat="55.7049251" lon="13.2242651">
        <ele>65.0264</ele>
        <time>2012-05-03T18:34:38Z</time>
      </trkpt>
      <trkpt lat="55.7049772" lon="13.2245197">
        <ele>65.5071</ele>
        <time>2012-05-03T18:34:43Z</time>
      </trkpt>
      <trkpt lat="55.705031" lon="13.2247795">
        <ele>64.5457</ele>
        <time>2012-05-03T18:34:48Z</time>
      </trkpt>
      <trkpt lat="55.7051091" lon="13.2250335">
        <ele>63.5844</ele>
        <time>2012-05-03T18:34:53Z</time>
      </trkpt>
      <trkpt lat="55.7051662" lon="13.2252823">
        <ele>62.6229</ele>
        <time>2012-05-03T18:34:58Z</time>
      </trkpt>
      <trkpt lat="55.7052558" lon="13.2255318">
        <ele>61.6617</ele>
        <time>2012-05-03T18:35:03Z</time>
      </trkpt>
      <trkpt lat="55.7053155" lon="13.2257371">
        <ele>60.7003</ele>
        <time>2012-05-03T18:35:07Z</time>
      </trkpt>
      <trkpt lat="55.7053676" lon="13.2259697">
        <ele>61.181</ele>
        <time>2012-05-03T18:35:12Z</time>
      </trkpt>
      <trkpt lat="55.7054246" lon="13.2262046">
        <ele>61.6617</ele>
        <time>2012-05-03T18:35:17Z</time>
      </trkpt>
      <trkpt lat="55.7055226" lon="13.2264845">
        <ele>65.5071</ele>
        <time>2012-05-03T18:35:23Z</time>
      </trkpt>
      <trkpt lat="55.7055973" lon="13.226708">
        <ele>67.4297</ele>
        <time>2012-05-03T18:35:28Z</time>
      </trkpt>
      <trkpt lat="55.7056296" lon="13.2269481">
        <ele>71.2749</ele>
        <time>2012-05-03T18:35:33Z</time>
      </trkpt>
      <trkpt lat="55.7056944" lon="13.2271728">
        <ele>73.1976</ele>
        <time>2012-05-03T18:35:38Z</time>
      </trkpt>
      <trkpt lat="55.7057696" lon="13.2274732">
        <ele>70.7942</ele>
        <time>2012-05-03T18:35:44Z</time>
      </trkpt>
      <trkpt lat="55.7058462" lon="13.2277029">
        <ele>70.7942</ele>
        <time>2012-05-03T18:35:49Z</time>
      </trkpt>
      <trkpt lat="55.7058904" lon="13.2279385">
        <ele>67.9103</ele>
        <time>2012-05-03T18:35:54Z</time>
      </trkpt>
      <trkpt lat="55.7059596" lon="13.2281581">
        <ele>65.0264</ele>
        <time>2012-05-03T18:35:59Z</time>
      </trkpt>
      <trkpt lat="55.7060104" lon="13.2284052">
        <ele>63.5844</ele>
        <time>2012-05-03T18:36:04Z</time>
      </trkpt>
      <trkpt lat="55.706065" lon="13.2286418">
        <ele>62.6229</ele>
        <time>2012-05-03T18:36:09Z</time>
      </trkpt>
      <trkpt lat="55.7061452" lon="13.2289336">
        <ele>62.1423</ele>
        <time>2012-05-03T18:36:15Z</time>
      </trkpt>
      <trkpt lat="55.706199" lon="13.2291883">
        <ele>60.7003</ele>
        <time>2012-05-03T18:36:20Z</time>
      </trkpt>
      <trkpt lat="55.7062669" lon="13.2294366">
        <ele>60.7003</ele>
        <time>2012-05-03T18:36:25Z</time>
      </trkpt>
      <trkpt lat="55.7063394" lon="13.2296797">
        <ele>60.7003</ele>
        <time>2012-05-03T18:36:30Z</time>
      </trkpt>
      <trkpt lat="55.7064109" lon="13.2299307">
        <ele>61.181</ele>
        <time>2012-05-03T18:36:35Z</time>
      </trkpt>
      <trkpt lat="55.7064829" lon="13.2301478">
        <ele>63.5844</ele>
        <time>2012-05-03T18:36:40Z</time>
      </trkpt>
      <trkpt lat="55.7065359" lon="13.2303446">
        <ele>65.0264</ele>
        <time>2012-05-03T18:36:44Z</time>
      </trkpt>
      <trkpt lat="55.7066195" lon="13.2306361">
        <ele>66.949</ele>
        <time>2012-05-03T18:36:50Z</time>
      </trkpt>
      <trkpt lat="55.7067037" lon="13.2309361">
        <ele>67.9103</ele>
        <time>2012-05-03T18:36:56Z</time>
      </trkpt>
      <trkpt lat="55.7067822" lon="13.2311474">
        <ele>68.8716</ele>
        <time>2012-05-03T18:37:01Z</time>
      </trkpt>
      <trkpt lat="55.7068139" lon="13.231291">
        <ele>68.3909</ele>
        <time>2012-05-03T18:37:04Z</time>
      </trkpt>
      <trkpt lat="55.7068588" lon="13.2314799">
        <ele>69.3523</ele>
        <time>2012-05-03T18:37:08Z</time>
      </trkpt>
      <trkpt lat="55.7069132" lon="13.2316719">
        <ele>69.8329</ele>
        <time>2012-05-03T18:37:12Z</time>
      </trkpt>
      <trkpt lat="55.7069767" lon="13.2319106">
        <ele>70.3135</ele>
        <time>2012-05-03T18:37:17Z</time>
      </trkpt>
      <trkpt lat="55.7070248" lon="13.2321431">
        <ele>70.7942</ele>
        <time>2012-05-03T18:37:22Z</time>
      </trkpt>
      <trkpt lat="55.7071072" lon="13.2324406">
        <ele>73.1976</ele>
        <time>2012-05-03T18:37:28Z</time>
      </trkpt>
      <trkpt lat="55.707176" lon="13.2326779">
        <ele>73.6782</ele>
        <time>2012-05-03T18:37:33Z</time>
      </trkpt>
      <trkpt lat="55.7072299" lon="13.2329218">
        <ele>73.6782</ele>
        <time>2012-05-03T18:37:38Z</time>
      </trkpt>
      <trkpt lat="55.7072741" lon="13.2331233">
        <ele>73.1976</ele>
        <time>2012-05-03T18:37:42Z</time>
      </trkpt>
      <trkpt lat="55.7073282" lon="13.233307">
        <ele>73.1976</ele>
        <time>2012-05-03T18:37:46Z</time>
      </trkpt>
      <trkpt lat="55.7074029" lon="13.2335148">
        <ele>73.1976</ele>
        <time>2012-05-03T18:37:51Z</time>
      </trkpt>
      <trkpt lat="55.7074713" lon="13.2337247">
        <ele>72.7169</ele>
        <time>2012-05-03T18:37:56Z</time>
      </trkpt>
      <trkpt lat="55.7075506" lon="13.2339873">
        <ele>73.6782</ele>
        <time>2012-05-03T18:38:02Z</time>
      </trkpt>
      <trkpt lat="55.707592" lon="13.2341872">
        <ele>74.6395</ele>
        <time>2012-05-03T18:38:06Z</time>
      </trkpt>
      <trkpt lat="55.7076422" lon="13.2343735">
        <ele>75.6008</ele>
        <time>2012-05-03T18:38:10Z</time>
      </trkpt>
      <trkpt lat="55.7077148" lon="13.2346519">
        <ele>75.6008</ele>
        <time>2012-05-03T18:38:16Z</time>
      </trkpt>
      <trkpt lat="55.7077666" lon="13.2348722">
        <ele>75.6008</ele>
        <time>2012-05-03T18:38:21Z</time>
      </trkpt>
      <trkpt lat="55.707829" lon="13.2351501">
        <ele>74.6395</ele>
        <time>2012-05-03T18:38:27Z</time>
      </trkpt>
      <trkpt lat="55.7079058" lon="13.2354164">
        <ele>75.1202</ele>
        <time>2012-05-03T18:38:33Z</time>
      </trkpt>
      <trkpt lat="55.7079751" lon="13.2356603">
        <ele>74.6395</ele>
        <time>2012-05-03T18:38:38Z</time>
      </trkpt>
      <trkpt lat="55.7080466" lon="13.2358884">
        <ele>74.1588</ele>
        <time>2012-05-03T18:38:43Z</time>
      </trkpt>
      <trkpt lat="55.7081068" lon="13.2361253">
        <ele>72.2362</ele>
        <time>2012-05-03T18:38:48Z</time>
      </trkpt>
      <trkpt lat="55.7081163" lon="13.2361727">
        <ele>71.7555</ele>
        <time>2012-05-03T18:38:49Z</time>
      </trkpt>
      <trkpt lat="55.7081652" lon="13.2363676">
        <ele>70.7942</ele>
        <time>2012-05-03T18:38:53Z</time>
      </trkpt>
      <trkpt lat="55.7082561" lon="13.2367486">
        <ele>69.3523</ele>
        <time>2012-05-03T18:39:01Z</time>
      </trkpt>
      <trkpt lat="55.708307" lon="13.2370032">
        <ele>68.3909</ele>
        <time>2012-05-03T18:39:06Z</time>
      </trkpt>
      <trkpt lat="55.7083607" lon="13.2371991">
        <ele>68.8716</ele>
        <time>2012-05-03T18:39:10Z</time>
      </trkpt>
      <trkpt lat="55.7084374" lon="13.2374778">
        <ele>69.8329</ele>
        <time>2012-05-03T18:39:16Z</time>
      </trkpt>
      <trkpt lat="55.7085134" lon="13.2378355">
        <ele>69.3523</ele>
        <time>2012-05-03T18:39:23Z</time>
      </trkpt>
      <trkpt lat="55.7085748" lon="13.2380994">
        <ele>69.8329</ele>
        <time>2012-05-03T18:39:28Z</time>
      </trkpt>
      <trkpt lat="55.7086421" lon="13.2383349">
        <ele>70.3135</ele>
        <time>2012-05-03T18:39:33Z</time>
      </trkpt>
      <trkpt lat="55.7087068" lon="13.2385637">
        <ele>70.3135</ele>
        <time>2012-05-03T18:39:38Z</time>
      </trkpt>
      <trkpt lat="55.7087723" lon="13.2388531">
        <ele>69.3523</ele>
        <time>2012-05-03T18:39:44Z</time>
      </trkpt>
      <trkpt lat="55.7088117" lon="13.2390431">
        <ele>69.3523</ele>
        <time>2012-05-03T18:39:48Z</time>
      </trkpt>
      <trkpt lat="55.7088518" lon="13.2392991">
        <ele>68.3909</ele>
        <time>2012-05-03T18:39:53Z</time>
      </trkpt>
      <trkpt lat="55.7089146" lon="13.2395558">
        <ele>70.3135</ele>
        <time>2012-05-03T18:39:58Z</time>
      </trkpt>
      <trkpt lat="55.7089823" lon="13.2398565">
        <ele>72.7169</ele>
        <time>2012-05-03T18:40:04Z</time>
      </trkpt>
      <trkpt lat="55.7090295" lon="13.2401034">
        <ele>71.7555</ele>
        <time>2012-05-03T18:40:09Z</time>
      </trkpt>
      <trkpt lat="55.709056" lon="13.2403061">
        <ele>70.7942</ele>
        <time>2012-05-03T18:40:13Z</time>
      </trkpt>
      <trkpt lat="55.709093" lon="13.2406094">
        <ele>69.8329</ele>
        <time>2012-05-03T18:40:19Z</time>
      </trkpt>
      <trkpt lat="55.709136" lon="13.2408204">
        <ele>69.3523</ele>
        <time>2012-05-03T18:40:23Z</time>
      </trkpt>
      <trkpt lat="55.7092054" lon="13.2412456">
        <ele>71.7555</ele>
        <time>2012-05-03T18:40:31Z</time>
      </trkpt>
      <trkpt lat="55.7092402" lon="13.2415047">
        <ele>72.7169</ele>
        <time>2012-05-03T18:40:36Z</time>
      </trkpt>
      <trkpt lat="55.7092753" lon="13.2417702">
        <ele>73.1976</ele>
        <time>2012-05-03T18:40:41Z</time>
      </trkpt>
      <trkpt lat="55.7093083" lon="13.24209">
        <ele>73.1976</ele>
        <time>2012-05-03T18:40:47Z</time>
      </trkpt>
      <trkpt lat="55.709323" lon="13.2423646">
        <ele>71.7555</ele>
        <time>2012-05-03T18:40:52Z</time>
      </trkpt>
      <trkpt lat="55.7093294" lon="13.2426415">
        <ele>69.3523</ele>
        <time>2012-05-03T18:40:57Z</time>
      </trkpt>
      <trkpt lat="55.7093413" lon="13.2429498">
        <ele>69.3523</ele>
        <time>2012-05-03T18:41:03Z</time>
      </trkpt>
      <trkpt lat="55.7093535" lon="13.2431908">
        <ele>69.3523</ele>
        <time>2012-05-03T18:41:08Z</time>
      </trkpt>
      <trkpt lat="55.7093595" lon="13.243457">
        <ele>68.3909</ele>
        <time>2012-05-03T18:41:13Z</time>
      </trkpt>
      <trkpt lat="55.7093755" lon="13.2437065">
        <ele>67.4297</ele>
        <time>2012-05-03T18:41:18Z</time>
      </trkpt>
      <trkpt lat="55.7093927" lon="13.2439811">
        <ele>67.9103</ele>
        <time>2012-05-03T18:41:23Z</time>
      </trkpt>
      <trkpt lat="55.7093837" lon="13.2442541">
        <ele>68.3909</ele>
        <time>2012-05-03T18:41:28Z</time>
      </trkpt>
      <trkpt lat="55.7094121" lon="13.2444444">
        <ele>68.3909</ele>
        <time>2012-05-03T18:41:32Z</time>
      </trkpt>
      <trkpt lat="55.7094448" lon="13.2446985">
        <ele>68.8716</ele>
        <time>2012-05-03T18:41:37Z</time>
      </trkpt>
      <trkpt lat="55.7094599" lon="13.2447902">
        <ele>68.8716</ele>
        <time>2012-05-03T18:41:39Z</time>
      </trkpt>
      <trkpt lat="55.7094779" lon="13.2451509">
        <ele>68.8716</ele>
        <time>2012-05-03T18:41:46Z</time>
      </trkpt>
      <trkpt lat="55.7094862" lon="13.2454049">
        <ele>68.3909</ele>
        <time>2012-05-03T18:41:51Z</time>
      </trkpt>
      <trkpt lat="55.7094931" lon="13.2456648">
        <ele>68.3909</ele>
        <time>2012-05-03T18:41:56Z</time>
      </trkpt>
      <trkpt lat="55.709519" lon="13.2459558">
        <ele>67.4297</ele>
        <time>2012-05-03T18:42:02Z</time>
      </trkpt>
      <trkpt lat="55.70954" lon="13.2462119">
        <ele>67.4297</ele>
        <time>2012-05-03T18:42:07Z</time>
      </trkpt>
      <trkpt lat="55.7095703" lon="13.2465201">
        <ele>68.8716</ele>
        <time>2012-05-03T18:42:13Z</time>
      </trkpt>
      <trkpt lat="55.7095946" lon="13.2467817">
        <ele>69.8329</ele>
        <time>2012-05-03T18:42:18Z</time>
      </trkpt>
      <trkpt lat="55.7096108" lon="13.2469282">
        <ele>69.8329</ele>
        <time>2012-05-03T18:42:21Z</time>
      </trkpt>
      <trkpt lat="55.7096234" lon="13.247199">
        <ele>68.8716</ele>
        <time>2012-05-03T18:42:26Z</time>
      </trkpt>
      <trkpt lat="55.7096547" lon="13.2475467">
        <ele>66.4683</ele>
        <time>2012-05-03T18:42:33Z</time>
      </trkpt>
      <trkpt lat="55.7096779" lon="13.2478695">
        <ele>65.9877</ele>
        <time>2012-05-03T18:42:39Z</time>
      </trkpt>
      <trkpt lat="55.7097003" lon="13.2481848">
        <ele>64.0651</ele>
        <time>2012-05-03T18:42:45Z</time>
      </trkpt>
      <trkpt lat="55.7097206" lon="13.248406">
        <ele>64.0651</ele>
        <time>2012-05-03T18:42:49Z</time>
      </trkpt>
      <trkpt lat="55.70974" lon="13.2486844">
        <ele>65.0264</ele>
        <time>2012-05-03T18:42:54Z</time>
      </trkpt>
      <trkpt lat="55.7097754" lon="13.2490182">
        <ele>65.5071</ele>
        <time>2012-05-03T18:43:00Z</time>
      </trkpt>
      <trkpt lat="55.7097982" lon="13.2492908">
        <ele>64.0651</ele>
        <time>2012-05-03T18:43:05Z</time>
      </trkpt>
      <trkpt lat="55.7098167" lon="13.2495064">
        <ele>62.6229</ele>
        <time>2012-05-03T18:43:09Z</time>
      </trkpt>
      <trkpt lat="55.7098257" lon="13.2497141">
        <ele>62.6229</ele>
        <time>2012-05-03T18:43:13Z</time>
      </trkpt>
      <trkpt lat="55.7098354" lon="13.2500074">
        <ele>62.1423</ele>
        <time>2012-05-03T18:43:18Z</time>
      </trkpt>
      <trkpt lat="55.7098563" lon="13.2503923">
        <ele>61.6617</ele>
        <time>2012-05-03T18:43:25Z</time>
      </trkpt>
      <trkpt lat="55.709876" lon="13.2507154">
        <ele>62.1423</ele>
        <time>2012-05-03T18:43:31Z</time>
      </trkpt>
      <trkpt lat="55.7098967" lon="13.2510398">
        <ele>62.6229</ele>
        <time>2012-05-03T18:43:37Z</time>
      </trkpt>
      <trkpt lat="55.7099213" lon="13.2513515">
        <ele>63.5844</ele>
        <time>2012-05-03T18:43:43Z</time>
      </trkpt>
      <trkpt lat="55.7099411" lon="13.2516234">
        <ele>65.5071</ele>
        <time>2012-05-03T18:43:48Z</time>
      </trkpt>
      <trkpt lat="55.7099447" lon="13.2516777">
        <ele>65.5071</ele>
        <time>2012-05-03T18:43:49Z</time>
      </trkpt>
      <trkpt lat="55.7099698" lon="13.2520157">
        <ele>65.9877</ele>
        <time>2012-05-03T18:43:55Z</time>
      </trkpt>
      <trkpt lat="55.7099976" lon="13.252373">
        <ele>65.9877</ele>
        <time>2012-05-03T18:44:02Z</time>
      </trkpt>
      <trkpt lat="55.7100153" lon="13.2526702">
        <ele>65.9877</ele>
        <time>2012-05-03T18:44:08Z</time>
      </trkpt>
      <trkpt lat="55.7100375" lon="13.2529846">
        <ele>66.4683</ele>
        <time>2012-05-03T18:44:14Z</time>
      </trkpt>
      <trkpt lat="55.7100577" lon="13.2533412">
        <ele>66.949</ele>
        <time>2012-05-03T18:44:21Z</time>
      </trkpt>
      <trkpt lat="55.7100819" lon="13.2535794">
        <ele>66.949</ele>
        <time>2012-05-03T18:44:26Z</time>
      </trkpt>
      <trkpt lat="55.710112" lon="13.2538917">
        <ele>66.4683</ele>
        <time>2012-05-03T18:44:32Z</time>
      </trkpt>
      <trkpt lat="55.7101322" lon="13.2542523">
        <ele>65.5071</ele>
        <time>2012-05-03T18:44:39Z</time>
      </trkpt>
      <trkpt lat="55.7101502" lon="13.2546174">
        <ele>65.0264</ele>
        <time>2012-05-03T18:44:46Z</time>
      </trkpt>
      <trkpt lat="55.7101701" lon="13.255032">
        <ele>65.5071</ele>
        <time>2012-05-03T18:44:54Z</time>
      </trkpt>
      <trkpt lat="55.710201" lon="13.2553457">
        <ele>65.5071</ele>
        <time>2012-05-03T18:45:00Z</time>
      </trkpt>
      <trkpt lat="55.7102121" lon="13.255668">
        <ele>65.5071</ele>
        <time>2012-05-03T18:45:06Z</time>
      </trkpt>
      <trkpt lat="55.7102412" lon="13.2559607">
        <ele>65.5071</ele>
        <time>2012-05-03T18:45:12Z</time>
      </trkpt>
      <trkpt lat="55.7102707" lon="13.2562524">
        <ele>65.5071</ele>
        <time>2012-05-03T18:45:18Z</time>
      </trkpt>
      <trkpt lat="55.7102977" lon="13.2566171">
        <ele>65.5071</ele>
        <time>2012-05-03T18:45:25Z</time>
      </trkpt>
      <trkpt lat="55.710322" lon="13.2568718">
        <ele>65.0264</ele>
        <time>2012-05-03T18:45:30Z</time>
      </trkpt>
      <trkpt lat="55.7103334" lon="13.2571836">
        <ele>65.0264</ele>
        <time>2012-05-03T18:45:36Z</time>
      </trkpt>
      <trkpt lat="55.7103561" lon="13.2575064">
        <ele>64.0651</ele>
        <time>2012-05-03T18:45:42Z</time>
      </trkpt>
      <trkpt lat="55.7103756" lon="13.2578096">
        <ele>62.6229</ele>
        <time>2012-05-03T18:45:48Z</time>
      </trkpt>
      <trkpt lat="55.7103896" lon="13.2580539">
        <ele>61.181</ele>
        <time>2012-05-03T18:45:53Z</time>
      </trkpt>
      <trkpt lat="55.7104136" lon="13.2583596">
        <ele>60.7003</ele>
        <time>2012-05-03T18:45:59Z</time>
      </trkpt>
      <trkpt lat="55.7104373" lon="13.2586317">
        <ele>61.6617</ele>
        <time>2012-05-03T18:46:04Z</time>
      </trkpt>
      <trkpt lat="55.7104632" lon="13.2588928">
        <ele>62.1423</ele>
        <time>2012-05-03T18:46:09Z</time>
      </trkpt>
      <trkpt lat="55.7104966" lon="13.2591942">
        <ele>62.6229</ele>
        <time>2012-05-03T18:46:15Z</time>
      </trkpt>
      <trkpt lat="55.7105213" lon="13.2595082">
        <ele>62.6229</ele>
        <time>2012-05-03T18:46:21Z</time>
      </trkpt>
      <trkpt lat="55.7105445" lon="13.2598303">
        <ele>62.6229</ele>
        <time>2012-05-03T18:46:27Z</time>
      </trkpt>
      <trkpt lat="55.7105726" lon="13.260142">
        <ele>62.1423</ele>
        <time>2012-05-03T18:46:33Z</time>
      </trkpt>
      <trkpt lat="55.710588" lon="13.2603911">
        <ele>62.1423</ele>
        <time>2012-05-03T18:46:38Z</time>
      </trkpt>
      <trkpt lat="55.7106074" lon="13.2607501">
        <ele>62.1423</ele>
        <time>2012-05-03T18:46:45Z</time>
      </trkpt>
      <trkpt lat="55.7106316" lon="13.2610129">
        <ele>61.6617</ele>
        <time>2012-05-03T18:46:50Z</time>
      </trkpt>
      <trkpt lat="55.7106356" lon="13.2612766">
        <ele>61.181</ele>
        <time>2012-05-03T18:46:55Z</time>
      </trkpt>
      <trkpt lat="55.7106514" lon="13.2615284">
        <ele>60.7003</ele>
        <time>2012-05-03T18:47:00Z</time>
      </trkpt>
      <trkpt lat="55.7106572" lon="13.2618302">
        <ele>60.7003</ele>
        <time>2012-05-03T18:47:05Z</time>
      </trkpt>
      <trkpt lat="55.7106769" lon="13.2620888">
        <ele>59.2584</ele>
        <time>2012-05-03T18:47:10Z</time>
      </trkpt>
      <trkpt lat="55.7107135" lon="13.2624378">
        <ele>57.3358</ele>
        <time>2012-05-03T18:47:17Z</time>
      </trkpt>
      <trkpt lat="55.7107426" lon="13.2627525">
        <ele>57.8165</ele>
        <time>2012-05-03T18:47:23Z</time>
      </trkpt>
      <trkpt lat="55.7107705" lon="13.2630651">
        <ele>58.7777</ele>
        <time>2012-05-03T18:47:29Z</time>
      </trkpt>
      <trkpt lat="55.7107938" lon="13.2632718">
        <ele>58.7777</ele>
        <time>2012-05-03T18:47:33Z</time>
      </trkpt>
      <trkpt lat="55.7108138" lon="13.2635294">
        <ele>59.2584</ele>
        <time>2012-05-03T18:47:38Z</time>
      </trkpt>
      <trkpt lat="55.7108233" lon="13.2638345">
        <ele>59.7391</ele>
        <time>2012-05-03T18:47:44Z</time>
      </trkpt>
      <trkpt lat="55.710843" lon="13.264108">
        <ele>62.6229</ele>
        <time>2012-05-03T18:47:49Z</time>
      </trkpt>
      <trkpt lat="55.7108689" lon="13.2644208">
        <ele>64.0651</ele>
        <time>2012-05-03T18:47:55Z</time>
      </trkpt>
      <trkpt lat="55.7108917" lon="13.2646943">
        <ele>64.5457</ele>
        <time>2012-05-03T18:48:00Z</time>
      </trkpt>
      <trkpt lat="55.7108915" lon="13.2649107">
        <ele>64.5457</ele>
        <time>2012-05-03T18:48:04Z</time>
      </trkpt>
      <trkpt lat="55.7109056" lon="13.2651314">
        <ele>64.5457</ele>
        <time>2012-05-03T18:48:08Z</time>
      </trkpt>
      <trkpt lat="55.710911" lon="13.2653555">
        <ele>65.9877</ele>
        <time>2012-05-03T18:48:13Z</time>
      </trkpt>
      <trkpt lat="55.7109362" lon="13.2656583">
        <ele>65.0264</ele>
        <time>2012-05-03T18:48:19Z</time>
      </trkpt>
      <trkpt lat="55.7109518" lon="13.2658847">
        <ele>63.5844</ele>
        <time>2012-05-03T18:48:23Z</time>
      </trkpt>
      <trkpt lat="55.7109845" lon="13.2662799">
        <ele>62.1423</ele>
        <time>2012-05-03T18:48:30Z</time>
      </trkpt>
      <trkpt lat="55.7110062" lon="13.2665696">
        <ele>61.6617</ele>
        <time>2012-05-03T18:48:35Z</time>
      </trkpt>
      <trkpt lat="55.7110093" lon="13.2667745">
        <ele>60.2197</ele>
        <time>2012-05-03T18:48:39Z</time>
      </trkpt>
      <trkpt lat="55.7109999" lon="13.26698">
        <ele>61.181</ele>
        <time>2012-05-03T18:48:44Z</time>
      </trkpt>
      <trkpt lat="55.7110117" lon="13.2672772">
        <ele>62.1423</ele>
        <time>2012-05-03T18:48:50Z</time>
      </trkpt>
      <trkpt lat="55.7110184" lon="13.267418">
        <ele>63.1036</ele>
        <time>2012-05-03T18:48:53Z</time>
      </trkpt>
      <trkpt lat="55.7110513" lon="13.2675845">
        <ele>64.0651</ele>
        <time>2012-05-03T18:48:56Z</time>
      </trkpt>
      <trkpt lat="55.7110606" lon="13.2678513">
        <ele>65.0264</ele>
        <time>2012-05-03T18:49:01Z</time>
      </trkpt>
      <trkpt lat="55.7110891" lon="13.2680671">
        <ele>63.5844</ele>
        <time>2012-05-03T18:49:05Z</time>
      </trkpt>
      <trkpt lat="55.7111239" lon="13.2683227">
        <ele>62.1423</ele>
        <time>2012-05-03T18:49:10Z</time>
      </trkpt>
      <trkpt lat="55.7111303" lon="13.2685329">
        <ele>62.1423</ele>
        <time>2012-05-03T18:49:15Z</time>
      </trkpt>
      <trkpt lat="55.7111497" lon="13.2687704">
        <ele>62.6229</ele>
        <time>2012-05-03T18:49:20Z</time>
      </trkpt>
      <trkpt lat="55.711178" lon="13.2690379">
        <ele>63.5844</ele>
        <time>2012-05-03T18:49:25Z</time>
      </trkpt>
      <trkpt lat="55.7112023" lon="13.2692724">
        <ele>63.5844</ele>
        <time>2012-05-03T18:49:30Z</time>
      </trkpt>
      <trkpt lat="55.7112113" lon="13.2695036">
        <ele>65.0264</ele>
        <time>2012-05-03T18:49:35Z</time>
      </trkpt>
      <trkpt lat="55.711226" lon="13.2697242">
        <ele>66.949</ele>
        <time>2012-05-03T18:49:40Z</time>
      </trkpt>
      <trkpt lat="55.7112336" lon="13.2699388">
        <ele>69.3523</ele>
        <time>2012-05-03T18:49:45Z</time>
      </trkpt>
      <trkpt lat="55.7112578" lon="13.2702053">
        <ele>66.4683</ele>
        <time>2012-05-03T18:49:50Z</time>
      </trkpt>
      <trkpt lat="55.7112738" lon="13.2704662">
        <ele>65.0264</ele>
        <time>2012-05-03T18:49:55Z</time>
      </trkpt>
      <trkpt lat="55.7113163" lon="13.2707438">
        <ele>63.5844</ele>
        <time>2012-05-03T18:50:00Z</time>
      </trkpt>
      <trkpt lat="55.7113298" lon="13.2709591">
        <ele>64.0651</ele>
        <time>2012-05-03T18:50:04Z</time>
      </trkpt>
      <trkpt lat="55.7113542" lon="13.2711794">
        <ele>64.5457</ele>
        <time>2012-05-03T18:50:08Z</time>
      </trkpt>
      <trkpt lat="55.7113814" lon="13.2714602">
        <ele>64.0651</ele>
        <time>2012-05-03T18:50:13Z</time>
      </trkpt>
      <trkpt lat="55.7114045" lon="13.2717741">
        <ele>63.1036</ele>
        <time>2012-05-03T18:50:19Z</time>
      </trkpt>
      <trkpt lat="55.7114295" lon="13.2720186">
        <ele>61.6617</ele>
        <time>2012-05-03T18:50:24Z</time>
      </trkpt>
      <trkpt lat="55.7114504" lon="13.2723074">
        <ele>60.7003</ele>
        <time>2012-05-03T18:50:30Z</time>
      </trkpt>
      <trkpt lat="55.7114727" lon="13.2726142">
        <ele>62.1423</ele>
        <time>2012-05-03T18:50:36Z</time>
      </trkpt>
      <trkpt lat="55.7115031" lon="13.2728764">
        <ele>62.6229</ele>
        <time>2012-05-03T18:50:41Z</time>
      </trkpt>
      <trkpt lat="55.7115276" lon="13.2731218">
        <ele>62.6229</ele>
        <time>2012-05-03T18:50:46Z</time>
      </trkpt>
      <trkpt lat="55.7115459" lon="13.2733701">
        <ele>63.5844</ele>
        <time>2012-05-03T18:50:51Z</time>
      </trkpt>
      <trkpt lat="55.7115671" lon="13.2736327">
        <ele>63.5844</ele>
        <time>2012-05-03T18:50:56Z</time>
      </trkpt>
      <trkpt lat="55.7115808" lon="13.2738848">
        <ele>64.5457</ele>
        <time>2012-05-03T18:51:01Z</time>
      </trkpt>
      <trkpt lat="55.7116111" lon="13.2741938">
        <ele>65.5071</ele>
        <time>2012-05-03T18:51:07Z</time>
      </trkpt>
      <trkpt lat="55.7116385" lon="13.274444">
        <ele>64.0651</ele>
        <time>2012-05-03T18:51:12Z</time>
      </trkpt>
      <trkpt lat="55.7116419" lon="13.2746811">
        <ele>63.1036</ele>
        <time>2012-05-03T18:51:17Z</time>
      </trkpt>
      <trkpt lat="55.7116486" lon="13.2748956">
        <ele>62.6229</ele>
        <time>2012-05-03T18:51:22Z</time>
      </trkpt>
      <trkpt lat="55.7116621" lon="13.2751877">
        <ele>63.5844</ele>
        <time>2012-05-03T18:51:28Z</time>
      </trkpt>
      <trkpt lat="55.7116946" lon="13.2754448">
        <ele>63.1036</ele>
        <time>2012-05-03T18:51:33Z</time>
      </trkpt>
      <trkpt lat="55.7117238" lon="13.2757321">
        <ele>61.6617</ele>
        <time>2012-05-03T18:51:38Z</time>
      </trkpt>
      <trkpt lat="55.7117473" lon="13.2759881">
        <ele>62.1423</ele>
        <time>2012-05-03T18:51:43Z</time>
      </trkpt>
      <trkpt lat="55.7117687" lon="13.2762034">
        <ele>62.1423</ele>
        <time>2012-05-03T18:51:47Z</time>
      </trkpt>
      <trkpt lat="55.7117849" lon="13.2764376">
        <ele>63.5844</ele>
        <time>2012-05-03T18:51:51Z</time>
      </trkpt>
      <trkpt lat="55.711798" lon="13.2766785">
        <ele>62.6229</ele>
        <time>2012-05-03T18:51:56Z</time>
      </trkpt>
      <trkpt lat="55.7118139" lon="13.2769359">
        <ele>62.1423</ele>
        <time>2012-05-03T18:52:01Z</time>
      </trkpt>
      <trkpt lat="55.711848" lon="13.2772308">
        <ele>61.6617</ele>
        <time>2012-05-03T18:52:07Z</time>
      </trkpt>
      <trkpt lat="55.7118692" lon="13.2775003">
        <ele>61.6617</ele>
        <time>2012-05-03T18:52:13Z</time>
      </trkpt>
      <trkpt lat="55.7119277" lon="13.277733">
        <ele>62.6229</ele>
        <time>2012-05-03T18:52:18Z</time>
      </trkpt>
      <trkpt lat="55.7120118" lon="13.2779498">
        <ele>63.5844</ele>
        <time>2012-05-03T18:52:23Z</time>
      </trkpt>
      <trkpt lat="55.7120812" lon="13.2781781">
        <ele>64.5457</ele>
        <time>2012-05-03T18:52:28Z</time>
      </trkpt>
      <trkpt lat="55.7121435" lon="13.2783819">
        <ele>64.5457</ele>
        <time>2012-05-03T18:52:33Z</time>
      </trkpt>
      <trkpt lat="55.7121696" lon="13.2784709">
        <ele>65.0264</ele>
        <time>2012-05-03T18:52:35Z</time>
      </trkpt>
      <trkpt lat="55.7122556" lon="13.2787325">
        <ele>65.5071</ele>
        <time>2012-05-03T18:52:41Z</time>
      </trkpt>
      <trkpt lat="55.7123147" lon="13.2789708">
        <ele>65.0264</ele>
        <time>2012-05-03T18:52:46Z</time>
      </trkpt>
      <trkpt lat="55.7123702" lon="13.2792703">
        <ele>63.5844</ele>
        <time>2012-05-03T18:52:52Z</time>
      </trkpt>
      <trkpt lat="55.7123318" lon="13.2794882">
        <ele>63.5844</ele>
        <time>2012-05-03T18:52:56Z</time>
      </trkpt>
      <trkpt lat="55.7122338" lon="13.2796069">
        <ele>64.0651</ele>
        <time>2012-05-03T18:53:00Z</time>
      </trkpt>
      <trkpt lat="55.712119" lon="13.2797451">
        <ele>64.5457</ele>
        <time>2012-05-03T18:53:05Z</time>
      </trkpt>
      <trkpt lat="55.7120983" lon="13.2797829">
        <ele>65.0264</ele>
        <time>2012-05-03T18:53:06Z</time>
      </trkpt>
      <trkpt lat="55.7120504" lon="13.2800384">
        <ele>61.6617</ele>
        <time>2012-05-03T18:53:11Z</time>
      </trkpt>
      <trkpt lat="55.7120586" lon="13.2803216">
        <ele>59.2584</ele>
        <time>2012-05-03T18:53:17Z</time>
      </trkpt>
      <trkpt lat="55.7120721" lon="13.280548">
        <ele>57.8165</ele>
        <time>2012-05-03T18:53:22Z</time>
      </trkpt>
      <trkpt lat="55.7120971" lon="13.2807904">
        <ele>57.3358</ele>
        <time>2012-05-03T18:53:27Z</time>
      </trkpt>
      <trkpt lat="55.7121247" lon="13.2810889">
        <ele>57.8165</ele>
        <time>2012-05-03T18:53:33Z</time>
      </trkpt>
      <trkpt lat="55.7121394" lon="13.2813391">
        <ele>58.7777</ele>
        <time>2012-05-03T18:53:38Z</time>
      </trkpt>
      <trkpt lat="55.7121529" lon="13.2815732">
        <ele>59.2584</ele>
        <time>2012-05-03T18:53:43Z</time>
      </trkpt>
      <trkpt lat="55.7121959" lon="13.2818131">
        <ele>59.7391</ele>
        <time>2012-05-03T18:53:48Z</time>
      </trkpt>
      <trkpt lat="55.7122095" lon="13.281997">
        <ele>60.2197</ele>
        <time>2012-05-03T18:53:52Z</time>
      </trkpt>
      <trkpt lat="55.712233" lon="13.2822978">
        <ele>60.2197</ele>
        <time>2012-05-03T18:53:58Z</time>
      </trkpt>
      <trkpt lat="55.7122412" lon="13.2826005">
        <ele>59.2584</ele>
        <time>2012-05-03T18:54:04Z</time>
      </trkpt>
      <trkpt lat="55.7122463" lon="13.2827559">
        <ele>58.7777</ele>
        <time>2012-05-03T18:54:07Z</time>
      </trkpt>
      <trkpt lat="55.7122599" lon="13.2829102">
        <ele>58.7777</ele>
        <time>2012-05-03T18:54:10Z</time>
      </trkpt>
      <trkpt lat="55.7122723" lon="13.2831428">
        <ele>58.7777</ele>
        <time>2012-05-03T18:54:15Z</time>
      </trkpt>
      <trkpt lat="55.7122801" lon="13.2833774">
        <ele>59.2584</ele>
        <time>2012-05-03T18:54:20Z</time>
      </trkpt>
      <trkpt lat="55.7123078" lon="13.2836343">
        <ele>59.7391</ele>
        <time>2012-05-03T18:54:25Z</time>
      </trkpt>
      <trkpt lat="55.7123127" lon="13.2838712">
        <ele>59.2584</ele>
        <time>2012-05-03T18:54:30Z</time>
      </trkpt>
      <trkpt lat="55.7123368" lon="13.2841126">
        <ele>58.7777</ele>
        <time>2012-05-03T18:54:35Z</time>
      </trkpt>
      <trkpt lat="55.712372" lon="13.2844524">
        <ele>58.7777</ele>
        <time>2012-05-03T18:54:42Z</time>
      </trkpt>
      <trkpt lat="55.7123898" lon="13.284656">
        <ele>60.2197</ele>
        <time>2012-05-03T18:54:46Z</time>
      </trkpt>
      <trkpt lat="55.7123966" lon="13.2848694">
        <ele>59.7391</ele>
        <time>2012-05-03T18:54:50Z</time>
      </trkpt>
      <trkpt lat="55.71241" lon="13.2851336">
        <ele>60.7003</ele>
        <time>2012-05-03T18:54:55Z</time>
      </trkpt>
      <trkpt lat="55.7124282" lon="13.2853993">
        <ele>60.7003</ele>
        <time>2012-05-03T18:55:00Z</time>
      </trkpt>
      <trkpt lat="55.7124312" lon="13.2855903">
        <ele>60.2197</ele>
        <time>2012-05-03T18:55:04Z</time>
      </trkpt>
      <trkpt lat="55.7124628" lon="13.2859214">
        <ele>59.7391</ele>
        <time>2012-05-03T18:55:11Z</time>
      </trkpt>
      <trkpt lat="55.712469" lon="13.2859696">
        <ele>59.7391</ele>
        <time>2012-05-03T18:55:12Z</time>
      </trkpt>
      <trkpt lat="55.7124893" lon="13.2862146">
        <ele>60.7003</ele>
        <time>2012-05-03T18:55:17Z</time>
      </trkpt>
      <trkpt lat="55.712513" lon="13.2864716">
        <ele>60.7003</ele>
        <time>2012-05-03T18:55:22Z</time>
      </trkpt>
      <trkpt lat="55.7125389" lon="13.2867407">
        <ele>61.6617</ele>
        <time>2012-05-03T18:55:27Z</time>
      </trkpt>
      <trkpt lat="55.7125592" lon="13.2870409">
        <ele>61.6617</ele>
        <time>2012-05-03T18:55:33Z</time>
      </trkpt>
      <trkpt lat="55.7125711" lon="13.287282">
        <ele>61.181</ele>
        <time>2012-05-03T18:55:38Z</time>
      </trkpt>
      <trkpt lat="55.7125968" lon="13.2875774">
        <ele>59.7391</ele>
        <time>2012-05-03T18:55:44Z</time>
      </trkpt>
      <trkpt lat="55.7126165" lon="13.2879302">
        <ele>58.7777</ele>
        <time>2012-05-03T18:55:51Z</time>
      </trkpt>
      <trkpt lat="55.7126306" lon="13.288184">
        <ele>58.2971</ele>
        <time>2012-05-03T18:55:56Z</time>
      </trkpt>
      <trkpt lat="55.712654" lon="13.2884481">
        <ele>58.7777</ele>
        <time>2012-05-03T18:56:01Z</time>
      </trkpt>
      <trkpt lat="55.7126773" lon="13.2887182">
        <ele>59.7391</ele>
        <time>2012-05-03T18:56:06Z</time>
      </trkpt>
      <trkpt lat="55.7126966" lon="13.2889713">
        <ele>58.7777</ele>
        <time>2012-05-03T18:56:11Z</time>
      </trkpt>
      <trkpt lat="55.712714" lon="13.2891795">
        <ele>58.2971</ele>
        <time>2012-05-03T18:56:15Z</time>
      </trkpt>
      <trkpt lat="55.7127281" lon="13.2894408">
        <ele>57.8165</ele>
        <time>2012-05-03T18:56:20Z</time>
      </trkpt>
      <trkpt lat="55.712742" lon="13.2896407">
        <ele>56.8551</ele>
        <time>2012-05-03T18:56:24Z</time>
      </trkpt>
      <trkpt lat="55.7127569" lon="13.2898517">
        <ele>56.8551</ele>
        <time>2012-05-03T18:56:28Z</time>
      </trkpt>
      <trkpt lat="55.7127776" lon="13.2901034">
        <ele>57.8165</ele>
        <time>2012-05-03T18:56:33Z</time>
      </trkpt>
      <trkpt lat="55.7127924" lon="13.2903629">
        <ele>57.8165</ele>
        <time>2012-05-03T18:56:38Z</time>
      </trkpt>
      <trkpt lat="55.7128134" lon="13.290613">
        <ele>57.3358</ele>
        <time>2012-05-03T18:56:43Z</time>
      </trkpt>
      <trkpt lat="55.712826" lon="13.2908149">
        <ele>56.8551</ele>
        <time>2012-05-03T18:56:47Z</time>
      </trkpt>
      <trkpt lat="55.7128347" lon="13.2911117">
        <ele>56.8551</ele>
        <time>2012-05-03T18:56:53Z</time>
      </trkpt>
      <trkpt lat="55.7128587" lon="13.2913725">
        <ele>57.3358</ele>
        <time>2012-05-03T18:56:58Z</time>
      </trkpt>
      <trkpt lat="55.7128804" lon="13.2916132">
        <ele>56.8551</ele>
        <time>2012-05-03T18:57:03Z</time>
      </trkpt>
      <trkpt lat="55.7128758" lon="13.2918687">
        <ele>56.8551</ele>
        <time>2012-05-03T18:57:08Z</time>
      </trkpt>
      <trkpt lat="55.7129178" lon="13.2922028">
        <ele>57.8165</ele>
        <time>2012-05-03T18:57:15Z</time>
      </trkpt>
      <trkpt lat="55.7129529" lon="13.2925777">
        <ele>58.2971</ele>
        <time>2012-05-03T18:57:22Z</time>
      </trkpt>
      <trkpt lat="55.7129665" lon="13.2928327">
        <ele>58.2971</ele>
        <time>2012-05-03T18:57:27Z</time>
      </trkpt>
      <trkpt lat="55.7129835" lon="13.293033">
        <ele>58.7777</ele>
        <time>2012-05-03T18:57:31Z</time>
      </trkpt>
      <trkpt lat="55.7130081" lon="13.2933907">
        <ele>58.7777</ele>
        <time>2012-05-03T18:57:38Z</time>
      </trkpt>
      <trkpt lat="55.7130378" lon="13.2936941">
        <ele>59.2584</ele>
        <time>2012-05-03T18:57:44Z</time>
      </trkpt>
      <trkpt lat="55.713062" lon="13.2939372">
        <ele>59.2584</ele>
        <time>2012-05-03T18:57:49Z</time>
      </trkpt>
      <trkpt lat="55.713088" lon="13.2943386">
        <ele>59.2584</ele>
        <time>2012-05-03T18:57:57Z</time>
      </trkpt>
      <trkpt lat="55.7131208" lon="13.2946318">
        <ele>59.7391</ele>
        <time>2012-05-03T18:58:03Z</time>
      </trkpt>
      <trkpt lat="55.7131434" lon="13.2949362">
        <ele>59.2584</ele>
        <time>2012-05-03T18:58:09Z</time>
      </trkpt>
      <trkpt lat="55.7131594" lon="13.2952492">
        <ele>58.7777</ele>
        <time>2012-05-03T18:58:15Z</time>
      </trkpt>
      <trkpt lat="55.7131787" lon="13.2955901">
        <ele>57.3358</ele>
        <time>2012-05-03T18:58:22Z</time>
      </trkpt>
      <trkpt lat="55.7131994" lon="13.2958889">
        <ele>56.8551</ele>
        <time>2012-05-03T18:58:28Z</time>
      </trkpt>
      <trkpt lat="55.713219" lon="13.2961476">
        <ele>56.8551</ele>
        <time>2012-05-03T18:58:33Z</time>
      </trkpt>
      <trkpt lat="55.7132434" lon="13.2964068">
        <ele>57.3358</ele>
        <time>2012-05-03T18:58:38Z</time>
      </trkpt>
      <trkpt lat="55.7132667" lon="13.2966628">
        <ele>57.8165</ele>
        <time>2012-05-03T18:58:43Z</time>
      </trkpt>
      <trkpt lat="55.7132849" lon="13.2969183">
        <ele>57.8165</ele>
        <time>2012-05-03T18:58:48Z</time>
      </trkpt>
      <trkpt lat="55.7133075" lon="13.2971731">
        <ele>57.8165</ele>
        <time>2012-05-03T18:58:53Z</time>
      </trkpt>
      <trkpt lat="55.7133159" lon="13.2974016">
        <ele>56.3745</ele>
        <time>2012-05-03T18:58:58Z</time>
      </trkpt>
      <trkpt lat="55.7133388" lon="13.2976573">
        <ele>54.9324</ele>
        <time>2012-05-03T18:59:04Z</time>
      </trkpt>
      <trkpt lat="55.713355" lon="13.2979687">
        <ele>55.4131</ele>
        <time>2012-05-03T18:59:10Z</time>
      </trkpt>
      <trkpt lat="55.7133749" lon="13.2982043">
        <ele>56.3745</ele>
        <time>2012-05-03T18:59:15Z</time>
      </trkpt>
      <trkpt lat="55.7133888" lon="13.2984635">
        <ele>56.8551</ele>
        <time>2012-05-03T18:59:20Z</time>
      </trkpt>
      <trkpt lat="55.7133917" lon="13.2985148">
        <ele>57.3358</ele>
        <time>2012-05-03T18:59:21Z</time>
      </trkpt>
      <trkpt lat="55.7134103" lon="13.2987163">
        <ele>56.8551</ele>
        <time>2012-05-03T18:59:25Z</time>
      </trkpt>
      <trkpt lat="55.7134254" lon="13.2989634">
        <ele>55.8938</ele>
        <time>2012-05-03T18:59:30Z</time>
      </trkpt>
      <trkpt lat="55.7134308" lon="13.2991173">
        <ele>55.8938</ele>
        <time>2012-05-03T18:59:33Z</time>
      </trkpt>
      <trkpt lat="55.713474" lon="13.2994399">
        <ele>56.8551</ele>
        <time>2012-05-03T18:59:39Z</time>
      </trkpt>
      <trkpt lat="55.71349" lon="13.2996301">
        <ele>57.3358</ele>
        <time>2012-05-03T18:59:43Z</time>
      </trkpt>
      <trkpt lat="55.7135247" lon="13.2999515">
        <ele>57.3358</ele>
        <time>2012-05-03T18:59:49Z</time>
      </trkpt>
      <trkpt lat="55.7135354" lon="13.3000102">
        <ele>57.3358</ele>
        <time>2012-05-03T18:59:50Z</time>
      </trkpt>
      <trkpt lat="55.7135418" lon="13.3003718">
        <ele>56.3745</ele>
        <time>2012-05-03T18:59:57Z</time>
      </trkpt>
      <trkpt lat="55.7135606" lon="13.3006339">
        <ele>54.9324</ele>
        <time>2012-05-03T19:00:02Z</time>
      </trkpt>
      <trkpt lat="55.7135731" lon="13.3008375">
        <ele>54.9324</ele>
        <time>2012-05-03T19:00:06Z</time>
      </trkpt>
      <trkpt lat="55.7135859" lon="13.3010716">
        <ele>54.4518</ele>
        <time>2012-05-03T19:00:11Z</time>
      </trkpt>
      <trkpt lat="55.7135971" lon="13.301384">
        <ele>53.9712</ele>
        <time>2012-05-03T19:00:17Z</time>
      </trkpt>
      <trkpt lat="55.713604" lon="13.3015846">
        <ele>53.0098</ele>
        <time>2012-05-03T19:00:21Z</time>
      </trkpt>
      <trkpt lat="55.7135983" lon="13.3018255">
        <ele>52.0486</ele>
        <time>2012-05-03T19:00:26Z</time>
      </trkpt>
      <trkpt lat="55.7135993" lon="13.3021264">
        <ele>51.5679</ele>
        <time>2012-05-03T19:00:32Z</time>
      </trkpt>
      <trkpt lat="55.7136129" lon="13.3024396">
        <ele>53.0098</ele>
        <time>2012-05-03T19:00:38Z</time>
      </trkpt>
      <trkpt lat="55.7136232" lon="13.3027017">
        <ele>55.4131</ele>
        <time>2012-05-03T19:00:43Z</time>
      </trkpt>
      <trkpt lat="55.7136256" lon="13.3029122">
        <ele>57.3358</ele>
        <time>2012-05-03T19:00:47Z</time>
      </trkpt>
      <trkpt lat="55.7136344" lon="13.3031765">
        <ele>58.2971</ele>
        <time>2012-05-03T19:00:52Z</time>
      </trkpt>
      <trkpt lat="55.7136351" lon="13.303494">
        <ele>58.2971</ele>
        <time>2012-05-03T19:00:58Z</time>
      </trkpt>
      <trkpt lat="55.7136404" lon="13.3037919">
        <ele>57.8165</ele>
        <time>2012-05-03T19:01:04Z</time>
      </trkpt>
      <trkpt lat="55.7136407" lon="13.3040596">
        <ele>58.7777</ele>
        <time>2012-05-03T19:01:09Z</time>
      </trkpt>
      <trkpt lat="55.7136393" lon="13.3043218">
        <ele>59.7391</ele>
        <time>2012-05-03T19:01:14Z</time>
      </trkpt>
      <trkpt lat="55.7136248" lon="13.3046396">
        <ele>60.2197</ele>
        <time>2012-05-03T19:01:20Z</time>
      </trkpt>
      <trkpt lat="55.7136078" lon="13.3050059">
        <ele>60.2197</ele>
        <time>2012-05-03T19:01:27Z</time>
      </trkpt>
      <trkpt lat="55.7135998" lon="13.3052117">
        <ele>59.7391</ele>
        <time>2012-05-03T19:01:31Z</time>
      </trkpt>
      <trkpt lat="55.7135858" lon="13.3055341">
        <ele>60.2197</ele>
        <time>2012-05-03T19:01:37Z</time>
      </trkpt>
      <trkpt lat="55.7135682" lon="13.3057979">
        <ele>60.2197</ele>
        <time>2012-05-03T19:01:42Z</time>
      </trkpt>
      <trkpt lat="55.7135547" lon="13.3061234">
        <ele>61.6617</ele>
        <time>2012-05-03T19:01:48Z</time>
      </trkpt>
      <trkpt lat="55.7135477" lon="13.3063299">
        <ele>61.6617</ele>
        <time>2012-05-03T19:01:52Z</time>
      </trkpt>
      <trkpt lat="55.7135378" lon="13.306695">
        <ele>61.181</ele>
        <time>2012-05-03T19:01:59Z</time>
      </trkpt>
      <trkpt lat="55.713533" lon="13.3069697">
        <ele>61.181</ele>
        <time>2012-05-03T19:02:04Z</time>
      </trkpt>
      <trkpt lat="55.7135273" lon="13.3072206">
        <ele>60.2197</ele>
        <time>2012-05-03T19:02:09Z</time>
      </trkpt>
      <trkpt lat="55.7135103" lon="13.3075323">
        <ele>58.7777</ele>
        <time>2012-05-03T19:02:15Z</time>
      </trkpt>
      <trkpt lat="55.7134994" lon="13.3077851">
        <ele>57.8165</ele>
        <time>2012-05-03T19:02:20Z</time>
      </trkpt>
      <trkpt lat="55.7134956" lon="13.307984">
        <ele>57.8165</ele>
        <time>2012-05-03T19:02:24Z</time>
      </trkpt>
      <trkpt lat="55.7134829" lon="13.3082428">
        <ele>58.2971</ele>
        <time>2012-05-03T19:02:29Z</time>
      </trkpt>
      <trkpt lat="55.7134709" lon="13.3085123">
        <ele>58.7777</ele>
        <time>2012-05-03T19:02:34Z</time>
      </trkpt>
      <trkpt lat="55.7134611" lon="13.3087233">
        <ele>57.8165</ele>
        <time>2012-05-03T19:02:38Z</time>
      </trkpt>
      <trkpt lat="55.7134419" lon="13.3089936">
        <ele>56.3745</ele>
        <time>2012-05-03T19:02:43Z</time>
      </trkpt>
      <trkpt lat="55.7134186" lon="13.3093049">
        <ele>55.8938</ele>
        <time>2012-05-03T19:02:49Z</time>
      </trkpt>
      <trkpt lat="55.7134086" lon="13.3096819">
        <ele>57.3358</ele>
        <time>2012-05-03T19:02:56Z</time>
      </trkpt>
      <trkpt lat="55.7134035" lon="13.3099534">
        <ele>57.8165</ele>
        <time>2012-05-03T19:03:01Z</time>
      </trkpt>
      <trkpt lat="55.7133972" lon="13.3102182">
        <ele>58.2971</ele>
        <time>2012-05-03T19:03:06Z</time>
      </trkpt>
      <trkpt lat="55.7133985" lon="13.310434">
        <ele>57.8165</ele>
        <time>2012-05-03T19:03:10Z</time>
      </trkpt>
      <trkpt lat="55.7134003" lon="13.310631">
        <ele>56.3745</ele>
        <time>2012-05-03T19:03:14Z</time>
      </trkpt>
      <trkpt lat="55.7133927" lon="13.3108824">
        <ele>55.8938</ele>
        <time>2012-05-03T19:03:19Z</time>
      </trkpt>
      <trkpt lat="55.7133704" lon="13.3112426">
        <ele>56.8551</ele>
        <time>2012-05-03T19:03:26Z</time>
      </trkpt>
      <trkpt lat="55.7133591" lon="13.3114855">
        <ele>55.8938</ele>
        <time>2012-05-03T19:03:31Z</time>
      </trkpt>
      <trkpt lat="55.7133518" lon="13.311809">
        <ele>57.3358</ele>
        <time>2012-05-03T19:03:37Z</time>
      </trkpt>
      <trkpt lat="55.7133477" lon="13.3121155">
        <ele>58.7777</ele>
        <time>2012-05-03T19:03:43Z</time>
      </trkpt>
      <trkpt lat="55.7133399" lon="13.3124207">
        <ele>60.2197</ele>
        <time>2012-05-03T19:03:49Z</time>
      </trkpt>
      <trkpt lat="55.7133286" lon="13.312669">
        <ele>59.7391</ele>
        <time>2012-05-03T19:03:54Z</time>
      </trkpt>
      <trkpt lat="55.7133082" lon="13.3129673">
        <ele>60.2197</ele>
        <time>2012-05-03T19:04:00Z</time>
      </trkpt>
      <trkpt lat="55.7133083" lon="13.313234">
        <ele>60.7003</ele>
        <time>2012-05-03T19:04:05Z</time>
      </trkpt>
      <trkpt lat="55.7132974" lon="13.3135505">
        <ele>61.181</ele>
        <time>2012-05-03T19:04:11Z</time>
      </trkpt>
      <trkpt lat="55.7132756" lon="13.3138127">
        <ele>59.7391</ele>
        <time>2012-05-03T19:04:16Z</time>
      </trkpt>
      <trkpt lat="55.7132549" lon="13.3139995">
        <ele>59.2584</ele>
        <time>2012-05-03T19:04:20Z</time>
      </trkpt>
      <trkpt lat="55.713243" lon="13.314269">
        <ele>59.7391</ele>
        <time>2012-05-03T19:04:25Z</time>
      </trkpt>
      <trkpt lat="55.7132395" lon="13.3143741">
        <ele>59.7391</ele>
        <time>2012-05-03T19:04:27Z</time>
      </trkpt>
      <trkpt lat="55.7132244" lon="13.314532">
        <ele>58.7777</ele>
        <time>2012-05-03T19:04:30Z</time>
      </trkpt>
      <trkpt lat="55.7132088" lon="13.3147925">
        <ele>58.2971</ele>
        <time>2012-05-03T19:04:35Z</time>
      </trkpt>
      <trkpt lat="55.7132087" lon="13.3150636">
        <ele>57.3358</ele>
        <time>2012-05-03T19:04:40Z</time>
      </trkpt>
      <trkpt lat="55.7132014" lon="13.3153231">
        <ele>56.8551</ele>
        <time>2012-05-03T19:04:45Z</time>
      </trkpt>
      <trkpt lat="55.7131959" lon="13.3155982">
        <ele>56.8551</ele>
        <time>2012-05-03T19:04:51Z</time>
      </trkpt>
      <trkpt lat="55.7131943" lon="13.3158148">
        <ele>56.3745</ele>
        <time>2012-05-03T19:04:55Z</time>
      </trkpt>
      <trkpt lat="55.7131875" lon="13.3160456">
        <ele>55.4131</ele>
        <time>2012-05-03T19:05:00Z</time>
      </trkpt>
      <trkpt lat="55.7131548" lon="13.3163468">
        <ele>52.5292</ele>
        <time>2012-05-03T19:05:06Z</time>
      </trkpt>
      <trkpt lat="55.7131444" lon="13.3165612">
        <ele>52.5292</ele>
        <time>2012-05-03T19:05:10Z</time>
      </trkpt>
      <trkpt lat="55.7131342" lon="13.3168254">
        <ele>53.0098</ele>
        <time>2012-05-03T19:05:15Z</time>
      </trkpt>
      <trkpt lat="55.7131275" lon="13.3170868">
        <ele>53.9712</ele>
        <time>2012-05-03T19:05:20Z</time>
      </trkpt>
      <trkpt lat="55.7131205" lon="13.3173645">
        <ele>54.4518</ele>
        <time>2012-05-03T19:05:25Z</time>
      </trkpt>
      <trkpt lat="55.7131084" lon="13.3176898">
        <ele>54.4518</ele>
        <time>2012-05-03T19:05:31Z</time>
      </trkpt>
      <trkpt lat="55.7130928" lon="13.317951">
        <ele>53.0098</ele>
        <time>2012-05-03T19:05:36Z</time>
      </trkpt>
      <trkpt lat="55.7130837" lon="13.3182793">
        <ele>53.9712</ele>
        <time>2012-05-03T19:05:42Z</time>
      </trkpt>
      <trkpt lat="55.7130626" lon="13.3186265">
        <ele>54.9324</ele>
        <time>2012-05-03T19:05:48Z</time>
      </trkpt>
      <trkpt lat="55.7130622" lon="13.3188714">
        <ele>56.8551</ele>
        <time>2012-05-03T19:05:53Z</time>
      </trkpt>
      <trkpt lat="55.713061" lon="13.3190725">
        <ele>57.8165</ele>
        <time>2012-05-03T19:05:57Z</time>
      </trkpt>
      <trkpt lat="55.7130581" lon="13.3193356">
        <ele>58.7777</ele>
        <time>2012-05-03T19:06:02Z</time>
      </trkpt>
      <trkpt lat="55.7130591" lon="13.3195625">
        <ele>60.2197</ele>
        <time>2012-05-03T19:06:06Z</time>
      </trkpt>
      <trkpt lat="55.7130407" lon="13.319821">
        <ele>59.2584</ele>
        <time>2012-05-03T19:06:11Z</time>
      </trkpt>
      <trkpt lat="55.7130176" lon="13.3200791">
        <ele>57.3358</ele>
        <time>2012-05-03T19:06:16Z</time>
      </trkpt>
      <trkpt lat="55.7130105" lon="13.3203722">
        <ele>56.8551</ele>
        <time>2012-05-03T19:06:22Z</time>
      </trkpt>
      <trkpt lat="55.7129876" lon="13.3207228">
        <ele>55.8938</ele>
        <time>2012-05-03T19:06:29Z</time>
      </trkpt>
      <trkpt lat="55.7129772" lon="13.3209709">
        <ele>56.8551</ele>
        <time>2012-05-03T19:06:34Z</time>
      </trkpt>
      <trkpt lat="55.7129744" lon="13.3212299">
        <ele>57.8165</ele>
        <time>2012-05-03T19:06:39Z</time>
      </trkpt>
      <trkpt lat="55.7129547" lon="13.3215875">
        <ele>57.3358</ele>
        <time>2012-05-03T19:06:46Z</time>
      </trkpt>
      <trkpt lat="55.7129539" lon="13.321819">
        <ele>57.8165</ele>
        <time>2012-05-03T19:06:51Z</time>
      </trkpt>
      <trkpt lat="55.7129477" lon="13.3220818">
        <ele>58.7777</ele>
        <time>2012-05-03T19:06:56Z</time>
      </trkpt>
      <trkpt lat="55.7129485" lon="13.3223428">
        <ele>59.2584</ele>
        <time>2012-05-03T19:07:01Z</time>
      </trkpt>
      <trkpt lat="55.7129353" lon="13.3226509">
        <ele>59.7391</ele>
        <time>2012-05-03T19:07:07Z</time>
      </trkpt>
      <trkpt lat="55.7129318" lon="13.3229248">
        <ele>62.6229</ele>
        <time>2012-05-03T19:07:12Z</time>
      </trkpt>
      <trkpt lat="55.7129393" lon="13.3231856">
        <ele>64.0651</ele>
        <time>2012-05-03T19:07:17Z</time>
      </trkpt>
      <trkpt lat="55.7129333" lon="13.3234379">
        <ele>62.1423</ele>
        <time>2012-05-03T19:07:22Z</time>
      </trkpt>
      <trkpt lat="55.7129116" lon="13.3236719">
        <ele>59.7391</ele>
        <time>2012-05-03T19:07:27Z</time>
      </trkpt>
      <trkpt lat="55.7128876" lon="13.3239461">
        <ele>57.8165</ele>
        <time>2012-05-03T19:07:33Z</time>
      </trkpt>
      <trkpt lat="55.7128673" lon="13.3241928">
        <ele>57.3358</ele>
        <time>2012-05-03T19:07:38Z</time>
      </trkpt>
      <trkpt lat="55.7128426" lon="13.3244894">
        <ele>56.3745</ele>
        <time>2012-05-03T19:07:44Z</time>
      </trkpt>
      <trkpt lat="55.7128347" lon="13.3247243">
        <ele>55.4131</ele>
        <time>2012-05-03T19:07:49Z</time>
      </trkpt>
      <trkpt lat="55.7128087" lon="13.3251321">
        <ele>53.9712</ele>
        <time>2012-05-03T19:07:57Z</time>
      </trkpt>
      <trkpt lat="55.7127964" lon="13.3253722">
        <ele>53.4905</ele>
        <time>2012-05-03T19:08:02Z</time>
      </trkpt>
      <trkpt lat="55.7127975" lon="13.3256522">
        <ele>55.4131</ele>
        <time>2012-05-03T19:08:08Z</time>
      </trkpt>
      <trkpt lat="55.7127712" lon="13.3260247">
        <ele>55.8938</ele>
        <time>2012-05-03T19:08:15Z</time>
      </trkpt>
      <trkpt lat="55.7127678" lon="13.3262847">
        <ele>56.8551</ele>
        <time>2012-05-03T19:08:20Z</time>
      </trkpt>
      <trkpt lat="55.7127536" lon="13.3265614">
        <ele>57.3358</ele>
        <time>2012-05-03T19:08:25Z</time>
      </trkpt>
      <trkpt lat="55.7127271" lon="13.3268394">
        <ele>56.8551</ele>
        <time>2012-05-03T19:08:30Z</time>
      </trkpt>
      <trkpt lat="55.7126939" lon="13.3270829">
        <ele>58.2971</ele>
        <time>2012-05-03T19:08:35Z</time>
      </trkpt>
      <trkpt lat="55.7127022" lon="13.3272731">
        <ele>57.3358</ele>
        <time>2012-05-03T19:08:39Z</time>
      </trkpt>
      <trkpt lat="55.7127255" lon="13.3275388">
        <ele>57.3358</ele>
        <time>2012-05-03T19:08:44Z</time>
      </trkpt>
      <trkpt lat="55.7127224" lon="13.3278542">
        <ele>58.2971</ele>
        <time>2012-05-03T19:08:50Z</time>
      </trkpt>
      <trkpt lat="55.7127077" lon="13.3281717">
        <ele>57.8165</ele>
        <time>2012-05-03T19:08:56Z</time>
      </trkpt>
      <trkpt lat="55.7126975" lon="13.3283568">
        <ele>55.8938</ele>
        <time>2012-05-03T19:09:00Z</time>
      </trkpt>
      <trkpt lat="55.7127146" lon="13.3285535">
        <ele>55.4131</ele>
        <time>2012-05-03T19:09:04Z</time>
      </trkpt>
      <trkpt lat="55.7127104" lon="13.328808">
        <ele>54.9324</ele>
        <time>2012-05-03T19:09:09Z</time>
      </trkpt>
      <trkpt lat="55.7127021" lon="13.3290723">
        <ele>55.8938</ele>
        <time>2012-05-03T19:09:14Z</time>
      </trkpt>
      <trkpt lat="55.7127079" lon="13.3293623">
        <ele>57.8165</ele>
        <time>2012-05-03T19:09:19Z</time>
      </trkpt>
      <trkpt lat="55.7127103" lon="13.3296042">
        <ele>58.7777</ele>
        <time>2012-05-03T19:09:24Z</time>
      </trkpt>
      <trkpt lat="55.7127092" lon="13.3298742">
        <ele>59.2584</ele>
        <time>2012-05-03T19:09:29Z</time>
      </trkpt>
      <trkpt lat="55.712689" lon="13.3301843">
        <ele>59.2584</ele>
        <time>2012-05-03T19:09:35Z</time>
      </trkpt>
      <trkpt lat="55.7126834" lon="13.3302361">
        <ele>59.2584</ele>
        <time>2012-05-03T19:09:36Z</time>
      </trkpt>
      <trkpt lat="55.7126663" lon="13.3304393">
        <ele>58.2971</ele>
        <time>2012-05-03T19:09:40Z</time>
      </trkpt>
      <trkpt lat="55.7126498" lon="13.3307402">
        <ele>56.3745</ele>
        <time>2012-05-03T19:09:46Z</time>
      </trkpt>
      <trkpt lat="55.7126367" lon="13.330951">
        <ele>55.4131</ele>
        <time>2012-05-03T19:09:50Z</time>
      </trkpt>
      <trkpt lat="55.7126378" lon="13.3312665">
        <ele>54.9324</ele>
        <time>2012-05-03T19:09:56Z</time>
      </trkpt>
      <trkpt lat="55.7126353" lon="13.3315299">
        <ele>53.9712</ele>
        <time>2012-05-03T19:10:01Z</time>
      </trkpt>
      <trkpt lat="55.7126265" lon="13.3318626">
        <ele>52.5292</ele>
        <time>2012-05-03T19:10:07Z</time>
      </trkpt>
      <trkpt lat="55.7126388" lon="13.3320974">
        <ele>52.5292</ele>
        <time>2012-05-03T19:10:12Z</time>
      </trkpt>
      <trkpt lat="55.7126561" lon="13.3323641">
        <ele>50.126</ele>
        <time>2012-05-03T19:10:17Z</time>
      </trkpt>
      <trkpt lat="55.7126623" lon="13.3326574">
        <ele>49.1646</ele>
        <time>2012-05-03T19:10:22Z</time>
      </trkpt>
      <trkpt lat="55.7127074" lon="13.333036">
        <ele>47.7225</ele>
        <time>2012-05-03T19:10:29Z</time>
      </trkpt>
      <trkpt lat="55.7127415" lon="13.3332513">
        <ele>46.7612</ele>
        <time>2012-05-03T19:10:33Z</time>
      </trkpt>
      <trkpt lat="55.7127856" lon="13.3335883">
        <ele>46.2806</ele>
        <time>2012-05-03T19:10:39Z</time>
      </trkpt>
      <trkpt lat="55.7128078" lon="13.3338586">
        <ele>47.2418</ele>
        <time>2012-05-03T19:10:44Z</time>
      </trkpt>
      <trkpt lat="55.7128662" lon="13.3341276">
        <ele>47.7225</ele>
        <time>2012-05-03T19:10:49Z</time>
      </trkpt>
      <trkpt lat="55.7129311" lon="13.3343958">
        <ele>49.1646</ele>
        <time>2012-05-03T19:10:54Z</time>
      </trkpt>
      <trkpt lat="55.7130052" lon="13.3346786">
        <ele>49.1646</ele>
        <time>2012-05-03T19:10:59Z</time>
      </trkpt>
      <trkpt lat="55.7130714" lon="13.3349683">
        <ele>49.6453</ele>
        <time>2012-05-03T19:11:05Z</time>
      </trkpt>
      <trkpt lat="55.7131451" lon="13.335189">
        <ele>49.6453</ele>
        <time>2012-05-03T19:11:10Z</time>
      </trkpt>
      <trkpt lat="55.713236" lon="13.3353708">
        <ele>48.2034</ele>
        <time>2012-05-03T19:11:15Z</time>
      </trkpt>
      <trkpt lat="55.713375" lon="13.3355136">
        <ele>47.2418</ele>
        <time>2012-05-03T19:11:20Z</time>
      </trkpt>
      <trkpt lat="55.713516" lon="13.335654">
        <ele>46.7612</ele>
        <time>2012-05-03T19:11:25Z</time>
      </trkpt>
      <trkpt lat="55.7136629" lon="13.3357833">
        <ele>45.7999</ele>
        <time>2012-05-03T19:11:30Z</time>
      </trkpt>
      <trkpt lat="55.7138139" lon="13.3359037">
        <ele>44.8386</ele>
        <time>2012-05-03T19:11:35Z</time>
      </trkpt>
      <trkpt lat="55.7139904" lon="13.3360301">
        <ele>44.8386</ele>
        <time>2012-05-03T19:11:41Z</time>
      </trkpt>
      <trkpt lat="55.7141557" lon="13.3361647">
        <ele>43.8773</ele>
        <time>2012-05-03T19:11:47Z</time>
      </trkpt>
      <trkpt lat="55.7142758" lon="13.3363335">
        <ele>41.9547</ele>
        <time>2012-05-03T19:11:52Z</time>
      </trkpt>
      <trkpt lat="55.7143847" lon="13.3365419">
        <ele>42.4354</ele>
        <time>2012-05-03T19:11:57Z</time>
      </trkpt>
      <trkpt lat="55.714483" lon="13.3367681">
        <ele>42.916</ele>
        <time>2012-05-03T19:12:02Z</time>
      </trkpt>
      <trkpt lat="55.7145604" lon="13.3369568">
        <ele>43.3966</ele>
        <time>2012-05-03T19:12:06Z</time>
      </trkpt>
      <trkpt lat="55.7146643" lon="13.337227">
        <ele>43.3966</ele>
        <time>2012-05-03T19:12:12Z</time>
      </trkpt>
      <trkpt lat="55.7147457" lon="13.3374033">
        <ele>43.3966</ele>
        <time>2012-05-03T19:12:16Z</time>
      </trkpt>
      <trkpt lat="55.714857" lon="13.3376793">
        <ele>43.8773</ele>
        <time>2012-05-03T19:12:22Z</time>
      </trkpt>
      <trkpt lat="55.7149269" lon="13.3378709">
        <ele>43.8773</ele>
        <time>2012-05-03T19:12:26Z</time>
      </trkpt>
      <trkpt lat="55.7150177" lon="13.3381059">
        <ele>43.8773</ele>
        <time>2012-05-03T19:12:31Z</time>
      </trkpt>
      <trkpt lat="55.715114" lon="13.3383404">
        <ele>43.8773</ele>
        <time>2012-05-03T19:12:36Z</time>
      </trkpt>
      <trkpt lat="55.715217" lon="13.3386216">
        <ele>41.9547</ele>
        <time>2012-05-03T19:12:42Z</time>
      </trkpt>
      <trkpt lat="55.7153202" lon="13.3389118">
        <ele>41.474</ele>
        <time>2012-05-03T19:12:48Z</time>
      </trkpt>
      <trkpt lat="55.7153742" lon="13.3391754">
        <ele>40.0321</ele>
        <time>2012-05-03T19:12:53Z</time>
      </trkpt>
      <trkpt lat="55.7154106" lon="13.339403">
        <ele>39.5513</ele>
        <time>2012-05-03T19:12:57Z</time>
      </trkpt>
      <trkpt lat="55.7154549" lon="13.3396111">
        <ele>39.5513</ele>
        <time>2012-05-03T19:13:01Z</time>
      </trkpt>
      <trkpt lat="55.7155171" lon="13.3399253">
        <ele>40.0321</ele>
        <time>2012-05-03T19:13:07Z</time>
      </trkpt>
      <trkpt lat="55.7155679" lon="13.3402316">
        <ele>39.0707</ele>
        <time>2012-05-03T19:13:13Z</time>
      </trkpt>
      <trkpt lat="55.7155759" lon="13.340342">
        <ele>39.0707</ele>
        <time>2012-05-03T19:13:15Z</time>
      </trkpt>
      <trkpt lat="55.7154757" lon="13.340461">
        <ele>39.5513</ele>
        <time>2012-05-03T19:13:19Z</time>
      </trkpt>
      <trkpt lat="55.7152851" lon="13.3404512">
        <ele>40.9934</ele>
        <time>2012-05-03T19:13:25Z</time>
      </trkpt>
      <trkpt lat="55.7150721" lon="13.3404765">
        <ele>43.8773</ele>
        <time>2012-05-03T19:13:32Z</time>
      </trkpt>
      <trkpt lat="55.7149208" lon="13.3406132">
        <ele>43.3966</ele>
        <time>2012-05-03T19:13:38Z</time>
      </trkpt>
      <trkpt lat="55.7147611" lon="13.3407455">
        <ele>41.9547</ele>
        <time>2012-05-03T19:13:44Z</time>
      </trkpt>
      <trkpt lat="55.7146139" lon="13.3408907">
        <ele>40.0321</ele>
        <time>2012-05-03T19:13:50Z</time>
      </trkpt>
      <trkpt lat="55.7144831" lon="13.3409876">
        <ele>39.5513</ele>
        <time>2012-05-03T19:13:55Z</time>
      </trkpt>
      <trkpt lat="55.7143541" lon="13.3410936">
        <ele>39.5513</ele>
        <time>2012-05-03T19:14:00Z</time>
      </trkpt>
      <trkpt lat="55.7142007" lon="13.3412365">
        <ele>39.0707</ele>
        <time>2012-05-03T19:14:06Z</time>
      </trkpt>
      <trkpt lat="55.7141023" lon="13.3413216">
        <ele>38.5901</ele>
        <time>2012-05-03T19:14:10Z</time>
      </trkpt>
      <trkpt lat="55.71395" lon="13.341438">
        <ele>37.6287</ele>
        <time>2012-05-03T19:14:16Z</time>
      </trkpt>
      <trkpt lat="55.7138196" lon="13.3415468">
        <ele>37.6287</ele>
        <time>2012-05-03T19:14:21Z</time>
      </trkpt>
      <trkpt lat="55.7136769" lon="13.3416328">
        <ele>37.1481</ele>
        <time>2012-05-03T19:14:26Z</time>
      </trkpt>
      <trkpt lat="55.71362" lon="13.3416644">
        <ele>36.6675</ele>
        <time>2012-05-03T19:14:28Z</time>
      </trkpt>
      <trkpt lat="55.713596" lon="13.3416863">
        <ele>36.6675</ele>
        <time>2012-05-03T19:14:29Z</time>
      </trkpt>
      <trkpt lat="55.7135859" lon="13.3417076">
        <ele>36.6675</ele>
        <time>2012-05-03T19:14:31Z</time>
      </trkpt>
      <trkpt lat="55.7137341" lon="13.3415847">
        <ele>36.6675</ele>
        <time>2012-05-03T19:14:37Z</time>
      </trkpt>
      <trkpt lat="55.713873" lon="13.3414392">
        <ele>37.1481</ele>
        <time>2012-05-03T19:14:42Z</time>
      </trkpt>
      <trkpt lat="55.713966" lon="13.3413395">
        <ele>37.6287</ele>
        <time>2012-05-03T19:14:46Z</time>
      </trkpt>
      <trkpt lat="55.714111" lon="13.3412064">
        <ele>37.6287</ele>
        <time>2012-05-03T19:14:52Z</time>
      </trkpt>
      <trkpt lat="55.7142681" lon="13.3410807">
        <ele>37.1481</ele>
        <time>2012-05-03T19:14:57Z</time>
      </trkpt>
      <trkpt lat="55.7143562" lon="13.3409932">
        <ele>37.1481</ele>
        <time>2012-05-03T19:15:01Z</time>
      </trkpt>
      <trkpt lat="55.7144651" lon="13.3409">
        <ele>36.6675</ele>
        <time>2012-05-03T19:15:06Z</time>
      </trkpt>
      <trkpt lat="55.7145805" lon="13.3407985">
        <ele>36.6675</ele>
        <time>2012-05-03T19:15:11Z</time>
      </trkpt>
      <trkpt lat="55.7146749" lon="13.3407021">
        <ele>35.2255</ele>
        <time>2012-05-03T19:15:15Z</time>
      </trkpt>
      <trkpt lat="55.7148432" lon="13.3405327">
        <ele>34.2642</ele>
        <time>2012-05-03T19:15:22Z</time>
      </trkpt>
      <trkpt lat="55.7149865" lon="13.3404126">
        <ele>33.3029</ele>
        <time>2012-05-03T19:15:27Z</time>
      </trkpt>
      <trkpt lat="55.7151265" lon="13.3403377">
        <ele>33.3029</ele>
        <time>2012-05-03T19:15:32Z</time>
      </trkpt>
      <trkpt lat="55.7153046" lon="13.3403735">
        <ele>33.7834</ele>
        <time>2012-05-03T19:15:38Z</time>
      </trkpt>
      <trkpt lat="55.7154393" lon="13.3403796">
        <ele>33.7834</ele>
        <time>2012-05-03T19:15:43Z</time>
      </trkpt>
      <trkpt lat="55.7154664" lon="13.3403739">
        <ele>34.2642</ele>
        <time>2012-05-03T19:15:44Z</time>
      </trkpt>
      <trkpt lat="55.7155103" lon="13.3402333">
        <ele>33.3029</ele>
        <time>2012-05-03T19:15:48Z</time>
      </trkpt>
      <trkpt lat="55.715464" lon="13.3399948">
        <ele>32.8223</ele>
        <time>2012-05-03T19:15:53Z</time>
      </trkpt>
      <trkpt lat="55.7154073" lon="13.3397178">
        <ele>33.7834</ele>
        <time>2012-05-03T19:15:59Z</time>
      </trkpt>
      <trkpt lat="55.7153583" lon="13.3394805">
        <ele>34.7449</ele>
        <time>2012-05-03T19:16:04Z</time>
      </trkpt>
      <trkpt lat="55.7152944" lon="13.3391455">
        <ele>35.2255</ele>
        <time>2012-05-03T19:16:11Z</time>
      </trkpt>
      <trkpt lat="55.715226" lon="13.3388677">
        <ele>36.1868</ele>
        <time>2012-05-03T19:16:17Z</time>
      </trkpt>
      <trkpt lat="55.715114" lon="13.338578">
        <ele>37.6287</ele>
        <time>2012-05-03T19:16:24Z</time>
      </trkpt>
      <trkpt lat="55.7149888" lon="13.3382544">
        <ele>38.5901</ele>
        <time>2012-05-03T19:16:32Z</time>
      </trkpt>
      <trkpt lat="55.7149002" lon="13.3380275">
        <ele>40.0321</ele>
        <time>2012-05-03T19:16:38Z</time>
      </trkpt>
      <trkpt lat="55.7148087" lon="13.337796">
        <ele>40.5128</ele>
        <time>2012-05-03T19:16:44Z</time>
      </trkpt>
      <trkpt lat="55.7147275" lon="13.3376079">
        <ele>41.474</ele>
        <time>2012-05-03T19:16:49Z</time>
      </trkpt>
      <trkpt lat="55.7146477" lon="13.3374106">
        <ele>41.9547</ele>
        <time>2012-05-03T19:16:54Z</time>
      </trkpt>
      <trkpt lat="55.7145653" lon="13.3371879">
        <ele>42.4354</ele>
        <time>2012-05-03T19:17:00Z</time>
      </trkpt>
      <trkpt lat="55.7144758" lon="13.3369621">
        <ele>42.4354</ele>
        <time>2012-05-03T19:17:06Z</time>
      </trkpt>
      <trkpt lat="55.7143661" lon="13.3366895">
        <ele>43.3966</ele>
        <time>2012-05-03T19:17:13Z</time>
      </trkpt>
      <trkpt lat="55.7142908" lon="13.3364958">
        <ele>43.8773</ele>
        <time>2012-05-03T19:17:18Z</time>
      </trkpt>
      <trkpt lat="55.7142053" lon="13.3363424">
        <ele>44.8386</ele>
        <time>2012-05-03T19:17:23Z</time>
      </trkpt>
      <trkpt lat="55.7140909" lon="13.3362395">
        <ele>45.7999</ele>
        <time>2012-05-03T19:17:28Z</time>
      </trkpt>
      <trkpt lat="55.7139491" lon="13.3361269">
        <ele>46.7612</ele>
        <time>2012-05-03T19:17:34Z</time>
      </trkpt>
      <trkpt lat="55.7137792" lon="13.3359975">
        <ele>48.2034</ele>
        <time>2012-05-03T19:17:41Z</time>
      </trkpt>
      <trkpt lat="55.713629" lon="13.3358788">
        <ele>48.684</ele>
        <time>2012-05-03T19:17:47Z</time>
      </trkpt>
      <trkpt lat="55.7135067" lon="13.335771">
        <ele>48.684</ele>
        <time>2012-05-03T19:17:52Z</time>
      </trkpt>
      <trkpt lat="55.7134128" lon="13.3356861">
        <ele>48.684</ele>
        <time>2012-05-03T19:17:56Z</time>
      </trkpt>
      <trkpt lat="55.7133102" lon="13.3355768">
        <ele>48.684</ele>
        <time>2012-05-03T19:18:01Z</time>
      </trkpt>
      <trkpt lat="55.7132" lon="13.3354437">
        <ele>49.1646</ele>
        <time>2012-05-03T19:18:06Z</time>
      </trkpt>
      <trkpt lat="55.7130746" lon="13.3352603">
        <ele>50.6066</ele>
        <time>2012-05-03T19:18:12Z</time>
      </trkpt>
      <trkpt lat="55.7129933" lon="13.3350146">
        <ele>51.5679</ele>
        <time>2012-05-03T19:18:18Z</time>
      </trkpt>
      <trkpt lat="55.7129466" lon="13.3348417">
        <ele>51.0872</ele>
        <time>2012-05-03T19:18:22Z</time>
      </trkpt>
      <trkpt lat="55.7128967" lon="13.3346236">
        <ele>47.7225</ele>
        <time>2012-05-03T19:18:27Z</time>
      </trkpt>
      <trkpt lat="55.7128663" lon="13.3344441">
        <ele>46.7612</ele>
        <time>2012-05-03T19:18:31Z</time>
      </trkpt>
      <trkpt lat="55.7128477" lon="13.33433">
        <ele>46.2806</ele>
        <time>2012-05-03T19:18:34Z</time>
      </trkpt>
      <trkpt lat="55.7128121" lon="13.3341606">
        <ele>45.3192</ele>
        <time>2012-05-03T19:18:38Z</time>
      </trkpt>
      <trkpt lat="55.7127762" lon="13.3338508">
        <ele>43.8773</ele>
        <time>2012-05-03T19:18:45Z</time>
      </trkpt>
      <trkpt lat="55.7127479" lon="13.3335831">
        <ele>43.8773</ele>
        <time>2012-05-03T19:18:51Z</time>
      </trkpt>
      <trkpt lat="55.712696" lon="13.3332915">
        <ele>45.3192</ele>
        <time>2012-05-03T19:18:57Z</time>
      </trkpt>
      <trkpt lat="55.7126617" lon="13.3330515">
        <ele>45.7999</ele>
        <time>2012-05-03T19:19:02Z</time>
      </trkpt>
      <trkpt lat="55.7126286" lon="13.3328003">
        <ele>45.7999</ele>
        <time>2012-05-03T19:19:07Z</time>
      </trkpt>
      <trkpt lat="55.7126142" lon="13.3325623">
        <ele>46.2806</ele>
        <time>2012-05-03T19:19:12Z</time>
      </trkpt>
      <trkpt lat="55.712594" lon="13.3323713">
        <ele>46.7612</ele>
        <time>2012-05-03T19:19:16Z</time>
      </trkpt>
      <trkpt lat="55.7125951" lon="13.3321322">
        <ele>47.2418</ele>
        <time>2012-05-03T19:19:21Z</time>
      </trkpt>
      <trkpt lat="55.7125923" lon="13.3319464">
        <ele>46.7612</ele>
        <time>2012-05-03T19:19:25Z</time>
      </trkpt>
      <trkpt lat="55.7125722" lon="13.3316825">
        <ele>47.2418</ele>
        <time>2012-05-03T19:19:30Z</time>
      </trkpt>
      <trkpt lat="55.7125659" lon="13.3314235">
        <ele>47.7225</ele>
        <time>2012-05-03T19:19:35Z</time>
      </trkpt>
      <trkpt lat="55.7125557" lon="13.3311609">
        <ele>48.2034</ele>
        <time>2012-05-03T19:19:40Z</time>
      </trkpt>
      <trkpt lat="55.7125499" lon="13.3310147">
        <ele>48.684</ele>
        <time>2012-05-03T19:19:43Z</time>
      </trkpt>
      <trkpt lat="55.7125376" lon="13.33077">
        <ele>49.6453</ele>
        <time>2012-05-03T19:19:48Z</time>
      </trkpt>
      <trkpt lat="55.7125416" lon="13.3304688">
        <ele>49.6453</ele>
        <time>2012-05-03T19:19:54Z</time>
      </trkpt>
      <trkpt lat="55.7125403" lon="13.3303206">
        <ele>50.6066</ele>
        <time>2012-05-03T19:19:57Z</time>
      </trkpt>
      <trkpt lat="55.7125343" lon="13.3302185">
        <ele>50.6066</ele>
        <time>2012-05-03T19:19:59Z</time>
      </trkpt>
      <trkpt lat="55.7125479" lon="13.3299327">
        <ele>50.6066</ele>
        <time>2012-05-03T19:20:05Z</time>
      </trkpt>
      <trkpt lat="55.712589" lon="13.32966">
        <ele>51.0872</ele>
        <time>2012-05-03T19:20:11Z</time>
      </trkpt>
      <trkpt lat="55.7126021" lon="13.3293276">
        <ele>50.6066</ele>
        <time>2012-05-03T19:20:18Z</time>
      </trkpt>
      <trkpt lat="55.7126286" lon="13.3291462">
        <ele>50.126</ele>
        <time>2012-05-03T19:20:22Z</time>
      </trkpt>
      <trkpt lat="55.7126515" lon="13.3289187">
        <ele>49.6453</ele>
        <time>2012-05-03T19:20:27Z</time>
      </trkpt>
      <trkpt lat="55.7126493" lon="13.3287135">
        <ele>49.6453</ele>
        <time>2012-05-03T19:20:31Z</time>
      </trkpt>
      <trkpt lat="55.7126504" lon="13.3284698">
        <ele>49.1646</ele>
        <time>2012-05-03T19:20:36Z</time>
      </trkpt>
      <trkpt lat="55.7126612" lon="13.328175">
        <ele>48.2034</ele>
        <time>2012-05-03T19:20:42Z</time>
      </trkpt>
      <trkpt lat="55.7126605" lon="13.3278746">
        <ele>48.2034</ele>
        <time>2012-05-03T19:20:48Z</time>
      </trkpt>
      <trkpt lat="55.7126845" lon="13.3276413">
        <ele>48.684</ele>
        <time>2012-05-03T19:20:53Z</time>
      </trkpt>
      <trkpt lat="55.7126917" lon="13.3273597">
        <ele>49.6453</ele>
        <time>2012-05-03T19:20:59Z</time>
      </trkpt>
      <trkpt lat="55.7127001" lon="13.3272685">
        <ele>50.126</ele>
        <time>2012-05-03T19:21:01Z</time>
      </trkpt>
      <trkpt lat="55.7127219" lon="13.327041">
        <ele>50.6066</ele>
        <time>2012-05-03T19:21:06Z</time>
      </trkpt>
      <trkpt lat="55.7127491" lon="13.3268614">
        <ele>50.126</ele>
        <time>2012-05-03T19:21:10Z</time>
      </trkpt>
      <trkpt lat="55.7127442" lon="13.326676">
        <ele>50.126</ele>
        <time>2012-05-03T19:21:14Z</time>
      </trkpt>
      <trkpt lat="55.7127494" lon="13.3264872">
        <ele>50.126</ele>
        <time>2012-05-03T19:21:18Z</time>
      </trkpt>
      <trkpt lat="55.7127565" lon="13.3262851">
        <ele>50.6066</ele>
        <time>2012-05-03T19:21:22Z</time>
      </trkpt>
      <trkpt lat="55.712774" lon="13.3260922">
        <ele>51.0872</ele>
        <time>2012-05-03T19:21:26Z</time>
      </trkpt>
      <trkpt lat="55.7127882" lon="13.3258617">
        <ele>51.0872</ele>
        <time>2012-05-03T19:21:31Z</time>
      </trkpt>
      <trkpt lat="55.7127835" lon="13.3256192">
        <ele>49.6453</ele>
        <time>2012-05-03T19:21:36Z</time>
      </trkpt>
      <trkpt lat="55.7127939" lon="13.3254062">
        <ele>49.1646</ele>
        <time>2012-05-03T19:21:41Z</time>
      </trkpt>
      <trkpt lat="55.7128031" lon="13.3252214">
        <ele>49.1646</ele>
        <time>2012-05-03T19:21:45Z</time>
      </trkpt>
      <trkpt lat="55.7128199" lon="13.3250386">
        <ele>49.1646</ele>
        <time>2012-05-03T19:21:49Z</time>
      </trkpt>
      <trkpt lat="55.7128192" lon="13.3249524">
        <ele>48.684</ele>
        <time>2012-05-03T19:21:51Z</time>
      </trkpt>
      <trkpt lat="55.712831" lon="13.3247292">
        <ele>48.684</ele>
        <time>2012-05-03T19:21:56Z</time>
      </trkpt>
      <trkpt lat="55.7128506" lon="13.32451">
        <ele>48.2034</ele>
        <time>2012-05-03T19:22:01Z</time>
      </trkpt>
      <trkpt lat="55.7128493" lon="13.3243047">
        <ele>49.6453</ele>
        <time>2012-05-03T19:22:05Z</time>
      </trkpt>
      <trkpt lat="55.7128546" lon="13.3240563">
        <ele>49.6453</ele>
        <time>2012-05-03T19:22:10Z</time>
      </trkpt>
      <trkpt lat="55.7128714" lon="13.3238212">
        <ele>49.6453</ele>
        <time>2012-05-03T19:22:15Z</time>
      </trkpt>
      <trkpt lat="55.7128902" lon="13.3235922">
        <ele>50.6066</ele>
        <time>2012-05-03T19:22:20Z</time>
      </trkpt>
      <trkpt lat="55.71291" lon="13.3233549">
        <ele>51.0872</ele>
        <time>2012-05-03T19:22:25Z</time>
      </trkpt>
      <trkpt lat="55.7129197" lon="13.3231187">
        <ele>51.5679</ele>
        <time>2012-05-03T19:22:30Z</time>
      </trkpt>
      <trkpt lat="55.7129172" lon="13.3230679">
        <ele>51.0872</ele>
        <time>2012-05-03T19:22:31Z</time>
      </trkpt>
      <trkpt lat="55.7129089" lon="13.3227231">
        <ele>52.5292</ele>
        <time>2012-05-03T19:22:38Z</time>
      </trkpt>
      <trkpt lat="55.7129052" lon="13.3225088">
        <ele>53.0098</ele>
        <time>2012-05-03T19:22:42Z</time>
      </trkpt>
      <trkpt lat="55.7129178" lon="13.3222524">
        <ele>53.0098</ele>
        <time>2012-05-03T19:22:47Z</time>
      </trkpt>
      <trkpt lat="55.7129165" lon="13.3219563">
        <ele>52.5292</ele>
        <time>2012-05-03T19:22:53Z</time>
      </trkpt>
      <trkpt lat="55.7129119" lon="13.3216636">
        <ele>53.0098</ele>
        <time>2012-05-03T19:22:59Z</time>
      </trkpt>
      <trkpt lat="55.7129314" lon="13.3214242">
        <ele>52.5292</ele>
        <time>2012-05-03T19:23:04Z</time>
      </trkpt>
      <trkpt lat="55.7129411" lon="13.3211741">
        <ele>52.0486</ele>
        <time>2012-05-03T19:23:09Z</time>
      </trkpt>
      <trkpt lat="55.7129486" lon="13.3209752">
        <ele>52.0486</ele>
        <time>2012-05-03T19:23:13Z</time>
      </trkpt>
      <trkpt lat="55.7129709" lon="13.3206762">
        <ele>52.5292</ele>
        <time>2012-05-03T19:23:19Z</time>
      </trkpt>
      <trkpt lat="55.7129856" lon="13.3203769">
        <ele>52.0486</ele>
        <time>2012-05-03T19:23:25Z</time>
      </trkpt>
      <trkpt lat="55.7129859" lon="13.3201769">
        <ele>52.5292</ele>
        <time>2012-05-03T19:23:29Z</time>
      </trkpt>
      <trkpt lat="55.7129959" lon="13.3198841">
        <ele>52.0486</ele>
        <time>2012-05-03T19:23:35Z</time>
      </trkpt>
      <trkpt lat="55.7129999" lon="13.3198366">
        <ele>51.5679</ele>
        <time>2012-05-03T19:23:36Z</time>
      </trkpt>
      <trkpt lat="55.7130337" lon="13.3195645">
        <ele>52.0486</ele>
        <time>2012-05-03T19:23:42Z</time>
      </trkpt>
      <trkpt lat="55.7130373" lon="13.3193161">
        <ele>52.5292</ele>
        <time>2012-05-03T19:23:47Z</time>
      </trkpt>
      <trkpt lat="55.7130371" lon="13.3191154">
        <ele>52.5292</ele>
        <time>2012-05-03T19:23:51Z</time>
      </trkpt>
      <trkpt lat="55.7130309" lon="13.3188704">
        <ele>52.5292</ele>
        <time>2012-05-03T19:23:56Z</time>
      </trkpt>
      <trkpt lat="55.7130346" lon="13.3186726">
        <ele>52.5292</ele>
        <time>2012-05-03T19:24:00Z</time>
      </trkpt>
      <trkpt lat="55.7130533" lon="13.3183846">
        <ele>52.5292</ele>
        <time>2012-05-03T19:24:06Z</time>
      </trkpt>
      <trkpt lat="55.7130699" lon="13.3182961">
        <ele>52.5292</ele>
        <time>2012-05-03T19:24:08Z</time>
      </trkpt>
      <trkpt lat="55.7130761" lon="13.3182017">
        <ele>53.0098</ele>
        <time>2012-05-03T19:24:10Z</time>
      </trkpt>
      <trkpt lat="55.713077" lon="13.3179456">
        <ele>53.4905</ele>
        <time>2012-05-03T19:24:15Z</time>
      </trkpt>
      <trkpt lat="55.7130833" lon="13.3176515">
        <ele>53.4905</ele>
        <time>2012-05-03T19:24:21Z</time>
      </trkpt>
      <trkpt lat="55.7130746" lon="13.3174912">
        <ele>53.4905</ele>
        <time>2012-05-03T19:24:24Z</time>
      </trkpt>
      <trkpt lat="55.7130777" lon="13.3172469">
        <ele>53.4905</ele>
        <time>2012-05-03T19:24:29Z</time>
      </trkpt>
      <trkpt lat="55.7131036" lon="13.3169239">
        <ele>53.0098</ele>
        <time>2012-05-03T19:24:36Z</time>
      </trkpt>
      <trkpt lat="55.7131207" lon="13.316654">
        <ele>52.5292</ele>
        <time>2012-05-03T19:24:42Z</time>
      </trkpt>
      <trkpt lat="55.7131393" lon="13.3163847">
        <ele>52.5292</ele>
        <time>2012-05-03T19:24:48Z</time>
      </trkpt>
      <trkpt lat="55.7131475" lon="13.3161628">
        <ele>52.5292</ele>
        <time>2012-05-03T19:24:53Z</time>
      </trkpt>
      <trkpt lat="55.7131549" lon="13.315938">
        <ele>51.5679</ele>
        <time>2012-05-03T19:24:58Z</time>
      </trkpt>
      <trkpt lat="55.7131461" lon="13.3156516">
        <ele>51.5679</ele>
        <time>2012-05-03T19:25:04Z</time>
      </trkpt>
      <trkpt lat="55.7131635" lon="13.3154882">
        <ele>52.0486</ele>
        <time>2012-05-03T19:25:08Z</time>
      </trkpt>
      <trkpt lat="55.713173" lon="13.3153559">
        <ele>52.0486</ele>
        <time>2012-05-03T19:25:11Z</time>
      </trkpt>
      <trkpt lat="55.7131812" lon="13.3151381">
        <ele>54.4518</ele>
        <time>2012-05-03T19:25:16Z</time>
      </trkpt>
      <trkpt lat="55.7131666" lon="13.3149854">
        <ele>54.9324</ele>
        <time>2012-05-03T19:25:19Z</time>
      </trkpt>
      <trkpt lat="55.713187" lon="13.3146271">
        <ele>55.8938</ele>
        <time>2012-05-03T19:25:27Z</time>
      </trkpt>
      <trkpt lat="55.7131942" lon="13.3145089">
        <ele>56.3745</ele>
        <time>2012-05-03T19:25:30Z</time>
      </trkpt>
      <trkpt lat="55.7131946" lon="13.3144634">
        <ele>56.3745</ele>
        <time>2012-05-03T19:25:31Z</time>
      </trkpt>
      <trkpt lat="55.7132026" lon="13.3142913">
        <ele>56.3745</ele>
        <time>2012-05-03T19:25:35Z</time>
      </trkpt>
      <trkpt lat="55.7132015" lon="13.3140621">
        <ele>55.8938</ele>
        <time>2012-05-03T19:25:40Z</time>
      </trkpt>
      <trkpt lat="55.7132113" lon="13.3138643">
        <ele>54.9324</ele>
        <time>2012-05-03T19:25:44Z</time>
      </trkpt>
      <trkpt lat="55.7132239" lon="13.3136245">
        <ele>54.4518</ele>
        <time>2012-05-03T19:25:49Z</time>
      </trkpt>
      <trkpt lat="55.7132252" lon="13.3135779">
        <ele>54.4518</ele>
        <time>2012-05-03T19:25:50Z</time>
      </trkpt>
      <trkpt lat="55.7132415" lon="13.3133071">
        <ele>53.9712</ele>
        <time>2012-05-03T19:25:56Z</time>
      </trkpt>
      <trkpt lat="55.7132413" lon="13.313261">
        <ele>53.9712</ele>
        <time>2012-05-03T19:25:57Z</time>
      </trkpt>
      <trkpt lat="55.7132564" lon="13.3129785">
        <ele>55.4131</ele>
        <time>2012-05-03T19:26:03Z</time>
      </trkpt>
      <trkpt lat="55.713273" lon="13.3126896">
        <ele>55.8938</ele>
        <time>2012-05-03T19:26:09Z</time>
      </trkpt>
      <trkpt lat="55.7132746" lon="13.3124993">
        <ele>56.3745</ele>
        <time>2012-05-03T19:26:13Z</time>
      </trkpt>
      <trkpt lat="55.7132719" lon="13.3123095">
        <ele>56.8551</ele>
        <time>2012-05-03T19:26:17Z</time>
      </trkpt>
      <trkpt lat="55.7132911" lon="13.312115">
        <ele>56.8551</ele>
        <time>2012-05-03T19:26:21Z</time>
      </trkpt>
      <trkpt lat="55.713313" lon="13.3118256">
        <ele>56.8551</ele>
        <time>2012-05-03T19:26:27Z</time>
      </trkpt>
      <trkpt lat="55.7133165" lon="13.3115841">
        <ele>56.8551</ele>
        <time>2012-05-03T19:26:32Z</time>
      </trkpt>
      <trkpt lat="55.7133153" lon="13.3113346">
        <ele>57.8165</ele>
        <time>2012-05-03T19:26:37Z</time>
      </trkpt>
      <trkpt lat="55.7133335" lon="13.3110978">
        <ele>58.7777</ele>
        <time>2012-05-03T19:26:42Z</time>
      </trkpt>
      <trkpt lat="55.7133464" lon="13.3108573">
        <ele>58.7777</ele>
        <time>2012-05-03T19:26:47Z</time>
      </trkpt>
      <trkpt lat="55.7133609" lon="13.310612">
        <ele>59.2584</ele>
        <time>2012-05-03T19:26:52Z</time>
      </trkpt>
      <trkpt lat="55.7133611" lon="13.3105169">
        <ele>58.7777</ele>
        <time>2012-05-03T19:26:54Z</time>
      </trkpt>
      <trkpt lat="55.7133681" lon="13.3102121">
        <ele>59.2584</ele>
        <time>2012-05-03T19:27:00Z</time>
      </trkpt>
      <trkpt lat="55.7133818" lon="13.3100188">
        <ele>59.2584</ele>
        <time>2012-05-03T19:27:04Z</time>
      </trkpt>
      <trkpt lat="55.713388" lon="13.3097246">
        <ele>57.8165</ele>
        <time>2012-05-03T19:27:10Z</time>
      </trkpt>
      <trkpt lat="55.7133971" lon="13.3094891">
        <ele>57.3358</ele>
        <time>2012-05-03T19:27:15Z</time>
      </trkpt>
      <trkpt lat="55.7134113" lon="13.3092464">
        <ele>56.8551</ele>
        <time>2012-05-03T19:27:20Z</time>
      </trkpt>
      <trkpt lat="55.7134239" lon="13.3090554">
        <ele>57.3358</ele>
        <time>2012-05-03T19:27:24Z</time>
      </trkpt>
      <trkpt lat="55.7134253" lon="13.3089589">
        <ele>57.3358</ele>
        <time>2012-05-03T19:27:26Z</time>
      </trkpt>
      <trkpt lat="55.7134283" lon="13.3086554">
        <ele>57.3358</ele>
        <time>2012-05-03T19:27:32Z</time>
      </trkpt>
      <trkpt lat="55.7134233" lon="13.3084526">
        <ele>57.8165</ele>
        <time>2012-05-03T19:27:36Z</time>
      </trkpt>
      <trkpt lat="55.7134367" lon="13.3082706">
        <ele>58.7777</ele>
        <time>2012-05-03T19:27:40Z</time>
      </trkpt>
      <trkpt lat="55.7134433" lon="13.3080869">
        <ele>58.7777</ele>
        <time>2012-05-03T19:27:44Z</time>
      </trkpt>
      <trkpt lat="55.7134709" lon="13.3078048">
        <ele>59.7391</ele>
        <time>2012-05-03T19:27:50Z</time>
      </trkpt>
      <trkpt lat="55.7134978" lon="13.3075695">
        <ele>61.181</ele>
        <time>2012-05-03T19:27:55Z</time>
      </trkpt>
      <trkpt lat="55.7135014" lon="13.3073691">
        <ele>60.7003</ele>
        <time>2012-05-03T19:27:59Z</time>
      </trkpt>
      <trkpt lat="55.7135137" lon="13.3071341">
        <ele>60.7003</ele>
        <time>2012-05-03T19:28:04Z</time>
      </trkpt>
      <trkpt lat="55.7135179" lon="13.3069366">
        <ele>60.2197</ele>
        <time>2012-05-03T19:28:08Z</time>
      </trkpt>
      <trkpt lat="55.7134999" lon="13.3066748">
        <ele>60.2197</ele>
        <time>2012-05-03T19:28:13Z</time>
      </trkpt>
      <trkpt lat="55.7135049" lon="13.306375">
        <ele>60.7003</ele>
        <time>2012-05-03T19:28:19Z</time>
      </trkpt>
      <trkpt lat="55.7135059" lon="13.3061682">
        <ele>60.7003</ele>
        <time>2012-05-03T19:28:23Z</time>
      </trkpt>
      <trkpt lat="55.7135088" lon="13.305918">
        <ele>61.181</ele>
        <time>2012-05-03T19:28:28Z</time>
      </trkpt>
      <trkpt lat="55.7135294" lon="13.3056248">
        <ele>62.1423</ele>
        <time>2012-05-03T19:28:34Z</time>
      </trkpt>
      <trkpt lat="55.7135367" lon="13.3054259">
        <ele>62.6229</ele>
        <time>2012-05-03T19:28:38Z</time>
      </trkpt>
      <trkpt lat="55.7135413" lon="13.3051703">
        <ele>61.6617</ele>
        <time>2012-05-03T19:28:43Z</time>
      </trkpt>
      <trkpt lat="55.7135558" lon="13.3049252">
        <ele>61.6617</ele>
        <time>2012-05-03T19:28:48Z</time>
      </trkpt>
      <trkpt lat="55.7135647" lon="13.3047341">
        <ele>61.181</ele>
        <time>2012-05-03T19:28:52Z</time>
      </trkpt>
      <trkpt lat="55.7135736" lon="13.3046375">
        <ele>61.181</ele>
        <time>2012-05-03T19:28:54Z</time>
      </trkpt>
      <trkpt lat="55.7135865" lon="13.3043808">
        <ele>60.7003</ele>
        <time>2012-05-03T19:28:59Z</time>
      </trkpt>
      <trkpt lat="55.7135876" lon="13.3041212">
        <ele>60.2197</ele>
        <time>2012-05-03T19:29:04Z</time>
      </trkpt>
      <trkpt lat="55.7135916" lon="13.3039172">
        <ele>59.7391</ele>
        <time>2012-05-03T19:29:08Z</time>
      </trkpt>
      <trkpt lat="55.7136133" lon="13.3036273">
        <ele>58.2971</ele>
        <time>2012-05-03T19:29:14Z</time>
      </trkpt>
      <trkpt lat="55.7136402" lon="13.30345">
        <ele>58.7777</ele>
        <time>2012-05-03T19:29:18Z</time>
      </trkpt>
      <trkpt lat="55.7136429" lon="13.3033489">
        <ele>58.7777</ele>
        <time>2012-05-03T19:29:20Z</time>
      </trkpt>
      <trkpt lat="55.7136334" lon="13.3030898">
        <ele>58.7777</ele>
        <time>2012-05-03T19:29:25Z</time>
      </trkpt>
      <trkpt lat="55.7136271" lon="13.3028413">
        <ele>59.2584</ele>
        <time>2012-05-03T19:29:30Z</time>
      </trkpt>
      <trkpt lat="55.7136082" lon="13.3025262">
        <ele>58.7777</ele>
        <time>2012-05-03T19:29:36Z</time>
      </trkpt>
      <trkpt lat="55.7136003" lon="13.3022661">
        <ele>57.8165</ele>
        <time>2012-05-03T19:29:41Z</time>
      </trkpt>
      <trkpt lat="55.7135874" lon="13.3020148">
        <ele>57.8165</ele>
        <time>2012-05-03T19:29:46Z</time>
      </trkpt>
      <trkpt lat="55.7135731" lon="13.301763">
        <ele>58.7777</ele>
        <time>2012-05-03T19:29:51Z</time>
      </trkpt>
      <trkpt lat="55.7135589" lon="13.3014579">
        <ele>59.2584</ele>
        <time>2012-05-03T19:29:57Z</time>
      </trkpt>
      <trkpt lat="55.7135455" lon="13.3012135">
        <ele>58.2971</ele>
        <time>2012-05-03T19:30:02Z</time>
      </trkpt>
      <trkpt lat="55.7135347" lon="13.3009241">
        <ele>58.2971</ele>
        <time>2012-05-03T19:30:08Z</time>
      </trkpt>
      <trkpt lat="55.7135399" lon="13.3006619">
        <ele>57.3358</ele>
        <time>2012-05-03T19:30:14Z</time>
      </trkpt>
      <trkpt lat="55.7135319" lon="13.3004278">
        <ele>57.8165</ele>
        <time>2012-05-03T19:30:19Z</time>
      </trkpt>
      <trkpt lat="55.7135092" lon="13.3001946">
        <ele>58.2971</ele>
        <time>2012-05-03T19:30:24Z</time>
      </trkpt>
      <trkpt lat="55.7134911" lon="13.299957">
        <ele>57.8165</ele>
        <time>2012-05-03T19:30:29Z</time>
      </trkpt>
      <trkpt lat="55.713479" lon="13.2997138">
        <ele>57.3358</ele>
        <time>2012-05-03T19:30:34Z</time>
      </trkpt>
      <trkpt lat="55.7134787" lon="13.2995408">
        <ele>57.8165</ele>
        <time>2012-05-03T19:30:38Z</time>
      </trkpt>
      <trkpt lat="55.7134745" lon="13.2993577">
        <ele>56.8551</ele>
        <time>2012-05-03T19:30:42Z</time>
      </trkpt>
      <trkpt lat="55.713444" lon="13.29902">
        <ele>56.3745</ele>
        <time>2012-05-03T19:30:49Z</time>
      </trkpt>
      <trkpt lat="55.7134306" lon="13.298783">
        <ele>54.9324</ele>
        <time>2012-05-03T19:30:54Z</time>
      </trkpt>
      <trkpt lat="55.7134268" lon="13.2986456">
        <ele>53.9712</ele>
        <time>2012-05-03T19:30:57Z</time>
      </trkpt>
      <trkpt lat="55.7134143" lon="13.2985443">
        <ele>54.4518</ele>
        <time>2012-05-03T19:30:59Z</time>
      </trkpt>
      <trkpt lat="55.7133837" lon="13.2982604">
        <ele>55.4131</ele>
        <time>2012-05-03T19:31:05Z</time>
      </trkpt>
      <trkpt lat="55.7133511" lon="13.297975">
        <ele>56.3745</ele>
        <time>2012-05-03T19:31:11Z</time>
      </trkpt>
      <trkpt lat="55.7133374" lon="13.2977445">
        <ele>56.8551</ele>
        <time>2012-05-03T19:31:16Z</time>
      </trkpt>
      <trkpt lat="55.7133326" lon="13.2975597">
        <ele>57.8165</ele>
        <time>2012-05-03T19:31:20Z</time>
      </trkpt>
      <trkpt lat="55.7133171" lon="13.2973596">
        <ele>57.8165</ele>
        <time>2012-05-03T19:31:24Z</time>
      </trkpt>
      <trkpt lat="55.7132957" lon="13.2970948">
        <ele>56.3745</ele>
        <time>2012-05-03T19:31:29Z</time>
      </trkpt>
      <trkpt lat="55.7132711" lon="13.2967504">
        <ele>56.3745</ele>
        <time>2012-05-03T19:31:36Z</time>
      </trkpt>
      <trkpt lat="55.7132408" lon="13.2964535">
        <ele>56.3745</ele>
        <time>2012-05-03T19:31:42Z</time>
      </trkpt>
      <trkpt lat="55.7132236" lon="13.2962209">
        <ele>57.3358</ele>
        <time>2012-05-03T19:31:47Z</time>
      </trkpt>
      <trkpt lat="55.713198" lon="13.2960298">
        <ele>57.8165</ele>
        <time>2012-05-03T19:31:51Z</time>
      </trkpt>
      <trkpt lat="55.7131811" lon="13.295845">
        <ele>58.2971</ele>
        <time>2012-05-03T19:31:55Z</time>
      </trkpt>
      <trkpt lat="55.7131766" lon="13.2957968">
        <ele>58.2971</ele>
        <time>2012-05-03T19:31:56Z</time>
      </trkpt>
      <trkpt lat="55.7131792" lon="13.2955739">
        <ele>58.2971</ele>
        <time>2012-05-03T19:32:01Z</time>
      </trkpt>
      <trkpt lat="55.7131609" lon="13.2953865">
        <ele>57.8165</ele>
        <time>2012-05-03T19:32:05Z</time>
      </trkpt>
      <trkpt lat="55.7131368" lon="13.2950959">
        <ele>57.8165</ele>
        <time>2012-05-03T19:32:11Z</time>
      </trkpt>
      <trkpt lat="55.7131145" lon="13.2949089">
        <ele>57.3358</ele>
        <time>2012-05-03T19:32:15Z</time>
      </trkpt>
      <trkpt lat="55.7131047" lon="13.2947245">
        <ele>57.8165</ele>
        <time>2012-05-03T19:32:19Z</time>
      </trkpt>
      <trkpt lat="55.713085" lon="13.2945">
        <ele>58.7777</ele>
        <time>2012-05-03T19:32:24Z</time>
      </trkpt>
      <trkpt lat="55.7130472" lon="13.2942614">
        <ele>59.2584</ele>
        <time>2012-05-03T19:32:29Z</time>
      </trkpt>
      <trkpt lat="55.7130182" lon="13.2940696">
        <ele>60.2197</ele>
        <time>2012-05-03T19:32:33Z</time>
      </trkpt>
      <trkpt lat="55.7130122" lon="13.293888">
        <ele>61.181</ele>
        <time>2012-05-03T19:32:37Z</time>
      </trkpt>
      <trkpt lat="55.7129903" lon="13.2936016">
        <ele>61.6617</ele>
        <time>2012-05-03T19:32:43Z</time>
      </trkpt>
      <trkpt lat="55.7129726" lon="13.2933278">
        <ele>61.181</ele>
        <time>2012-05-03T19:32:49Z</time>
      </trkpt>
      <trkpt lat="55.7129698" lon="13.2931415">
        <ele>60.7003</ele>
        <time>2012-05-03T19:32:53Z</time>
      </trkpt>
      <trkpt lat="55.7129617" lon="13.2928808">
        <ele>59.7391</ele>
        <time>2012-05-03T19:32:59Z</time>
      </trkpt>
      <trkpt lat="55.7129518" lon="13.2927051">
        <ele>58.7777</ele>
        <time>2012-05-03T19:33:03Z</time>
      </trkpt>
      <trkpt lat="55.712933" lon="13.2925158">
        <ele>58.2971</ele>
        <time>2012-05-03T19:33:07Z</time>
      </trkpt>
      <trkpt lat="55.7129177" lon="13.2921863">
        <ele>58.7777</ele>
        <time>2012-05-03T19:33:14Z</time>
      </trkpt>
      <trkpt lat="55.7128974" lon="13.2919469">
        <ele>60.2197</ele>
        <time>2012-05-03T19:33:19Z</time>
      </trkpt>
      <trkpt lat="55.7128803" lon="13.2916734">
        <ele>61.6617</ele>
        <time>2012-05-03T19:33:25Z</time>
      </trkpt>
      <trkpt lat="55.7128498" lon="13.2913931">
        <ele>62.6229</ele>
        <time>2012-05-03T19:33:31Z</time>
      </trkpt>
      <trkpt lat="55.7128225" lon="13.2911404">
        <ele>61.6617</ele>
        <time>2012-05-03T19:33:36Z</time>
      </trkpt>
      <trkpt lat="55.7128061" lon="13.2908654">
        <ele>60.7003</ele>
        <time>2012-05-03T19:33:42Z</time>
      </trkpt>
      <trkpt lat="55.7127945" lon="13.2905829">
        <ele>58.7777</ele>
        <time>2012-05-03T19:33:48Z</time>
      </trkpt>
      <trkpt lat="55.7127834" lon="13.2903173">
        <ele>57.8165</ele>
        <time>2012-05-03T19:33:54Z</time>
      </trkpt>
      <trkpt lat="55.7127575" lon="13.2900008">
        <ele>57.8165</ele>
        <time>2012-05-03T19:34:01Z</time>
      </trkpt>
      <trkpt lat="55.7127424" lon="13.2897721">
        <ele>58.2971</ele>
        <time>2012-05-03T19:34:06Z</time>
      </trkpt>
      <trkpt lat="55.7127254" lon="13.2894543">
        <ele>57.8165</ele>
        <time>2012-05-03T19:34:13Z</time>
      </trkpt>
      <trkpt lat="55.7127102" lon="13.2892287">
        <ele>58.2971</ele>
        <time>2012-05-03T19:34:18Z</time>
      </trkpt>
      <trkpt lat="55.7126886" lon="13.2889531">
        <ele>59.2584</ele>
        <time>2012-05-03T19:34:24Z</time>
      </trkpt>
      <trkpt lat="55.7126877" lon="13.2888684">
        <ele>59.7391</ele>
        <time>2012-05-03T19:34:26Z</time>
      </trkpt>
      <trkpt lat="55.7126695" lon="13.2885903">
        <ele>60.7003</ele>
        <time>2012-05-03T19:34:32Z</time>
      </trkpt>
      <trkpt lat="55.7126575" lon="13.2884954">
        <ele>60.7003</ele>
        <time>2012-05-03T19:34:34Z</time>
      </trkpt>
      <trkpt lat="55.7126334" lon="13.2881811">
        <ele>60.7003</ele>
        <time>2012-05-03T19:34:41Z</time>
      </trkpt>
      <trkpt lat="55.7126198" lon="13.2880033">
        <ele>60.2197</ele>
        <time>2012-05-03T19:34:45Z</time>
      </trkpt>
      <trkpt lat="55.7126061" lon="13.2877733">
        <ele>60.7003</ele>
        <time>2012-05-03T19:34:50Z</time>
      </trkpt>
      <trkpt lat="55.7125878" lon="13.2874946">
        <ele>60.2197</ele>
        <time>2012-05-03T19:34:56Z</time>
      </trkpt>
      <trkpt lat="55.7125684" lon="13.2872149">
        <ele>59.7391</ele>
        <time>2012-05-03T19:35:02Z</time>
      </trkpt>
      <trkpt lat="55.7125431" lon="13.28693">
        <ele>59.2584</ele>
        <time>2012-05-03T19:35:08Z</time>
      </trkpt>
      <trkpt lat="55.7125322" lon="13.2867045">
        <ele>59.2584</ele>
        <time>2012-05-03T19:35:13Z</time>
      </trkpt>
      <trkpt lat="55.7125167" lon="13.2864857">
        <ele>58.7777</ele>
        <time>2012-05-03T19:35:18Z</time>
      </trkpt>
      <trkpt lat="55.7124932" lon="13.2862188">
        <ele>58.7777</ele>
        <time>2012-05-03T19:35:24Z</time>
      </trkpt>
      <trkpt lat="55.7124768" lon="13.2859572">
        <ele>58.7777</ele>
        <time>2012-05-03T19:35:30Z</time>
      </trkpt>
      <trkpt lat="55.7124481" lon="13.2856574">
        <ele>58.2971</ele>
        <time>2012-05-03T19:35:37Z</time>
      </trkpt>
      <trkpt lat="55.7124251" lon="13.2853961">
        <ele>58.7777</ele>
        <time>2012-05-03T19:35:43Z</time>
      </trkpt>
      <trkpt lat="55.7123994" lon="13.2850823">
        <ele>58.7777</ele>
        <time>2012-05-03T19:35:50Z</time>
      </trkpt>
      <trkpt lat="55.7123813" lon="13.284813">
        <ele>58.7777</ele>
        <time>2012-05-03T19:35:56Z</time>
      </trkpt>
      <trkpt lat="55.7123763" lon="13.2845927">
        <ele>58.7777</ele>
        <time>2012-05-03T19:36:01Z</time>
      </trkpt>
      <trkpt lat="55.712364" lon="13.284412">
        <ele>58.7777</ele>
        <time>2012-05-03T19:36:05Z</time>
      </trkpt>
      <trkpt lat="55.7123518" lon="13.2842302">
        <ele>59.7391</ele>
        <time>2012-05-03T19:36:09Z</time>
      </trkpt>
      <trkpt lat="55.7123326" lon="13.2840404">
        <ele>59.2584</ele>
        <time>2012-05-03T19:36:13Z</time>
      </trkpt>
      <trkpt lat="55.7123054" lon="13.2838081">
        <ele>59.7391</ele>
        <time>2012-05-03T19:36:18Z</time>
      </trkpt>
      <trkpt lat="55.7122815" lon="13.2835327">
        <ele>60.7003</ele>
        <time>2012-05-03T19:36:24Z</time>
      </trkpt>
      <trkpt lat="55.7122432" lon="13.2832621">
        <ele>61.6617</ele>
        <time>2012-05-03T19:36:30Z</time>
      </trkpt>
      <trkpt lat="55.7122321" lon="13.2830803">
        <ele>62.1423</ele>
        <time>2012-05-03T19:36:34Z</time>
      </trkpt>
      <trkpt lat="55.7122161" lon="13.2828927">
        <ele>62.1423</ele>
        <time>2012-05-03T19:36:38Z</time>
      </trkpt>
      <trkpt lat="55.7122137" lon="13.282846">
        <ele>62.1423</ele>
        <time>2012-05-03T19:36:39Z</time>
      </trkpt>
      <trkpt lat="55.7121993" lon="13.2826172">
        <ele>61.6617</ele>
        <time>2012-05-03T19:36:44Z</time>
      </trkpt>
      <trkpt lat="55.7121902" lon="13.2824008">
        <ele>61.6617</ele>
        <time>2012-05-03T19:36:49Z</time>
      </trkpt>
      <trkpt lat="55.712171" lon="13.2821672">
        <ele>62.6229</ele>
        <time>2012-05-03T19:36:54Z</time>
      </trkpt>
      <trkpt lat="55.7121597" lon="13.2819404">
        <ele>62.1423</ele>
        <time>2012-05-03T19:36:59Z</time>
      </trkpt>
      <trkpt lat="55.7121384" lon="13.2817081">
        <ele>62.1423</ele>
        <time>2012-05-03T19:37:04Z</time>
      </trkpt>
      <trkpt lat="55.7121177" lon="13.2815259">
        <ele>62.6229</ele>
        <time>2012-05-03T19:37:08Z</time>
      </trkpt>
      <trkpt lat="55.712093" lon="13.2813022">
        <ele>63.1036</ele>
        <time>2012-05-03T19:37:13Z</time>
      </trkpt>
      <trkpt lat="55.7120858" lon="13.2810367">
        <ele>62.6229</ele>
        <time>2012-05-03T19:37:19Z</time>
      </trkpt>
      <trkpt lat="55.7120748" lon="13.2807724">
        <ele>62.6229</ele>
        <time>2012-05-03T19:37:25Z</time>
      </trkpt>
      <trkpt lat="55.7120687" lon="13.2805187">
        <ele>61.6617</ele>
        <time>2012-05-03T19:37:31Z</time>
      </trkpt>
      <trkpt lat="55.7120441" lon="13.2802859">
        <ele>61.6617</ele>
        <time>2012-05-03T19:37:36Z</time>
      </trkpt>
      <trkpt lat="55.7120257" lon="13.2801001">
        <ele>61.181</ele>
        <time>2012-05-03T19:37:40Z</time>
      </trkpt>
      <trkpt lat="55.7120163" lon="13.2798688">
        <ele>60.7003</ele>
        <time>2012-05-03T19:37:45Z</time>
      </trkpt>
      <trkpt lat="55.7120485" lon="13.2796819">
        <ele>60.2197</ele>
        <time>2012-05-03T19:37:49Z</time>
      </trkpt>
      <trkpt lat="55.7121785" lon="13.2795328">
        <ele>59.2584</ele>
        <time>2012-05-03T19:37:54Z</time>
      </trkpt>
      <trkpt lat="55.7122846" lon="13.2794437">
        <ele>62.1423</ele>
        <time>2012-05-03T19:37:57Z</time>
      </trkpt>
      <trkpt lat="55.71231" lon="13.279236">
        <ele>60.7003</ele>
        <time>2012-05-03T19:38:03Z</time>
      </trkpt>
      <trkpt lat="55.7122839" lon="13.2790327">
        <ele>59.7391</ele>
        <time>2012-05-03T19:38:08Z</time>
      </trkpt>
      <trkpt lat="55.7122426" lon="13.2788313">
        <ele>59.7391</ele>
        <time>2012-05-03T19:38:13Z</time>
      </trkpt>
      <trkpt lat="55.7121734" lon="13.2785969">
        <ele>59.7391</ele>
        <time>2012-05-03T19:38:19Z</time>
      </trkpt>
      <trkpt lat="55.7121096" lon="13.2784186">
        <ele>60.2197</ele>
        <time>2012-05-03T19:38:24Z</time>
      </trkpt>
      <trkpt lat="55.7120504" lon="13.2782605">
        <ele>60.7003</ele>
        <time>2012-05-03T19:38:28Z</time>
      </trkpt>
      <trkpt lat="55.7119871" lon="13.2780849">
        <ele>61.6617</ele>
        <time>2012-05-03T19:38:33Z</time>
      </trkpt>
      <trkpt lat="55.7119101" lon="13.277859">
        <ele>62.6229</ele>
        <time>2012-05-03T19:38:39Z</time>
      </trkpt>
      <trkpt lat="55.7118491" lon="13.2776436">
        <ele>63.5844</ele>
        <time>2012-05-03T19:38:44Z</time>
      </trkpt>
      <trkpt lat="55.7118139" lon="13.277397">
        <ele>64.0651</ele>
        <time>2012-05-03T19:38:49Z</time>
      </trkpt>
      <trkpt lat="55.7117937" lon="13.2771727">
        <ele>63.5844</ele>
        <time>2012-05-03T19:38:54Z</time>
      </trkpt>
      <trkpt lat="55.7117787" lon="13.2769478">
        <ele>63.5844</ele>
        <time>2012-05-03T19:38:59Z</time>
      </trkpt>
      <trkpt lat="55.7117685" lon="13.2767257">
        <ele>63.1036</ele>
        <time>2012-05-03T19:39:04Z</time>
      </trkpt>
      <trkpt lat="55.7117519" lon="13.2764585">
        <ele>62.1423</ele>
        <time>2012-05-03T19:39:10Z</time>
      </trkpt>
      <trkpt lat="55.7117382" lon="13.2762">
        <ele>61.181</ele>
        <time>2012-05-03T19:39:16Z</time>
      </trkpt>
      <trkpt lat="55.7117273" lon="13.2760247">
        <ele>60.7003</ele>
        <time>2012-05-03T19:39:20Z</time>
      </trkpt>
      <trkpt lat="55.7116988" lon="13.2757338">
        <ele>61.6617</ele>
        <time>2012-05-03T19:39:26Z</time>
      </trkpt>
      <trkpt lat="55.7116847" lon="13.2755533">
        <ele>61.181</ele>
        <time>2012-05-03T19:39:30Z</time>
      </trkpt>
      <trkpt lat="55.711659" lon="13.2752836">
        <ele>61.181</ele>
        <time>2012-05-03T19:39:36Z</time>
      </trkpt>
      <trkpt lat="55.7116491" lon="13.2750278">
        <ele>60.7003</ele>
        <time>2012-05-03T19:39:42Z</time>
      </trkpt>
      <trkpt lat="55.7116395" lon="13.2748434">
        <ele>60.7003</ele>
        <time>2012-05-03T19:39:46Z</time>
      </trkpt>
      <trkpt lat="55.7116178" lon="13.2746128">
        <ele>61.6617</ele>
        <time>2012-05-03T19:39:51Z</time>
      </trkpt>
      <trkpt lat="55.7115802" lon="13.2743299">
        <ele>62.6229</ele>
        <time>2012-05-03T19:39:57Z</time>
      </trkpt>
      <trkpt lat="55.7115421" lon="13.2739984">
        <ele>64.5457</ele>
        <time>2012-05-03T19:40:04Z</time>
      </trkpt>
      <trkpt lat="55.7115482" lon="13.2737832">
        <ele>63.5844</ele>
        <time>2012-05-03T19:40:09Z</time>
      </trkpt>
      <trkpt lat="55.7115364" lon="13.2734981">
        <ele>63.1036</ele>
        <time>2012-05-03T19:40:15Z</time>
      </trkpt>
      <trkpt lat="55.7115263" lon="13.273278">
        <ele>62.1423</ele>
        <time>2012-05-03T19:40:20Z</time>
      </trkpt>
      <trkpt lat="55.7115136" lon="13.2730199">
        <ele>63.1036</ele>
        <time>2012-05-03T19:40:26Z</time>
      </trkpt>
      <trkpt lat="55.7114836" lon="13.2727011">
        <ele>64.5457</ele>
        <time>2012-05-03T19:40:33Z</time>
      </trkpt>
      <trkpt lat="55.7114556" lon="13.2724895">
        <ele>65.9877</ele>
        <time>2012-05-03T19:40:38Z</time>
      </trkpt>
      <trkpt lat="55.7114499" lon="13.272266">
        <ele>66.4683</ele>
        <time>2012-05-03T19:40:43Z</time>
      </trkpt>
      <trkpt lat="55.7114396" lon="13.2719683">
        <ele>65.9877</ele>
        <time>2012-05-03T19:40:50Z</time>
      </trkpt>
      <trkpt lat="55.7114142" lon="13.2717424">
        <ele>65.0264</ele>
        <time>2012-05-03T19:40:55Z</time>
      </trkpt>
      <trkpt lat="55.7114088" lon="13.2715322">
        <ele>64.5457</ele>
        <time>2012-05-03T19:41:00Z</time>
      </trkpt>
      <trkpt lat="55.7113967" lon="13.2712759">
        <ele>64.5457</ele>
        <time>2012-05-03T19:41:06Z</time>
      </trkpt>
      <trkpt lat="55.7113759" lon="13.2710702">
        <ele>65.5071</ele>
        <time>2012-05-03T19:41:11Z</time>
      </trkpt>
      <trkpt lat="55.7113552" lon="13.2708106">
        <ele>65.9877</ele>
        <time>2012-05-03T19:41:17Z</time>
      </trkpt>
      <trkpt lat="55.7113301" lon="13.2705624">
        <ele>66.949</ele>
        <time>2012-05-03T19:41:23Z</time>
      </trkpt>
      <trkpt lat="55.7113222" lon="13.2703126">
        <ele>67.9103</ele>
        <time>2012-05-03T19:41:29Z</time>
      </trkpt>
      <trkpt lat="55.7113102" lon="13.2700629">
        <ele>67.4297</ele>
        <time>2012-05-03T19:41:35Z</time>
      </trkpt>
      <trkpt lat="55.7112953" lon="13.2698678">
        <ele>67.9103</ele>
        <time>2012-05-03T19:41:40Z</time>
      </trkpt>
      <trkpt lat="55.7112625" lon="13.2696321">
        <ele>69.8329</ele>
        <time>2012-05-03T19:41:45Z</time>
      </trkpt>
      <trkpt lat="55.7112467" lon="13.2694171">
        <ele>69.3523</ele>
        <time>2012-05-03T19:41:50Z</time>
      </trkpt>
      <trkpt lat="55.711222" lon="13.2691985">
        <ele>67.9103</ele>
        <time>2012-05-03T19:41:55Z</time>
      </trkpt>
      <trkpt lat="55.7112091" lon="13.2690528">
        <ele>66.4683</ele>
        <time>2012-05-03T19:41:58Z</time>
      </trkpt>
      <trkpt lat="55.711206" lon="13.268824">
        <ele>65.5071</ele>
        <time>2012-05-03T19:42:03Z</time>
      </trkpt>
      <trkpt lat="55.7112098" lon="13.268781">
        <ele>65.5071</ele>
        <time>2012-05-03T19:42:04Z</time>
      </trkpt>
      <trkpt lat="55.7111859" lon="13.2685069">
        <ele>66.4683</ele>
        <time>2012-05-03T19:42:10Z</time>
      </trkpt>
      <trkpt lat="55.7111642" lon="13.2682759">
        <ele>67.9103</ele>
        <time>2012-05-03T19:42:15Z</time>
      </trkpt>
      <trkpt lat="55.7111362" lon="13.2680496">
        <ele>68.8716</ele>
        <time>2012-05-03T19:42:20Z</time>
      </trkpt>
      <trkpt lat="55.7111176" lon="13.2678256">
        <ele>69.3523</ele>
        <time>2012-05-03T19:42:25Z</time>
      </trkpt>
      <trkpt lat="55.7111055" lon="13.2676081">
        <ele>68.8716</ele>
        <time>2012-05-03T19:42:30Z</time>
      </trkpt>
      <trkpt lat="55.7111032" lon="13.2675689">
        <ele>69.3523</ele>
        <time>2012-05-03T19:42:31Z</time>
      </trkpt>
      <trkpt lat="55.7111039" lon="13.2673166">
        <ele>68.3909</ele>
        <time>2012-05-03T19:42:37Z</time>
      </trkpt>
      <trkpt lat="55.711087" lon="13.2670918">
        <ele>67.9103</ele>
        <time>2012-05-03T19:42:42Z</time>
      </trkpt>
      <trkpt lat="55.7110693" lon="13.2668248">
        <ele>67.4297</ele>
        <time>2012-05-03T19:42:48Z</time>
      </trkpt>
      <trkpt lat="55.7110471" lon="13.2665955">
        <ele>66.4683</ele>
        <time>2012-05-03T19:42:53Z</time>
      </trkpt>
      <trkpt lat="55.711026" lon="13.2663733">
        <ele>64.5457</ele>
        <time>2012-05-03T19:42:58Z</time>
      </trkpt>
      <trkpt lat="55.711012" lon="13.2660754">
        <ele>63.5844</ele>
        <time>2012-05-03T19:43:05Z</time>
      </trkpt>
      <trkpt lat="55.7110051" lon="13.2658663">
        <ele>64.0651</ele>
        <time>2012-05-03T19:43:10Z</time>
      </trkpt>
      <trkpt lat="55.711007" lon="13.2656585">
        <ele>65.0264</ele>
        <time>2012-05-03T19:43:15Z</time>
      </trkpt>
      <trkpt lat="55.7109868" lon="13.2654341">
        <ele>65.9877</ele>
        <time>2012-05-03T19:43:20Z</time>
      </trkpt>
      <trkpt lat="55.7109604" lon="13.2652161">
        <ele>67.4297</ele>
        <time>2012-05-03T19:43:25Z</time>
      </trkpt>
      <trkpt lat="55.7109312" lon="13.2649809">
        <ele>67.9103</ele>
        <time>2012-05-03T19:43:30Z</time>
      </trkpt>
      <trkpt lat="55.7109181" lon="13.2647196">
        <ele>68.3909</ele>
        <time>2012-05-03T19:43:36Z</time>
      </trkpt>
      <trkpt lat="55.7108757" lon="13.2644924">
        <ele>68.8716</ele>
        <time>2012-05-03T19:43:41Z</time>
      </trkpt>
      <trkpt lat="55.7108436" lon="13.2642619">
        <ele>68.3909</ele>
        <time>2012-05-03T19:43:46Z</time>
      </trkpt>
      <trkpt lat="55.7108321" lon="13.2640477">
        <ele>68.3909</ele>
        <time>2012-05-03T19:43:51Z</time>
      </trkpt>
      <trkpt lat="55.7108171" lon="13.2638242">
        <ele>68.8716</ele>
        <time>2012-05-03T19:43:56Z</time>
      </trkpt>
      <trkpt lat="55.7108031" lon="13.2635656">
        <ele>68.3909</ele>
        <time>2012-05-03T19:44:02Z</time>
      </trkpt>
      <trkpt lat="55.7107903" lon="13.2633435">
        <ele>68.8716</ele>
        <time>2012-05-03T19:44:07Z</time>
      </trkpt>
      <trkpt lat="55.7107638" lon="13.2630667">
        <ele>68.8716</ele>
        <time>2012-05-03T19:44:13Z</time>
      </trkpt>
      <trkpt lat="55.7107507" lon="13.262844">
        <ele>67.9103</ele>
        <time>2012-05-03T19:44:18Z</time>
      </trkpt>
      <trkpt lat="55.7107374" lon="13.2626157">
        <ele>66.949</ele>
        <time>2012-05-03T19:44:23Z</time>
      </trkpt>
      <trkpt lat="55.7107321" lon="13.2624048">
        <ele>66.4683</ele>
        <time>2012-05-03T19:44:28Z</time>
      </trkpt>
      <trkpt lat="55.7107295" lon="13.2622069">
        <ele>65.0264</ele>
        <time>2012-05-03T19:44:33Z</time>
      </trkpt>
      <trkpt lat="55.7107258" lon="13.2619619">
        <ele>63.5844</ele>
        <time>2012-05-03T19:44:39Z</time>
      </trkpt>
      <trkpt lat="55.7107154" lon="13.2617545">
        <ele>62.6229</ele>
        <time>2012-05-03T19:44:44Z</time>
      </trkpt>
      <trkpt lat="55.7106857" lon="13.261474">
        <ele>62.6229</ele>
        <time>2012-05-03T19:44:50Z</time>
      </trkpt>
      <trkpt lat="55.7106686" lon="13.2611971">
        <ele>62.6229</ele>
        <time>2012-05-03T19:44:56Z</time>
      </trkpt>
      <trkpt lat="55.7106548" lon="13.2609756">
        <ele>62.6229</ele>
        <time>2012-05-03T19:45:01Z</time>
      </trkpt>
      <trkpt lat="55.7106229" lon="13.2606991">
        <ele>63.5844</ele>
        <time>2012-05-03T19:45:07Z</time>
      </trkpt>
      <trkpt lat="55.7105914" lon="13.2604327">
        <ele>64.5457</ele>
        <time>2012-05-03T19:45:13Z</time>
      </trkpt>
      <trkpt lat="55.7105581" lon="13.2602012">
        <ele>66.4683</ele>
        <time>2012-05-03T19:45:18Z</time>
      </trkpt>
      <trkpt lat="55.7105362" lon="13.2599521">
        <ele>66.949</ele>
        <time>2012-05-03T19:45:24Z</time>
      </trkpt>
      <trkpt lat="55.7105198" lon="13.2597022">
        <ele>67.4297</ele>
        <time>2012-05-03T19:45:30Z</time>
      </trkpt>
      <trkpt lat="55.7105063" lon="13.2594875">
        <ele>67.4297</ele>
        <time>2012-05-03T19:45:35Z</time>
      </trkpt>
      <trkpt lat="55.7105006" lon="13.2592605">
        <ele>67.4297</ele>
        <time>2012-05-03T19:45:40Z</time>
      </trkpt>
      <trkpt lat="55.7104918" lon="13.259045">
        <ele>67.4297</ele>
        <time>2012-05-03T19:45:45Z</time>
      </trkpt>
      <trkpt lat="55.7104746" lon="13.2588062">
        <ele>67.4297</ele>
        <time>2012-05-03T19:45:50Z</time>
      </trkpt>
      <trkpt lat="55.7104488" lon="13.2585245">
        <ele>67.9103</ele>
        <time>2012-05-03T19:45:56Z</time>
      </trkpt>
      <trkpt lat="55.710426" lon="13.2582955">
        <ele>68.3909</ele>
        <time>2012-05-03T19:46:01Z</time>
      </trkpt>
      <trkpt lat="55.7104094" lon="13.2580226">
        <ele>68.3909</ele>
        <time>2012-05-03T19:46:07Z</time>
      </trkpt>
      <trkpt lat="55.7103859" lon="13.2577945">
        <ele>68.8716</ele>
        <time>2012-05-03T19:46:12Z</time>
      </trkpt>
      <trkpt lat="55.7103727" lon="13.2575283">
        <ele>67.9103</ele>
        <time>2012-05-03T19:46:18Z</time>
      </trkpt>
      <trkpt lat="55.7103628" lon="13.2572986">
        <ele>67.4297</ele>
        <time>2012-05-03T19:46:23Z</time>
      </trkpt>
      <trkpt lat="55.7103478" lon="13.2570261">
        <ele>67.9103</ele>
        <time>2012-05-03T19:46:29Z</time>
      </trkpt>
      <trkpt lat="55.7103302" lon="13.2567849">
        <ele>66.949</ele>
        <time>2012-05-03T19:46:34Z</time>
      </trkpt>
      <trkpt lat="55.7103168" lon="13.2565447">
        <ele>66.4683</ele>
        <time>2012-05-03T19:46:39Z</time>
      </trkpt>
      <trkpt lat="55.710307" lon="13.256284">
        <ele>67.4297</ele>
        <time>2012-05-03T19:46:45Z</time>
      </trkpt>
      <trkpt lat="55.7102854" lon="13.2560526">
        <ele>68.3909</ele>
        <time>2012-05-03T19:46:50Z</time>
      </trkpt>
      <trkpt lat="55.7102616" lon="13.2557691">
        <ele>69.3523</ele>
        <time>2012-05-03T19:46:56Z</time>
      </trkpt>
      <trkpt lat="55.7102448" lon="13.2554889">
        <ele>68.3909</ele>
        <time>2012-05-03T19:47:02Z</time>
      </trkpt>
      <trkpt lat="55.7102204" lon="13.2552374">
        <ele>67.9103</ele>
        <time>2012-05-03T19:47:07Z</time>
      </trkpt>
      <trkpt lat="55.7102026" lon="13.2550052">
        <ele>67.9103</ele>
        <time>2012-05-03T19:47:12Z</time>
      </trkpt>
      <trkpt lat="55.7101893" lon="13.2548116">
        <ele>67.4297</ele>
        <time>2012-05-03T19:47:16Z</time>
      </trkpt>
      <trkpt lat="55.7101608" lon="13.2544833">
        <ele>67.9103</ele>
        <time>2012-05-03T19:47:23Z</time>
      </trkpt>
      <trkpt lat="55.7101308" lon="13.2541021">
        <ele>67.9103</ele>
        <time>2012-05-03T19:47:31Z</time>
      </trkpt>
      <trkpt lat="55.7101031" lon="13.2537396">
        <ele>68.3909</ele>
        <time>2012-05-03T19:47:39Z</time>
      </trkpt>
      <trkpt lat="55.7100865" lon="13.2534992">
        <ele>67.9103</ele>
        <time>2012-05-03T19:47:44Z</time>
      </trkpt>
      <trkpt lat="55.7100676" lon="13.2532648">
        <ele>67.4297</ele>
        <time>2012-05-03T19:47:49Z</time>
      </trkpt>
      <trkpt lat="55.710037" lon="13.2529874">
        <ele>69.3523</ele>
        <time>2012-05-03T19:47:55Z</time>
      </trkpt>
      <trkpt lat="55.7100159" lon="13.2527643">
        <ele>70.3135</ele>
        <time>2012-05-03T19:48:00Z</time>
      </trkpt>
      <trkpt lat="55.7100017" lon="13.2525476">
        <ele>70.7942</ele>
        <time>2012-05-03T19:48:05Z</time>
      </trkpt>
      <trkpt lat="55.7099793" lon="13.2522788">
        <ele>70.3135</ele>
        <time>2012-05-03T19:48:11Z</time>
      </trkpt>
      <trkpt lat="55.7099558" lon="13.2520477">
        <ele>70.3135</ele>
        <time>2012-05-03T19:48:16Z</time>
      </trkpt>
      <trkpt lat="55.7099396" lon="13.2518234">
        <ele>69.3523</ele>
        <time>2012-05-03T19:48:21Z</time>
      </trkpt>
      <trkpt lat="55.7099365" lon="13.2517793">
        <ele>69.3523</ele>
        <time>2012-05-03T19:48:22Z</time>
      </trkpt>
      <trkpt lat="55.7099205" lon="13.251464">
        <ele>68.3909</ele>
        <time>2012-05-03T19:48:29Z</time>
      </trkpt>
      <trkpt lat="55.7098975" lon="13.2512272">
        <ele>67.9103</ele>
        <time>2012-05-03T19:48:34Z</time>
      </trkpt>
      <trkpt lat="55.7098728" lon="13.2509453">
        <ele>67.9103</ele>
        <time>2012-05-03T19:48:40Z</time>
      </trkpt>
      <trkpt lat="55.7098568" lon="13.2506621">
        <ele>66.949</ele>
        <time>2012-05-03T19:48:46Z</time>
      </trkpt>
      <trkpt lat="55.7098422" lon="13.2504289">
        <ele>66.4683</ele>
        <time>2012-05-03T19:48:51Z</time>
      </trkpt>
      <trkpt lat="55.7098244" lon="13.2501511">
        <ele>66.4683</ele>
        <time>2012-05-03T19:48:57Z</time>
      </trkpt>
      <trkpt lat="55.7098086" lon="13.2498674">
        <ele>65.9877</ele>
        <time>2012-05-03T19:49:03Z</time>
      </trkpt>
      <trkpt lat="55.7098132" lon="13.2496393">
        <ele>65.5071</ele>
        <time>2012-05-03T19:49:08Z</time>
      </trkpt>
      <trkpt lat="55.7098079" lon="13.2494041">
        <ele>64.0651</ele>
        <time>2012-05-03T19:49:13Z</time>
      </trkpt>
      <trkpt lat="55.7097837" lon="13.2491014">
        <ele>64.5457</ele>
        <time>2012-05-03T19:49:19Z</time>
      </trkpt>
      <trkpt lat="55.7097677" lon="13.2489025">
        <ele>65.0264</ele>
        <time>2012-05-03T19:49:23Z</time>
      </trkpt>
      <trkpt lat="55.7097474" lon="13.2485732">
        <ele>65.0264</ele>
        <time>2012-05-03T19:49:30Z</time>
      </trkpt>
      <trkpt lat="55.7097252" lon="13.2481894">
        <ele>64.5457</ele>
        <time>2012-05-03T19:49:38Z</time>
      </trkpt>
      <trkpt lat="55.7097133" lon="13.2479579">
        <ele>64.5457</ele>
        <time>2012-05-03T19:49:43Z</time>
      </trkpt>
      <trkpt lat="55.7097019" lon="13.2476849">
        <ele>64.5457</ele>
        <time>2012-05-03T19:49:49Z</time>
      </trkpt>
      <trkpt lat="55.7096952" lon="13.2474809">
        <ele>64.0651</ele>
        <time>2012-05-03T19:49:54Z</time>
      </trkpt>
      <trkpt lat="55.709666" lon="13.2472665">
        <ele>64.5457</ele>
        <time>2012-05-03T19:49:59Z</time>
      </trkpt>
      <trkpt lat="55.7096496" lon="13.2470505">
        <ele>64.0651</ele>
        <time>2012-05-03T19:50:04Z</time>
      </trkpt>
      <trkpt lat="55.7096449" lon="13.2468396">
        <ele>63.5844</ele>
        <time>2012-05-03T19:50:09Z</time>
      </trkpt>
      <trkpt lat="55.7096179" lon="13.2465005">
        <ele>63.1036</ele>
        <time>2012-05-03T19:50:16Z</time>
      </trkpt>
      <trkpt lat="55.7096044" lon="13.2462741">
        <ele>62.6229</ele>
        <time>2012-05-03T19:50:21Z</time>
      </trkpt>
      <trkpt lat="55.7095792" lon="13.2459487">
        <ele>63.1036</ele>
        <time>2012-05-03T19:50:28Z</time>
      </trkpt>
      <trkpt lat="55.7095691" lon="13.2457455">
        <ele>62.6229</ele>
        <time>2012-05-03T19:50:32Z</time>
      </trkpt>
      <trkpt lat="55.7095568" lon="13.2454994">
        <ele>63.1036</ele>
        <time>2012-05-03T19:50:37Z</time>
      </trkpt>
      <trkpt lat="55.7095378" lon="13.2452497">
        <ele>63.5844</ele>
        <time>2012-05-03T19:50:42Z</time>
      </trkpt>
      <trkpt lat="55.7095133" lon="13.2450493">
        <ele>64.5457</ele>
        <time>2012-05-03T19:50:46Z</time>
      </trkpt>
      <trkpt lat="55.7094605" lon="13.2447858">
        <ele>65.9877</ele>
        <time>2012-05-03T19:50:51Z</time>
      </trkpt>
      <trkpt lat="55.7094271" lon="13.2445755">
        <ele>67.9103</ele>
        <time>2012-05-03T19:50:55Z</time>
      </trkpt>
      <trkpt lat="55.7094107" lon="13.2442714">
        <ele>68.3909</ele>
        <time>2012-05-03T19:51:01Z</time>
      </trkpt>
      <trkpt lat="55.709381" lon="13.2440122">
        <ele>68.8716</ele>
        <time>2012-05-03T19:51:06Z</time>
      </trkpt>
      <trkpt lat="55.709362" lon="13.2437367">
        <ele>69.3523</ele>
        <time>2012-05-03T19:51:11Z</time>
      </trkpt>
      <trkpt lat="55.7093409" lon="13.2434145">
        <ele>69.8329</ele>
        <time>2012-05-03T19:51:17Z</time>
      </trkpt>
      <trkpt lat="55.7093201" lon="13.2430929">
        <ele>69.3523</ele>
        <time>2012-05-03T19:51:23Z</time>
      </trkpt>
      <trkpt lat="55.7093098" lon="13.2428235">
        <ele>69.8329</ele>
        <time>2012-05-03T19:51:28Z</time>
      </trkpt>
      <trkpt lat="55.7093035" lon="13.2425288">
        <ele>68.8716</ele>
        <time>2012-05-03T19:51:34Z</time>
      </trkpt>
      <trkpt lat="55.7092922" lon="13.2423181">
        <ele>67.4297</ele>
        <time>2012-05-03T19:51:38Z</time>
      </trkpt>
      <trkpt lat="55.7092751" lon="13.2420777">
        <ele>67.9103</ele>
        <time>2012-05-03T19:51:43Z</time>
      </trkpt>
      <trkpt lat="55.7092491" lon="13.2418569">
        <ele>68.3909</ele>
        <time>2012-05-03T19:51:47Z</time>
      </trkpt>
      <trkpt lat="55.7092081" lon="13.2415985">
        <ele>68.8716</ele>
        <time>2012-05-03T19:51:52Z</time>
      </trkpt>
      <trkpt lat="55.7091748" lon="13.2412887">
        <ele>68.8716</ele>
        <time>2012-05-03T19:51:58Z</time>
      </trkpt>
      <trkpt lat="55.7091387" lon="13.2410056">
        <ele>68.8716</ele>
        <time>2012-05-03T19:52:04Z</time>
      </trkpt>
      <trkpt lat="55.7090984" lon="13.2407204">
        <ele>69.3523</ele>
        <time>2012-05-03T19:52:10Z</time>
      </trkpt>
      <trkpt lat="55.7090617" lon="13.2404749">
        <ele>69.3523</ele>
        <time>2012-05-03T19:52:15Z</time>
      </trkpt>
      <trkpt lat="55.709029" lon="13.2402422">
        <ele>69.8329</ele>
        <time>2012-05-03T19:52:20Z</time>
      </trkpt>
      <trkpt lat="55.708984" lon="13.2399565">
        <ele>69.8329</ele>
        <time>2012-05-03T19:52:26Z</time>
      </trkpt>
      <trkpt lat="55.7089488" lon="13.2397687">
        <ele>69.8329</ele>
        <time>2012-05-03T19:52:30Z</time>
      </trkpt>
      <trkpt lat="55.708914" lon="13.2395452">
        <ele>69.8329</ele>
        <time>2012-05-03T19:52:35Z</time>
      </trkpt>
      <trkpt lat="55.7088643" lon="13.239316">
        <ele>69.8329</ele>
        <time>2012-05-03T19:52:40Z</time>
      </trkpt>
      <trkpt lat="55.7087943" lon="13.2390327">
        <ele>70.7942</ele>
        <time>2012-05-03T19:52:46Z</time>
      </trkpt>
      <trkpt lat="55.7087482" lon="13.2388022">
        <ele>72.2362</ele>
        <time>2012-05-03T19:52:51Z</time>
      </trkpt>
      <trkpt lat="55.70869" lon="13.2385635">
        <ele>73.6782</ele>
        <time>2012-05-03T19:52:56Z</time>
      </trkpt>
      <trkpt lat="55.7086399" lon="13.2383185">
        <ele>73.6782</ele>
        <time>2012-05-03T19:53:01Z</time>
      </trkpt>
      <trkpt lat="55.7085906" lon="13.2380879">
        <ele>73.1976</ele>
        <time>2012-05-03T19:53:06Z</time>
      </trkpt>
      <trkpt lat="55.7085261" lon="13.2378417">
        <ele>74.1588</ele>
        <time>2012-05-03T19:53:11Z</time>
      </trkpt>
      <trkpt lat="55.7084457" lon="13.2375578">
        <ele>74.1588</ele>
        <time>2012-05-03T19:53:17Z</time>
      </trkpt>
      <trkpt lat="55.7083814" lon="13.2373237">
        <ele>72.2362</ele>
        <time>2012-05-03T19:53:22Z</time>
      </trkpt>
      <trkpt lat="55.7083227" lon="13.2370986">
        <ele>70.7942</ele>
        <time>2012-05-03T19:53:27Z</time>
      </trkpt>
      <trkpt lat="55.7082544" lon="13.2368422">
        <ele>69.3523</ele>
        <time>2012-05-03T19:53:33Z</time>
      </trkpt>
      <trkpt lat="55.7082042" lon="13.2366751">
        <ele>68.8716</ele>
        <time>2012-05-03T19:53:37Z</time>
      </trkpt>
      <trkpt lat="55.708142" lon="13.2364026">
        <ele>68.8716</ele>
        <time>2012-05-03T19:53:43Z</time>
      </trkpt>
      <trkpt lat="55.7081297" lon="13.2363503">
        <ele>69.3523</ele>
        <time>2012-05-03T19:53:44Z</time>
      </trkpt>
      <trkpt lat="55.7080447" lon="13.236055">
        <ele>69.8329</ele>
        <time>2012-05-03T19:53:50Z</time>
      </trkpt>
      <trkpt lat="55.7079956" lon="13.2358452">
        <ele>69.3523</ele>
        <time>2012-05-03T19:53:54Z</time>
      </trkpt>
      <trkpt lat="55.7079272" lon="13.235574">
        <ele>68.8716</ele>
        <time>2012-05-03T19:53:59Z</time>
      </trkpt>
      <trkpt lat="55.7078661" lon="13.2353679">
        <ele>68.8716</ele>
        <time>2012-05-03T19:54:03Z</time>
      </trkpt>
      <trkpt lat="55.707783" lon="13.2350604">
        <ele>69.3523</ele>
        <time>2012-05-03T19:54:09Z</time>
      </trkpt>
      <trkpt lat="55.7077159" lon="13.2348032">
        <ele>69.8329</ele>
        <time>2012-05-03T19:54:14Z</time>
      </trkpt>
      <trkpt lat="55.7076506" lon="13.2345906">
        <ele>70.7942</ele>
        <time>2012-05-03T19:54:18Z</time>
      </trkpt>
      <trkpt lat="55.7075863" lon="13.2343463">
        <ele>71.2749</ele>
        <time>2012-05-03T19:54:23Z</time>
      </trkpt>
      <trkpt lat="55.7075003" lon="13.2340282">
        <ele>71.7555</ele>
        <time>2012-05-03T19:54:29Z</time>
      </trkpt>
      <trkpt lat="55.7074134" lon="13.2337229">
        <ele>71.2749</ele>
        <time>2012-05-03T19:54:35Z</time>
      </trkpt>
      <trkpt lat="55.7073226" lon="13.233416">
        <ele>71.2749</ele>
        <time>2012-05-03T19:54:41Z</time>
      </trkpt>
      <trkpt lat="55.7072409" lon="13.2331172">
        <ele>70.3135</ele>
        <time>2012-05-03T19:54:47Z</time>
      </trkpt>
      <trkpt lat="55.7071626" lon="13.2328167">
        <ele>69.8329</ele>
        <time>2012-05-03T19:54:53Z</time>
      </trkpt>
      <trkpt lat="55.707088" lon="13.2325243">
        <ele>69.8329</ele>
        <time>2012-05-03T19:54:59Z</time>
      </trkpt>
      <trkpt lat="55.7069942" lon="13.2322073">
        <ele>69.8329</ele>
        <time>2012-05-03T19:55:06Z</time>
      </trkpt>
      <trkpt lat="55.7069387" lon="13.2320228">
        <ele>69.8329</ele>
        <time>2012-05-03T19:55:10Z</time>
      </trkpt>
      <trkpt lat="55.7068752" lon="13.2317926">
        <ele>70.3135</ele>
        <time>2012-05-03T19:55:15Z</time>
      </trkpt>
      <trkpt lat="55.7067959" lon="13.2315163">
        <ele>69.3523</ele>
        <time>2012-05-03T19:55:21Z</time>
      </trkpt>
      <trkpt lat="55.7067389" lon="13.2312821">
        <ele>67.4297</ele>
        <time>2012-05-03T19:55:26Z</time>
      </trkpt>
      <trkpt lat="55.7066849" lon="13.2310534">
        <ele>64.5457</ele>
        <time>2012-05-03T19:55:32Z</time>
      </trkpt>
      <trkpt lat="55.7066579" lon="13.2308368">
        <ele>62.1423</ele>
        <time>2012-05-03T19:55:36Z</time>
      </trkpt>
      <trkpt lat="55.7065977" lon="13.2305965">
        <ele>63.1036</ele>
        <time>2012-05-03T19:55:41Z</time>
      </trkpt>
      <trkpt lat="55.7065423" lon="13.2304104">
        <ele>64.0651</ele>
        <time>2012-05-03T19:55:45Z</time>
      </trkpt>
      <trkpt lat="55.7064756" lon="13.2301789">
        <ele>64.0651</ele>
        <time>2012-05-03T19:55:50Z</time>
      </trkpt>
      <trkpt lat="55.7064144" lon="13.2299919">
        <ele>63.1036</ele>
        <time>2012-05-03T19:55:54Z</time>
      </trkpt>
      <trkpt lat="55.7063463" lon="13.229756">
        <ele>63.5844</ele>
        <time>2012-05-03T19:55:59Z</time>
      </trkpt>
      <trkpt lat="55.7062904" lon="13.2295374">
        <ele>63.5844</ele>
        <time>2012-05-03T19:56:04Z</time>
      </trkpt>
      <trkpt lat="55.7062277" lon="13.2293062">
        <ele>63.1036</ele>
        <time>2012-05-03T19:56:09Z</time>
      </trkpt>
      <trkpt lat="55.7061779" lon="13.2290957">
        <ele>63.1036</ele>
        <time>2012-05-03T19:56:14Z</time>
      </trkpt>
      <trkpt lat="55.7061069" lon="13.2288645">
        <ele>63.5844</ele>
        <time>2012-05-03T19:56:19Z</time>
      </trkpt>
      <trkpt lat="55.7060436" lon="13.2286117">
        <ele>65.0264</ele>
        <time>2012-05-03T19:56:25Z</time>
      </trkpt>
      <trkpt lat="55.7059875" lon="13.2283255">
        <ele>64.0651</ele>
        <time>2012-05-03T19:56:31Z</time>
      </trkpt>
      <trkpt lat="55.7059153" lon="13.2281092">
        <ele>64.5457</ele>
        <time>2012-05-03T19:56:36Z</time>
      </trkpt>
      <trkpt lat="55.7058624" lon="13.2279178">
        <ele>65.0264</ele>
        <time>2012-05-03T19:56:40Z</time>
      </trkpt>
      <trkpt lat="55.7057935" lon="13.2277036">
        <ele>64.0651</ele>
        <time>2012-05-03T19:56:45Z</time>
      </trkpt>
      <trkpt lat="55.7057501" lon="13.2275503">
        <ele>65.0264</ele>
        <time>2012-05-03T19:56:49Z</time>
      </trkpt>
      <trkpt lat="55.7056964" lon="13.2273796">
        <ele>65.0264</ele>
        <time>2012-05-03T19:56:53Z</time>
      </trkpt>
      <trkpt lat="55.7056361" lon="13.2271689">
        <ele>65.5071</ele>
        <time>2012-05-03T19:56:58Z</time>
      </trkpt>
      <trkpt lat="55.7055729" lon="13.2269947">
        <ele>65.5071</ele>
        <time>2012-05-03T19:57:02Z</time>
      </trkpt>
      <trkpt lat="55.7055029" lon="13.226764">
        <ele>66.949</ele>
        <time>2012-05-03T19:57:07Z</time>
      </trkpt>
      <trkpt lat="55.7054344" lon="13.2264752">
        <ele>65.5071</ele>
        <time>2012-05-03T19:57:13Z</time>
      </trkpt>
      <trkpt lat="55.7053804" lon="13.2262696">
        <ele>64.5457</ele>
        <time>2012-05-03T19:57:17Z</time>
      </trkpt>
      <trkpt lat="55.7053019" lon="13.2259474">
        <ele>63.1036</ele>
        <time>2012-05-03T19:57:24Z</time>
      </trkpt>
      <trkpt lat="55.7052411" lon="13.2257483">
        <ele>63.1036</ele>
        <time>2012-05-03T19:57:29Z</time>
      </trkpt>
      <trkpt lat="55.7051878" lon="13.2255166">
        <ele>62.6229</ele>
        <time>2012-05-03T19:57:34Z</time>
      </trkpt>
      <trkpt lat="55.7051202" lon="13.2252382">
        <ele>61.6617</ele>
        <time>2012-05-03T19:57:40Z</time>
      </trkpt>
      <trkpt lat="55.7050408" lon="13.2249941">
        <ele>60.2197</ele>
        <time>2012-05-03T19:57:46Z</time>
      </trkpt>
      <trkpt lat="55.7049836" lon="13.2247895">
        <ele>59.7391</ele>
        <time>2012-05-03T19:57:51Z</time>
      </trkpt>
      <trkpt lat="55.7049403" lon="13.2246304">
        <ele>58.7777</ele>
        <time>2012-05-03T19:57:55Z</time>
      </trkpt>
      <trkpt lat="55.7048842" lon="13.2244502">
        <ele>58.7777</ele>
        <time>2012-05-03T19:57:59Z</time>
      </trkpt>
      <trkpt lat="55.7048232" lon="13.2242367">
        <ele>58.7777</ele>
        <time>2012-05-03T19:58:04Z</time>
      </trkpt>
      <trkpt lat="55.7047562" lon="13.2240073">
        <ele>58.2971</ele>
        <time>2012-05-03T19:58:09Z</time>
      </trkpt>
      <trkpt lat="55.704719" lon="13.2237802">
        <ele>58.7777</ele>
        <time>2012-05-03T19:58:14Z</time>
      </trkpt>
      <trkpt lat="55.7046507" lon="13.2234448">
        <ele>55.4131</ele>
        <time>2012-05-03T19:58:21Z</time>
      </trkpt>
      <trkpt lat="55.7045901" lon="13.2232208">
        <ele>54.9324</ele>
        <time>2012-05-03T19:58:26Z</time>
      </trkpt>
      <trkpt lat="55.7045358" lon="13.2230141">
        <ele>54.9324</ele>
        <time>2012-05-03T19:58:31Z</time>
      </trkpt>
      <trkpt lat="55.704485" lon="13.2228237">
        <ele>54.9324</ele>
        <time>2012-05-03T19:58:36Z</time>
      </trkpt>
      <trkpt lat="55.7044358" lon="13.2226673">
        <ele>54.9324</ele>
        <time>2012-05-03T19:58:40Z</time>
      </trkpt>
      <trkpt lat="55.704372" lon="13.2224878">
        <ele>55.8938</ele>
        <time>2012-05-03T19:58:45Z</time>
      </trkpt>
      <trkpt lat="55.7043071" lon="13.2222439">
        <ele>55.4131</ele>
        <time>2012-05-03T19:58:51Z</time>
      </trkpt>
      <trkpt lat="55.704268" lon="13.2220235">
        <ele>53.4905</ele>
        <time>2012-05-03T19:58:56Z</time>
      </trkpt>
      <trkpt lat="55.7042545" lon="13.2219772">
        <ele>53.0098</ele>
        <time>2012-05-03T19:58:57Z</time>
      </trkpt>
      <trkpt lat="55.7042124" lon="13.2218098">
        <ele>53.0098</ele>
        <time>2012-05-03T19:59:01Z</time>
      </trkpt>
      <trkpt lat="55.7041612" lon="13.2215737">
        <ele>53.4905</ele>
        <time>2012-05-03T19:59:07Z</time>
      </trkpt>
      <trkpt lat="55.7040721" lon="13.2212743">
        <ele>53.4905</ele>
        <time>2012-05-03T19:59:14Z</time>
      </trkpt>
      <trkpt lat="55.7040191" lon="13.221021">
        <ele>50.126</ele>
        <time>2012-05-03T19:59:20Z</time>
      </trkpt>
      <trkpt lat="55.7039556" lon="13.2208112">
        <ele>49.6453</ele>
        <time>2012-05-03T19:59:25Z</time>
      </trkpt>
      <trkpt lat="55.7038971" lon="13.2205837">
        <ele>49.1646</ele>
        <time>2012-05-03T19:59:31Z</time>
      </trkpt>
      <trkpt lat="55.7038614" lon="13.2204709">
        <ele>48.2034</ele>
        <time>2012-05-03T19:59:34Z</time>
      </trkpt>
      <trkpt lat="55.7037767" lon="13.2201751">
        <ele>49.1646</ele>
        <time>2012-05-03T19:59:41Z</time>
      </trkpt>
      <trkpt lat="55.7037121" lon="13.2199296">
        <ele>49.6453</ele>
        <time>2012-05-03T19:59:47Z</time>
      </trkpt>
      <trkpt lat="55.7036563" lon="13.21974">
        <ele>50.126</ele>
        <time>2012-05-03T19:59:52Z</time>
      </trkpt>
      <trkpt lat="55.7035988" lon="13.2194981">
        <ele>50.126</ele>
        <time>2012-05-03T19:59:58Z</time>
      </trkpt>
      <trkpt lat="55.7035323" lon="13.2192872">
        <ele>50.126</ele>
        <time>2012-05-03T20:00:03Z</time>
      </trkpt>
      <trkpt lat="55.7034635" lon="13.2190411">
        <ele>51.5679</ele>
        <time>2012-05-03T20:00:09Z</time>
      </trkpt>
      <trkpt lat="55.7034163" lon="13.2188781">
        <ele>51.5679</ele>
        <time>2012-05-03T20:00:13Z</time>
      </trkpt>
      <trkpt lat="55.7033394" lon="13.2186348">
        <ele>53.4905</ele>
        <time>2012-05-03T20:00:19Z</time>
      </trkpt>
      <trkpt lat="55.703281" lon="13.2184309">
        <ele>54.4518</ele>
        <time>2012-05-03T20:00:24Z</time>
      </trkpt>
      <trkpt lat="55.7032329" lon="13.2182225">
        <ele>53.0098</ele>
        <time>2012-05-03T20:00:29Z</time>
      </trkpt>
      <trkpt lat="55.7031931" lon="13.2180467">
        <ele>51.0872</ele>
        <time>2012-05-03T20:00:33Z</time>
      </trkpt>
      <trkpt lat="55.703124" lon="13.21779">
        <ele>50.126</ele>
        <time>2012-05-03T20:00:39Z</time>
      </trkpt>
      <trkpt lat="55.7030454" lon="13.2175374">
        <ele>50.126</ele>
        <time>2012-05-03T20:00:45Z</time>
      </trkpt>
      <trkpt lat="55.7029662" lon="13.2173194">
        <ele>49.6453</ele>
        <time>2012-05-03T20:00:50Z</time>
      </trkpt>
      <trkpt lat="55.7029096" lon="13.2170839">
        <ele>49.1646</ele>
        <time>2012-05-03T20:00:55Z</time>
      </trkpt>
      <trkpt lat="55.7028504" lon="13.2168258">
        <ele>48.2034</ele>
        <time>2012-05-03T20:01:01Z</time>
      </trkpt>
      <trkpt lat="55.7028009" lon="13.21662">
        <ele>48.684</ele>
        <time>2012-05-03T20:01:06Z</time>
      </trkpt>
      <trkpt lat="55.7027579" lon="13.2164185">
        <ele>48.2034</ele>
        <time>2012-05-03T20:01:11Z</time>
      </trkpt>
      <trkpt lat="55.7027" lon="13.2161445">
        <ele>48.684</ele>
        <time>2012-05-03T20:01:18Z</time>
      </trkpt>
      <trkpt lat="55.702617" lon="13.2159365">
        <ele>49.6453</ele>
        <time>2012-05-03T20:01:23Z</time>
      </trkpt>
      <trkpt lat="55.7025531" lon="13.2157088">
        <ele>50.126</ele>
        <time>2012-05-03T20:01:28Z</time>
      </trkpt>
      <trkpt lat="55.7024902" lon="13.2154333">
        <ele>49.1646</ele>
        <time>2012-05-03T20:01:34Z</time>
      </trkpt>
      <trkpt lat="55.7024456" lon="13.2152276">
        <ele>48.684</ele>
        <time>2012-05-03T20:01:39Z</time>
      </trkpt>
      <trkpt lat="55.7023876" lon="13.2149878">
        <ele>49.1646</ele>
        <time>2012-05-03T20:01:45Z</time>
      </trkpt>
      <trkpt lat="55.7023043" lon="13.2147104">
        <ele>49.1646</ele>
        <time>2012-05-03T20:01:52Z</time>
      </trkpt>
      <trkpt lat="55.7022425" lon="13.2144961">
        <ele>49.1646</ele>
        <time>2012-05-03T20:01:57Z</time>
      </trkpt>
      <trkpt lat="55.7021776" lon="13.2142416">
        <ele>48.684</ele>
        <time>2012-05-03T20:02:03Z</time>
      </trkpt>
      <trkpt lat="55.7021258" lon="13.2140399">
        <ele>47.7225</ele>
        <time>2012-05-03T20:02:08Z</time>
      </trkpt>
      <trkpt lat="55.7020555" lon="13.2138">
        <ele>47.2418</ele>
        <time>2012-05-03T20:02:14Z</time>
      </trkpt>
      <trkpt lat="55.7020113" lon="13.2136267">
        <ele>46.7612</ele>
        <time>2012-05-03T20:02:18Z</time>
      </trkpt>
      <trkpt lat="55.7019483" lon="13.213384">
        <ele>44.8386</ele>
        <time>2012-05-03T20:02:24Z</time>
      </trkpt>
      <trkpt lat="55.7019058" lon="13.213237">
        <ele>43.8773</ele>
        <time>2012-05-03T20:02:28Z</time>
      </trkpt>
      <trkpt lat="55.7018538" lon="13.2130339">
        <ele>42.916</ele>
        <time>2012-05-03T20:02:33Z</time>
      </trkpt>
      <trkpt lat="55.7018" lon="13.2128271">
        <ele>41.9547</ele>
        <time>2012-05-03T20:02:38Z</time>
      </trkpt>
      <trkpt lat="55.7017389" lon="13.2125959">
        <ele>42.4354</ele>
        <time>2012-05-03T20:02:44Z</time>
      </trkpt>
      <trkpt lat="55.7016676" lon="13.2124397">
        <ele>42.916</ele>
        <time>2012-05-03T20:02:49Z</time>
      </trkpt>
      <trkpt lat="55.7015443" lon="13.2123127">
        <ele>41.474</ele>
        <time>2012-05-03T20:02:55Z</time>
      </trkpt>
      <trkpt lat="55.7014432" lon="13.2121354">
        <ele>40.9934</ele>
        <time>2012-05-03T20:03:01Z</time>
      </trkpt>
      <trkpt lat="55.7014234" lon="13.2119311">
        <ele>40.5128</ele>
        <time>2012-05-03T20:03:06Z</time>
      </trkpt>
      <trkpt lat="55.7014606" lon="13.2116677">
        <ele>40.0321</ele>
        <time>2012-05-03T20:03:12Z</time>
      </trkpt>
      <trkpt lat="55.7014195" lon="13.2113716">
        <ele>40.0321</ele>
        <time>2012-05-03T20:03:19Z</time>
      </trkpt>
      <trkpt lat="55.7013722" lon="13.2111617">
        <ele>40.0321</ele>
        <time>2012-05-03T20:03:24Z</time>
      </trkpt>
      <trkpt lat="55.7013034" lon="13.2108769">
        <ele>40.5128</ele>
        <time>2012-05-03T20:03:31Z</time>
      </trkpt>
      <trkpt lat="55.7012422" lon="13.2106328">
        <ele>40.0321</ele>
        <time>2012-05-03T20:03:37Z</time>
      </trkpt>
      <trkpt lat="55.7011845" lon="13.2103859">
        <ele>39.0707</ele>
        <time>2012-05-03T20:03:43Z</time>
      </trkpt>
      <trkpt lat="55.7011448" lon="13.2101693">
        <ele>37.6287</ele>
        <time>2012-05-03T20:03:48Z</time>
      </trkpt>
      <trkpt lat="55.7010673" lon="13.2098727">
        <ele>38.5901</ele>
        <time>2012-05-03T20:03:55Z</time>
      </trkpt>
      <trkpt lat="55.7010196" lon="13.2097157">
        <ele>39.0707</ele>
        <time>2012-05-03T20:03:59Z</time>
      </trkpt>
      <trkpt lat="55.700953" lon="13.2094783">
        <ele>39.0707</ele>
        <time>2012-05-03T20:04:05Z</time>
      </trkpt>
      <trkpt lat="55.7008975" lon="13.2092664">
        <ele>40.0321</ele>
        <time>2012-05-03T20:04:10Z</time>
      </trkpt>
      <trkpt lat="55.7008398" lon="13.2090617">
        <ele>40.5128</ele>
        <time>2012-05-03T20:04:15Z</time>
      </trkpt>
      <trkpt lat="55.7007469" lon="13.2087569">
        <ele>39.5513</ele>
        <time>2012-05-03T20:04:22Z</time>
      </trkpt>
      <trkpt lat="55.7006658" lon="13.2085079">
        <ele>41.474</ele>
        <time>2012-05-03T20:04:28Z</time>
      </trkpt>
      <trkpt lat="55.7006072" lon="13.2083296">
        <ele>42.916</ele>
        <time>2012-05-03T20:04:33Z</time>
      </trkpt>
      <trkpt lat="55.7005357" lon="13.2080816">
        <ele>45.7999</ele>
        <time>2012-05-03T20:04:39Z</time>
      </trkpt>
      <trkpt lat="55.700487" lon="13.2079284">
        <ele>45.3192</ele>
        <time>2012-05-03T20:04:43Z</time>
      </trkpt>
      <trkpt lat="55.70047" lon="13.2077989">
        <ele>45.7999</ele>
        <time>2012-05-03T20:04:46Z</time>
      </trkpt>
      <trkpt lat="55.7004625" lon="13.2077558">
        <ele>45.7999</ele>
        <time>2012-05-03T20:04:47Z</time>
      </trkpt>
      <trkpt lat="55.700421" lon="13.2075393">
        <ele>45.3192</ele>
        <time>2012-05-03T20:04:52Z</time>
      </trkpt>
      <trkpt lat="55.7003597" lon="13.2071897">
        <ele>42.916</ele>
        <time>2012-05-03T20:05:00Z</time>
      </trkpt>
      <trkpt lat="55.7003041" lon="13.2069327">
        <ele>42.916</ele>
        <time>2012-05-03T20:05:06Z</time>
      </trkpt>
      <trkpt lat="55.7003081" lon="13.2068451">
        <ele>42.4354</ele>
        <time>2012-05-03T20:05:08Z</time>
      </trkpt>
      <trkpt lat="55.7003394" lon="13.2066926">
        <ele>42.4354</ele>
        <time>2012-05-03T20:05:12Z</time>
      </trkpt>
      <trkpt lat="55.7003077" lon="13.206566">
        <ele>41.474</ele>
        <time>2012-05-03T20:05:16Z</time>
      </trkpt>
      <trkpt lat="55.7001725" lon="13.2064652">
        <ele>41.474</ele>
        <time>2012-05-03T20:05:22Z</time>
      </trkpt>
      <trkpt lat="55.7000696" lon="13.2063613">
        <ele>42.4354</ele>
        <time>2012-05-03T20:05:27Z</time>
      </trkpt>
      <trkpt lat="55.6999651" lon="13.2061815">
        <ele>43.8773</ele>
        <time>2012-05-03T20:05:33Z</time>
      </trkpt>
      <trkpt lat="55.6999036" lon="13.2059935">
        <ele>43.8773</ele>
        <time>2012-05-03T20:05:38Z</time>
      </trkpt>
      <trkpt lat="55.6998352" lon="13.2058243">
        <ele>43.3966</ele>
        <time>2012-05-03T20:05:43Z</time>
      </trkpt>
      <trkpt lat="55.699767" lon="13.2056369">
        <ele>43.3966</ele>
        <time>2012-05-03T20:05:48Z</time>
      </trkpt>
      <trkpt lat="55.6997038" lon="13.2055154">
        <ele>43.3966</ele>
        <time>2012-05-03T20:05:52Z</time>
      </trkpt>
      <trkpt lat="55.6996479" lon="13.2053771">
        <ele>42.916</ele>
        <time>2012-05-03T20:05:56Z</time>
      </trkpt>
      <trkpt lat="55.6995573" lon="13.2051798">
        <ele>41.9547</ele>
        <time>2012-05-03T20:06:02Z</time>
      </trkpt>
      <trkpt lat="55.6994753" lon="13.2050139">
        <ele>40.0321</ele>
        <time>2012-05-03T20:06:07Z</time>
      </trkpt>
      <trkpt lat="55.6993858" lon="13.2048651">
        <ele>40.0321</ele>
        <time>2012-05-03T20:06:12Z</time>
      </trkpt>
      <trkpt lat="55.6993024" lon="13.2047012">
        <ele>40.9934</ele>
        <time>2012-05-03T20:06:17Z</time>
      </trkpt>
      <trkpt lat="55.6992178" lon="13.2045406">
        <ele>40.0321</ele>
        <time>2012-05-03T20:06:22Z</time>
      </trkpt>
      <trkpt lat="55.6991293" lon="13.2044255">
        <ele>40.0321</ele>
        <time>2012-05-03T20:06:27Z</time>
      </trkpt>
      <trkpt lat="55.6990395" lon="13.2042868">
        <ele>39.5513</ele>
        <time>2012-05-03T20:06:32Z</time>
      </trkpt>
      <trkpt lat="55.6989553" lon="13.2041422">
        <ele>38.5901</ele>
        <time>2012-05-03T20:06:37Z</time>
      </trkpt>
      <trkpt lat="55.698849" lon="13.2039712">
        <ele>39.5513</ele>
        <time>2012-05-03T20:06:43Z</time>
      </trkpt>
      <trkpt lat="55.6987262" lon="13.2037768">
        <ele>38.1094</ele>
        <time>2012-05-03T20:06:50Z</time>
      </trkpt>
      <trkpt lat="55.6986046" lon="13.2035806">
        <ele>36.1868</ele>
        <time>2012-05-03T20:06:57Z</time>
      </trkpt>
      <trkpt lat="55.6985155" lon="13.2034422">
        <ele>35.7061</ele>
        <time>2012-05-03T20:07:02Z</time>
      </trkpt>
      <trkpt lat="55.698389" lon="13.2032434">
        <ele>36.1868</ele>
        <time>2012-05-03T20:07:09Z</time>
      </trkpt>
      <trkpt lat="55.6983059" lon="13.203088">
        <ele>34.7449</ele>
        <time>2012-05-03T20:07:14Z</time>
      </trkpt>
      <trkpt lat="55.6982176" lon="13.2029461">
        <ele>33.3029</ele>
        <time>2012-05-03T20:07:19Z</time>
      </trkpt>
      <trkpt lat="55.6981331" lon="13.2027939">
        <ele>31.3801</ele>
        <time>2012-05-03T20:07:24Z</time>
      </trkpt>
      <trkpt lat="55.6980357" lon="13.2026078">
        <ele>28.9769</ele>
        <time>2012-05-03T20:07:30Z</time>
      </trkpt>
      <trkpt lat="55.6979373" lon="13.2024664">
        <ele>28.9769</ele>
        <time>2012-05-03T20:07:35Z</time>
      </trkpt>
      <trkpt lat="55.6978473" lon="13.2023106">
        <ele>28.9769</ele>
        <time>2012-05-03T20:07:40Z</time>
      </trkpt>
      <trkpt lat="55.6977693" lon="13.2021984">
        <ele>28.4962</ele>
        <time>2012-05-03T20:07:44Z</time>
      </trkpt>
      <trkpt lat="55.697665" lon="13.2020323">
        <ele>28.4962</ele>
        <time>2012-05-03T20:07:50Z</time>
      </trkpt>
      <trkpt lat="55.697583" lon="13.2018972">
        <ele>28.4962</ele>
        <time>2012-05-03T20:07:55Z</time>
      </trkpt>
      <trkpt lat="55.697483" lon="13.2017547">
        <ele>28.9769</ele>
        <time>2012-05-03T20:08:00Z</time>
      </trkpt>
      <trkpt lat="55.6973805" lon="13.201581">
        <ele>28.4962</ele>
        <time>2012-05-03T20:08:06Z</time>
      </trkpt>
      <trkpt lat="55.6972922" lon="13.2014459">
        <ele>28.4962</ele>
        <time>2012-05-03T20:08:11Z</time>
      </trkpt>
      <trkpt lat="55.6972184" lon="13.2013195">
        <ele>29.9381</ele>
        <time>2012-05-03T20:08:16Z</time>
      </trkpt>
      <trkpt lat="55.6971359" lon="13.2011672">
        <ele>30.4188</ele>
        <time>2012-05-03T20:08:21Z</time>
      </trkpt>
      <trkpt lat="55.6970309" lon="13.2009873">
        <ele>30.4188</ele>
        <time>2012-05-03T20:08:27Z</time>
      </trkpt>
      <trkpt lat="55.6969437" lon="13.2008548">
        <ele>29.9381</ele>
        <time>2012-05-03T20:08:32Z</time>
      </trkpt>
      <trkpt lat="55.696851" lon="13.2007267">
        <ele>30.4188</ele>
        <time>2012-05-03T20:08:37Z</time>
      </trkpt>
      <trkpt lat="55.6967333" lon="13.2005275">
        <ele>29.9381</ele>
        <time>2012-05-03T20:08:44Z</time>
      </trkpt>
      <trkpt lat="55.6965935" lon="13.2003018">
        <ele>30.8995</ele>
        <time>2012-05-03T20:08:52Z</time>
      </trkpt>
      <trkpt lat="55.6964838" lon="13.2000968">
        <ele>29.4575</ele>
        <time>2012-05-03T20:08:59Z</time>
      </trkpt>
      <trkpt lat="55.6963968" lon="13.1999571">
        <ele>30.4188</ele>
        <time>2012-05-03T20:09:04Z</time>
      </trkpt>
      <trkpt lat="55.6963019" lon="13.1997696">
        <ele>30.4188</ele>
        <time>2012-05-03T20:09:10Z</time>
      </trkpt>
      <trkpt lat="55.6962624" lon="13.1996658">
        <ele>30.8995</ele>
        <time>2012-05-03T20:09:13Z</time>
      </trkpt>
      <trkpt lat="55.6961853" lon="13.1994617">
        <ele>32.8223</ele>
        <time>2012-05-03T20:09:19Z</time>
      </trkpt>
      <trkpt lat="55.6961006" lon="13.1992671">
        <ele>33.7834</ele>
        <time>2012-05-03T20:09:25Z</time>
      </trkpt>
      <trkpt lat="55.6960338" lon="13.1990791">
        <ele>33.3029</ele>
        <time>2012-05-03T20:09:30Z</time>
      </trkpt>
      <trkpt lat="55.6959715" lon="13.1988776">
        <ele>34.2642</ele>
        <time>2012-05-03T20:09:35Z</time>
      </trkpt>
      <trkpt lat="55.6959045" lon="13.1986756">
        <ele>34.2642</ele>
        <time>2012-05-03T20:09:40Z</time>
      </trkpt>
      <trkpt lat="55.695847" lon="13.1985228">
        <ele>35.2255</ele>
        <time>2012-05-03T20:09:44Z</time>
      </trkpt>
      <trkpt lat="55.6958286" lon="13.1983494">
        <ele>33.7834</ele>
        <time>2012-05-03T20:09:49Z</time>
      </trkpt>
      <trkpt lat="55.6958066" lon="13.1981388">
        <ele>34.2642</ele>
        <time>2012-05-03T20:09:54Z</time>
      </trkpt>
      <trkpt lat="55.6958042" lon="13.1980686">
        <ele>33.3029</ele>
        <time>2012-05-03T20:09:56Z</time>
      </trkpt>
      <trkpt lat="55.6958245" lon="13.1978228">
        <ele>35.2255</ele>
        <time>2012-05-03T20:10:02Z</time>
      </trkpt>
      <trkpt lat="55.6957932" lon="13.1976277">
        <ele>35.2255</ele>
        <time>2012-05-03T20:10:07Z</time>
      </trkpt>
      <trkpt lat="55.6957855" lon="13.1975006">
        <ele>35.2255</ele>
        <time>2012-05-03T20:10:10Z</time>
      </trkpt>
      <trkpt lat="55.6957571" lon="13.1973013">
        <ele>36.1868</ele>
        <time>2012-05-03T20:10:15Z</time>
      </trkpt>
      <trkpt lat="55.6957143" lon="13.1971313">
        <ele>38.5901</ele>
        <time>2012-05-03T20:10:19Z</time>
      </trkpt>
      <trkpt lat="55.6957099" lon="13.1970896">
        <ele>38.5901</ele>
        <time>2012-05-03T20:10:20Z</time>
      </trkpt>
      <trkpt lat="55.695742" lon="13.1967942">
        <ele>35.7061</ele>
        <time>2012-05-03T20:10:27Z</time>
      </trkpt>
      <trkpt lat="55.6957503" lon="13.1965956">
        <ele>35.2255</ele>
        <time>2012-05-03T20:10:32Z</time>
      </trkpt>
      <trkpt lat="55.6957542" lon="13.1964429">
        <ele>33.7834</ele>
        <time>2012-05-03T20:10:36Z</time>
      </trkpt>
      <trkpt lat="55.6956864" lon="13.196139">
        <ele>41.474</ele>
        <time>2012-05-03T20:10:42Z</time>
      </trkpt>
      <trkpt lat="55.6956943" lon="13.1960762">
        <ele>42.916</ele>
        <time>2012-05-03T20:10:44Z</time>
      </trkpt>
      <trkpt lat="55.6958289" lon="13.1960622">
        <ele>40.9934</ele>
        <time>2012-05-03T20:10:49Z</time>
      </trkpt>
      <trkpt lat="55.6958828" lon="13.1960678">
        <ele>40.0321</ele>
        <time>2012-05-03T20:10:51Z</time>
      </trkpt>
      <trkpt lat="55.6961" lon="13.1960913">
        <ele>31.8607</ele>
        <time>2012-05-03T20:10:58Z</time>
      </trkpt>
      <trkpt lat="55.6961482" lon="13.1960954">
        <ele>30.8995</ele>
        <time>2012-05-03T20:11:00Z</time>
      </trkpt>
      <trkpt lat="55.6961725" lon="13.1960944">
        <ele>29.9381</ele>
        <time>2012-05-03T20:11:01Z</time>
      </trkpt>
      <trkpt lat="55.696233" lon="13.1959572">
        <ele>29.9381</ele>
        <time>2012-05-03T20:11:06Z</time>
      </trkpt>
      <trkpt lat="55.6962476" lon="13.1959186">
        <ele>29.4575</ele>
        <time>2012-05-03T20:11:07Z</time>
      </trkpt>
      <trkpt lat="55.6962714" lon="13.1958482">
        <ele>28.9769</ele>
        <time>2012-05-03T20:11:09Z</time>
      </trkpt>
      <trkpt lat="55.6962881" lon="13.1958105">
        <ele>28.0155</ele>
        <time>2012-05-03T20:11:12Z</time>
      </trkpt>
    </trkseg>
  </trk>
</gpx>